Time,TemperatureF,DewpointF,PressureIn,WindDirection,WindDirectionDegrees,WindSpeedMPH,WindSpeedGustMPH,Humidity,HourlyPrecipIn,Conditions,Clouds,dailyrainin,SolarRadiationWatts/m^2,SoftwareType,DateUTC
2013-05-27 00:00:00,57.6,54.1,29.19,West,270,1.0,2.0,88,0.18,,,0.04,0.00,VWS V14.01,2013-05-27 05:00:00,
2013-05-27 00:01:00,57.5,54.0,29.20,West,270,0.0,1.0,88,0.22,,,0.08,0.00,VWS V14.01,2013-05-27 05:01:00,
2013-05-27 00:02:00,57.5,54.0,29.20,WSW,248,0.0,1.0,88,0.26,,,0.12,0.00,VWS V14.01,2013-05-27 05:02:00,
2013-05-27 00:03:00,57.5,54.0,29.22,WSW,248,0.0,2.0,88,0.33,,,0.19,0.00,VWS V14.01,2013-05-27 05:03:00,
2013-05-27 00:04:00,57.5,54.0,29.22,WSW,248,1.0,3.0,88,0.38,,,0.24,0.00,VWS V14.01,2013-05-27 05:04:00,
2013-05-27 00:05:00,57.4,53.9,29.22,NW,315,1.0,5.0,88,0.42,,,0.28,0.00,VWS V14.01,2013-05-27 05:05:00,
2013-05-27 00:06:00,57.4,53.9,29.22,North,0,0.0,1.0,88,0.46,,,0.32,0.00,VWS V14.01,2013-05-27 05:06:00,
2013-05-27 00:07:00,57.3,53.8,29.22,North,0,0.0,0.0,88,0.47,,,0.33,0.00,VWS V14.01,2013-05-27 05:07:00,
2013-05-27 00:08:00,57.3,54.1,29.21,North,0,0.0,1.0,89,0.49,,,0.35,0.00,VWS V14.01,2013-05-27 05:08:00,
2013-05-27 00:09:00,57.3,54.1,29.22,SSW,202,0.0,2.0,89,0.50,,,0.36,0.00,VWS V14.01,2013-05-27 05:09:00,
2013-05-27 00:10:00,57.3,54.1,29.22,SSW,202,0.0,1.0,89,0.50,,,0.36,0.00,VWS V14.01,2013-05-27 05:10:00,
2013-05-27 00:11:00,57.2,54.0,29.21,SSW,202,0.0,1.0,89,0.52,,,0.38,0.00,VWS V14.01,2013-05-27 05:11:00,
2013-05-27 00:12:00,57.2,54.0,29.21,SSW,202,1.0,3.0,89,0.52,,,0.38,0.00,VWS V14.01,2013-05-27 05:12:00,
2013-05-27 00:13:00,57.2,54.0,29.21,South,180,0.0,4.0,89,0.54,,,0.40,0.00,VWS V14.01,2013-05-27 05:13:00,
2013-05-27 00:14:00,57.2,54.0,29.21,South,180,0.0,1.0,89,0.58,,,0.44,0.00,VWS V14.01,2013-05-27 05:14:00,
2013-05-27 00:15:00,57.1,53.9,29.21,West,270,0.0,2.0,89,0.62,,,0.48,0.00,VWS V14.01,2013-05-27 05:15:00,
2013-05-27 00:16:00,57.2,54.0,29.21,WNW,292,0.0,1.0,89,0.65,,,0.51,0.00,VWS V14.01,2013-05-27 05:16:00,
2013-05-27 00:17:00,57.1,53.9,29.21,WNW,292,0.0,1.0,89,0.66,,,0.52,0.00,VWS V14.01,2013-05-27 05:17:00,
2013-05-27 00:18:00,57.1,53.9,29.22,NNW,338,1.0,3.0,89,0.67,,,0.53,0.00,VWS V14.01,2013-05-27 05:18:00,
2013-05-27 00:19:00,57.1,53.9,29.23,NNW,338,0.0,2.0,89,0.67,,,0.54,0.00,VWS V14.01,2013-05-27 05:19:00,
2013-05-27 00:20:00,57.1,53.9,29.24,NNW,338,0.0,1.0,89,0.64,,,0.54,0.00,VWS V14.01,2013-05-27 05:20:00,
2013-05-27 00:21:00,57.1,53.9,29.24,NNW,338,0.0,0.0,89,0.62,,,0.55,0.00,VWS V14.01,2013-05-27 05:21:00,
2013-05-27 00:22:00,57.1,53.9,29.24,NNW,338,0.0,0.0,89,0.60,,,0.56,0.00,VWS V14.01,2013-05-27 05:22:00,
2013-05-27 00:23:00,57.1,53.9,29.23,NNW,338,0.0,0.0,89,0.61,,,0.57,0.00,VWS V14.01,2013-05-27 05:23:00,
2013-05-27 00:24:00,57.1,53.9,29.23,NNW,338,0.0,1.0,89,0.61,,,0.58,0.00,VWS V14.01,2013-05-27 05:24:00,
2013-05-27 00:25:00,57.1,53.9,29.22,NNW,338,0.0,1.0,89,0.61,,,0.58,0.00,VWS V14.01,2013-05-27 05:25:00,
2013-05-27 00:26:00,57.1,53.9,29.21,West,270,0.0,2.0,89,0.62,,,0.59,0.00,VWS V14.01,2013-05-27 05:26:00,
2013-05-27 00:27:00,57.1,53.9,29.20,WSW,248,0.0,2.0,89,0.65,,,0.62,0.00,VWS V14.01,2013-05-27 05:27:00,
2013-05-27 00:28:00,57.1,53.9,29.20,SE,135,0.0,1.0,89,0.68,,,0.66,0.00,VWS V14.01,2013-05-27 05:28:00,
2013-05-27 00:29:00,57.1,53.9,29.20,SE,135,0.0,1.0,89,0.70,,,0.68,0.00,VWS V14.01,2013-05-27 05:29:00,
2013-05-27 00:30:00,57.1,53.9,29.20,SE,135,0.0,0.0,89,0.70,,,0.68,0.00,VWS V14.01,2013-05-27 05:30:00,
2013-05-27 00:31:00,57.1,54.2,29.20,WSW,248,1.0,3.0,90,0.71,,,0.69,0.00,VWS V14.01,2013-05-27 05:31:00,
2013-05-27 00:32:00,57.1,54.2,29.20,SE,135,0.0,2.0,90,0.71,,,0.69,0.00,VWS V14.01,2013-05-27 05:32:00,
2013-05-27 00:33:00,57.1,54.2,29.20,NW,315,2.0,7.0,90,0.72,,,0.70,0.00,VWS V14.01,2013-05-27 05:33:00,
2013-05-27 00:34:00,57.1,54.2,29.20,SSE,158,0.0,7.0,90,0.72,,,0.70,0.00,VWS V14.01,2013-05-27 05:34:00,
2013-05-27 00:35:00,57.1,54.2,29.20,SSE,158,0.0,1.0,90,0.72,,,0.70,0.00,VWS V14.01,2013-05-27 05:35:00,
2013-05-27 00:36:00,57.1,54.2,29.20,SSE,158,0.0,1.0,90,0.72,,,0.70,0.00,VWS V14.01,2013-05-27 05:36:00,
2013-05-27 00:37:00,57.1,54.2,29.20,SSE,158,0.0,1.0,90,0.72,,,0.70,0.00,VWS V14.01,2013-05-27 05:37:00,
2013-05-27 00:38:00,57.1,54.2,29.20,SSE,158,0.0,1.0,90,0.72,,,0.70,0.00,VWS V14.01,2013-05-27 05:38:00,
2013-05-27 00:39:00,57.1,54.2,29.20,SSE,158,0.0,0.0,90,0.73,,,0.71,0.00,VWS V14.01,2013-05-27 05:39:00,
2013-05-27 00:40:00,57.1,54.2,29.20,SSE,158,0.0,0.0,90,0.73,,,0.71,0.00,VWS V14.01,2013-05-27 05:40:00,
2013-05-27 00:41:00,57.1,54.2,29.20,SSE,158,0.0,1.0,90,0.73,,,0.71,0.00,VWS V14.01,2013-05-27 05:41:00,
2013-05-27 00:42:00,57.1,54.2,29.20,SSE,158,0.0,0.0,90,0.74,,,0.72,0.00,VWS V14.01,2013-05-27 05:42:00,
2013-05-27 00:43:00,57.1,54.2,29.20,SSE,158,0.0,1.0,90,0.74,,,0.72,0.00,VWS V14.01,2013-05-27 05:43:00,
2013-05-27 00:44:00,57.1,54.2,29.20,SSE,158,0.0,2.0,90,0.74,,,0.72,0.00,VWS V14.01,2013-05-27 05:44:00,
2013-05-27 00:45:00,57.1,54.2,29.20,SSE,158,0.0,2.0,90,0.74,,,0.72,0.00,VWS V14.01,2013-05-27 05:45:00,
2013-05-27 00:46:00,57.1,54.2,29.20,SSE,158,0.0,1.0,90,0.74,,,0.72,0.00,VWS V14.01,2013-05-27 05:46:00,
2013-05-27 00:47:00,57.1,54.2,29.20,SSE,158,0.0,0.0,90,0.75,,,0.73,0.00,VWS V14.01,2013-05-27 05:47:00,
2013-05-27 00:48:00,57.1,54.2,29.20,SSE,158,0.0,1.0,90,0.75,,,0.73,0.00,VWS V14.01,2013-05-27 05:48:00,
2013-05-27 00:49:00,57.0,54.1,29.20,SSE,158,1.0,6.0,90,0.76,,,0.74,0.00,VWS V14.01,2013-05-27 05:49:00,
2013-05-27 00:50:00,57.0,54.1,29.20,South,180,0.0,1.0,90,0.76,,,0.74,0.00,VWS V14.01,2013-05-27 05:50:00,
2013-05-27 00:51:00,57.0,54.1,29.19,South,180,0.0,1.0,90,0.76,,,0.74,0.00,VWS V14.01,2013-05-27 05:51:00,
2013-05-27 00:52:00,57.0,54.1,29.19,SE,135,1.0,4.0,90,0.76,,,0.74,0.00,VWS V14.01,2013-05-27 05:52:00,
2013-05-27 00:53:00,57.0,54.1,29.19,SE,135,0.0,1.0,90,0.77,,,0.75,0.00,VWS V14.01,2013-05-27 05:53:00,
2013-05-27 00:54:00,57.0,54.1,29.19,SE,135,0.0,1.0,90,0.77,,,0.75,0.00,VWS V14.01,2013-05-27 05:54:00,
2013-05-27 00:55:00,57.0,54.1,29.19,SE,135,0.0,1.0,90,0.77,,,0.75,0.00,VWS V14.01,2013-05-27 05:55:00,
2013-05-27 00:56:00,56.9,54.0,29.19,SE,135,0.0,0.0,90,0.78,,,0.76,0.00,VWS V14.01,2013-05-27 05:56:00,
2013-05-27 00:57:00,56.9,54.0,29.19,WSW,248,1.0,3.0,90,0.78,,,0.76,0.00,VWS V14.01,2013-05-27 05:57:00,
2013-05-27 00:58:00,56.9,54.0,29.19,West,270,0.0,2.0,90,0.77,,,0.76,0.00,VWS V14.01,2013-05-27 05:58:00,
2013-05-27 00:59:00,56.9,54.0,29.19,West,270,0.0,1.0,90,0.78,,,0.77,0.00,VWS V14.01,2013-05-27 05:59:00,
2013-05-27 01:00:00,56.9,54.0,29.19,West,270,0.0,0.0,90,0.77,,,0.77,0.00,VWS V14.01,2013-05-27 06:00:00,
2013-05-27 01:01:00,56.9,54.0,29.19,West,270,0.0,0.0,90,0.73,,,0.77,0.00,VWS V14.01,2013-05-27 06:01:00,
2013-05-27 01:02:00,56.9,54.0,29.19,West,270,0.0,0.0,90,0.70,,,0.78,0.00,VWS V14.01,2013-05-27 06:02:00,
2013-05-27 01:03:00,56.9,54.0,29.19,South,180,1.0,4.0,90,0.66,,,0.78,0.00,VWS V14.01,2013-05-27 06:03:00,
2013-05-27 01:04:00,56.9,54.0,29.19,South,180,0.0,2.0,90,0.59,,,0.78,0.00,VWS V14.01,2013-05-27 06:04:00,
2013-05-27 01:05:00,56.9,54.0,29.19,South,180,0.0,0.0,90,0.54,,,0.78,0.00,VWS V14.01,2013-05-27 06:05:00,
2013-05-27 01:06:00,56.9,54.0,29.18,South,180,0.0,1.0,90,0.50,,,0.78,0.00,VWS V14.01,2013-05-27 06:06:00,
2013-05-27 01:07:00,56.9,54.0,29.18,South,180,0.0,0.0,90,0.46,,,0.78,0.00,VWS V14.01,2013-05-27 06:07:00,
2013-05-27 01:08:00,56.9,54.0,29.18,ESE,112,1.0,4.0,90,0.45,,,0.78,0.00,VWS V14.01,2013-05-27 06:08:00,
2013-05-27 01:09:00,56.9,54.0,29.18,ESE,112,0.0,3.0,90,0.43,,,0.78,0.00,VWS V14.01,2013-05-27 06:09:00,
2013-05-27 01:10:00,56.9,54.0,29.18,SSE,158,2.0,7.0,90,0.42,,,0.78,0.00,VWS V14.01,2013-05-27 06:10:00,
2013-05-27 01:11:00,56.9,54.0,29.18,ESE,112,0.0,4.0,90,0.42,,,0.78,0.00,VWS V14.01,2013-05-27 06:11:00,
2013-05-27 01:12:00,56.9,54.0,29.17,ESE,112,1.0,4.0,90,0.40,,,0.78,0.00,VWS V14.01,2013-05-27 06:12:00,
2013-05-27 01:13:00,56.9,54.0,29.17,ESE,112,1.0,4.0,90,0.40,,,0.78,0.00,VWS V14.01,2013-05-27 06:13:00,
2013-05-27 01:14:00,56.9,54.0,29.17,ESE,112,0.0,0.0,90,0.38,,,0.78,0.00,VWS V14.01,2013-05-27 06:14:00,
2013-05-27 01:15:00,56.9,54.0,29.17,SE,135,0.0,4.0,90,0.34,,,0.78,0.00,VWS V14.01,2013-05-27 06:15:00,
2013-05-27 01:16:00,56.9,54.0,29.17,SSE,158,1.0,4.0,90,0.30,,,0.78,0.00,VWS V14.01,2013-05-27 06:16:00,
2013-05-27 01:17:00,56.9,54.0,29.17,ESE,112,1.0,7.0,90,0.27,,,0.78,0.00,VWS V14.01,2013-05-27 06:17:00,
2013-05-27 01:18:00,56.9,54.0,29.17,SE,135,1.0,5.0,90,0.26,,,0.78,0.00,VWS V14.01,2013-05-27 06:18:00,
2013-05-27 01:19:00,56.9,54.0,29.17,SE,135,0.0,1.0,90,0.25,,,0.78,0.00,VWS V14.01,2013-05-27 06:19:00,
2013-05-27 01:20:00,56.9,54.0,29.17,ESE,112,0.0,1.0,90,0.24,,,0.78,0.00,VWS V14.01,2013-05-27 06:20:00,
2013-05-27 01:21:00,56.9,54.0,29.17,ENE,68,0.0,2.0,90,0.24,,,0.78,0.00,VWS V14.01,2013-05-27 06:21:00,
2013-05-27 01:22:00,56.9,54.0,29.17,ESE,112,0.0,1.0,90,0.23,,,0.78,0.00,VWS V14.01,2013-05-27 06:22:00,
2013-05-27 01:23:00,56.9,54.0,29.17,SSW,202,1.0,4.0,90,0.22,,,0.78,0.00,VWS V14.01,2013-05-27 06:23:00,
2013-05-27 01:24:00,56.9,54.0,29.17,SSW,202,0.0,0.0,90,0.21,,,0.78,0.00,VWS V14.01,2013-05-27 06:24:00,
2013-05-27 01:25:00,57.0,54.1,29.17,SSW,202,1.0,4.0,90,0.20,,,0.78,0.00,VWS V14.01,2013-05-27 06:25:00,
2013-05-27 01:26:00,57.0,54.1,29.17,ESE,112,1.0,4.0,90,0.20,,,0.78,0.00,VWS V14.01,2013-05-27 06:26:00,
2013-05-27 01:27:00,57.0,54.1,29.17,SE,135,0.0,1.0,90,0.19,,,0.78,0.00,VWS V14.01,2013-05-27 06:27:00,
2013-05-27 01:28:00,57.0,54.1,29.17,SSE,158,2.0,5.0,90,0.16,,,0.78,0.00,VWS V14.01,2013-05-27 06:28:00,
2013-05-27 01:29:00,57.0,54.1,29.17,SSE,158,0.0,0.0,90,0.12,,,0.78,0.00,VWS V14.01,2013-05-27 06:29:00,
2013-05-27 01:31:00,57.0,54.1,29.16,ESE,112,0.0,1.0,90,0.10,,,0.78,0.00,VWS V14.01,2013-05-27 06:31:00,
2013-05-27 01:32:00,57.0,54.1,29.16,SE,135,4.0,11.0,90,0.09,,,0.78,0.00,VWS V14.01,2013-05-27 06:32:00,
2013-05-27 01:33:00,57.0,54.1,29.16,ESE,112,3.0,11.0,90,0.09,,,0.78,0.00,VWS V14.01,2013-05-27 06:33:00,
2013-05-27 01:34:00,57.1,54.2,29.16,SSE,158,1.0,4.0,90,0.08,,,0.78,0.00,VWS V14.01,2013-05-27 06:34:00,
2013-05-27 01:35:00,57.0,54.1,29.16,SSE,158,1.0,2.0,90,0.09,,,0.79,0.00,VWS V14.01,2013-05-27 06:35:00,
2013-05-27 01:36:00,57.1,54.2,29.16,SE,135,0.0,2.0,90,0.09,,,0.79,0.00,VWS V14.01,2013-05-27 06:36:00,
2013-05-27 01:37:00,57.0,54.1,29.16,SE,135,1.0,5.0,90,0.09,,,0.79,0.00,VWS V14.01,2013-05-27 06:37:00,
2013-05-27 01:38:00,57.0,54.1,29.16,SE,135,2.0,4.0,90,0.09,,,0.79,0.00,VWS V14.01,2013-05-27 06:38:00,
2013-05-27 01:39:00,57.1,54.2,29.16,SE,135,1.0,5.0,90,0.10,,,0.80,0.00,VWS V14.01,2013-05-27 06:39:00,
2013-05-27 01:40:00,57.1,54.2,29.16,SE,135,1.0,4.0,90,0.09,,,0.80,0.00,VWS V14.01,2013-05-27 06:40:00,
2013-05-27 01:41:00,57.1,54.5,29.16,ESE,112,1.0,4.0,91,0.09,,,0.80,0.00,VWS V14.01,2013-05-27 06:41:00,
2013-05-27 01:42:00,57.1,54.5,29.16,ESE,112,1.0,5.0,91,0.10,,,0.81,0.00,VWS V14.01,2013-05-27 06:42:00,
2013-05-27 01:43:00,57.1,54.5,29.16,ESE,112,2.0,4.0,91,0.10,,,0.82,0.00,VWS V14.01,2013-05-27 06:43:00,
2013-05-27 01:44:00,57.1,54.5,29.16,SE,135,0.0,2.0,91,0.10,,,0.82,0.00,VWS V14.01,2013-05-27 06:44:00,
2013-05-27 01:45:00,57.1,54.5,29.16,SE,135,1.0,2.0,91,0.11,,,0.83,0.00,VWS V14.01,2013-05-27 06:45:00,
2013-05-27 01:46:00,57.1,54.5,29.16,SE,135,3.0,7.0,91,0.12,,,0.84,0.00,VWS V14.01,2013-05-27 06:46:00,
2013-05-27 01:47:00,57.1,54.5,29.16,ESE,112,1.0,5.0,91,0.12,,,0.84,0.00,VWS V14.01,2013-05-27 06:47:00,
2013-05-27 01:48:00,57.1,54.5,29.16,ESE,112,2.0,4.0,91,0.11,,,0.84,0.00,VWS V14.01,2013-05-27 06:48:00,
2013-05-27 01:49:00,57.1,54.5,29.15,ESE,112,1.0,5.0,91,0.12,,,0.85,0.00,VWS V14.01,2013-05-27 06:49:00,
2013-05-27 01:50:00,57.1,54.5,29.15,SE,135,3.0,4.0,91,0.12,,,0.86,0.00,VWS V14.01,2013-05-27 06:50:00,
2013-05-27 01:51:00,57.1,54.5,29.15,ESE,112,1.0,3.0,91,0.12,,,0.86,0.00,VWS V14.01,2013-05-27 06:51:00,
2013-05-27 01:52:00,57.1,54.5,29.15,SSE,158,1.0,2.0,91,0.13,,,0.87,0.00,VWS V14.01,2013-05-27 06:52:00,
2013-05-27 01:53:00,57.1,54.5,29.15,ESE,112,2.0,4.0,91,0.13,,,0.87,0.00,VWS V14.01,2013-05-27 06:53:00,
2013-05-27 01:54:00,57.1,54.5,29.15,ESE,112,1.0,7.0,91,0.13,,,0.88,0.00,VWS V14.01,2013-05-27 06:54:00,
2013-05-27 01:55:00,57.1,54.5,29.15,SE,135,2.0,7.0,91,0.13,,,0.88,0.00,VWS V14.01,2013-05-27 06:55:00,
2013-05-27 01:56:00,57.1,54.5,29.15,SE,135,3.0,7.0,91,0.14,,,0.89,0.00,VWS V14.01,2013-05-27 06:56:00,
2013-05-27 01:57:00,57.1,54.5,29.15,SE,135,1.0,5.0,91,0.13,,,0.89,0.00,VWS V14.01,2013-05-27 06:57:00,
2013-05-27 01:58:00,57.1,54.5,29.15,SE,135,2.0,5.0,91,0.14,,,0.90,0.00,VWS V14.01,2013-05-27 06:58:00,
2013-05-27 01:59:00,57.1,54.5,29.15,SE,135,1.0,4.0,91,0.14,,,0.90,0.00,VWS V14.01,2013-05-27 06:59:00,
2013-05-27 02:00:00,57.1,54.5,29.15,SE,135,3.0,9.0,91,0.13,,,0.90,0.00,VWS V14.01,2013-05-27 07:00:00,
2013-05-27 02:01:00,57.1,54.5,29.15,SE,135,3.0,11.0,91,0.13,,,0.90,0.00,VWS V14.01,2013-05-27 07:01:00,
2013-05-27 02:02:00,57.1,54.5,29.14,SE,135,4.0,9.0,91,0.13,,,0.90,0.00,VWS V14.01,2013-05-27 07:02:00,
2013-05-27 02:03:00,57.1,54.5,29.14,SE,135,4.0,8.0,91,0.13,,,0.91,0.00,VWS V14.01,2013-05-27 07:03:00,
2013-05-27 02:04:00,57.1,54.5,29.14,ESE,112,4.0,8.0,91,0.13,,,0.91,0.00,VWS V14.01,2013-05-27 07:04:00,
2013-05-27 02:05:00,57.1,54.5,29.14,ESE,112,4.0,9.0,91,0.13,,,0.91,0.00,VWS V14.01,2013-05-27 07:05:00,
2013-05-27 02:06:00,57.1,54.5,29.14,ESE,112,4.0,14.0,91,0.14,,,0.92,0.00,VWS V14.01,2013-05-27 07:06:00,
2013-05-27 02:07:00,57.1,54.5,29.14,SSE,158,2.0,14.0,91,0.14,,,0.92,0.00,VWS V14.01,2013-05-27 07:07:00,
2013-05-27 02:08:00,57.1,54.5,29.14,ESE,112,3.0,7.0,91,0.14,,,0.92,0.00,VWS V14.01,2013-05-27 07:08:00,
2013-05-27 02:09:00,57.1,54.5,29.14,ESE,112,1.0,4.0,91,0.14,,,0.92,0.00,VWS V14.01,2013-05-27 07:09:00,
2013-05-27 02:10:00,57.1,54.5,29.14,ESE,112,1.0,2.0,91,0.14,,,0.92,0.00,VWS V14.01,2013-05-27 07:10:00,
2013-05-27 02:11:00,57.1,54.5,29.14,SE,135,1.0,4.0,91,0.15,,,0.93,0.00,VWS V14.01,2013-05-27 07:11:00,
2013-05-27 02:12:00,57.1,54.5,29.14,ESE,112,1.0,4.0,91,0.15,,,0.93,0.00,VWS V14.01,2013-05-27 07:12:00,
2013-05-27 02:13:00,57.1,54.5,29.14,SE,135,0.0,1.0,91,0.16,,,0.94,0.00,VWS V14.01,2013-05-27 07:13:00,
2013-05-27 02:14:00,57.1,54.5,29.14,SE,135,1.0,4.0,91,0.16,,,0.94,0.00,VWS V14.01,2013-05-27 07:14:00,
2013-05-27 02:15:00,57.1,54.5,29.14,SSE,158,1.0,5.0,91,0.16,,,0.94,0.00,VWS V14.01,2013-05-27 07:15:00,
2013-05-27 02:16:00,57.1,54.5,29.15,SE,135,2.0,5.0,91,0.16,,,0.94,0.00,VWS V14.01,2013-05-27 07:16:00,
2013-05-27 02:17:00,57.1,54.5,29.15,ESE,112,2.0,5.0,91,0.17,,,0.95,0.00,VWS V14.01,2013-05-27 07:17:00,
2013-05-27 02:18:00,57.1,54.5,29.15,SSE,158,1.0,4.0,91,0.17,,,0.95,0.00,VWS V14.01,2013-05-27 07:18:00,
2013-05-27 02:19:00,57.1,54.5,29.15,SSE,158,0.0,1.0,91,0.18,,,0.96,0.00,VWS V14.01,2013-05-27 07:19:00,
2013-05-27 02:20:00,57.1,54.5,29.15,SSE,158,1.0,5.0,91,0.18,,,0.96,0.00,VWS V14.01,2013-05-27 07:20:00,
2013-05-27 02:21:00,57.1,54.5,29.15,ESE,112,2.0,7.0,91,0.18,,,0.96,0.00,VWS V14.01,2013-05-27 07:21:00,
2013-05-27 02:22:00,57.1,54.5,29.15,SE,135,2.0,5.0,91,0.19,,,0.97,0.00,VWS V14.01,2013-05-27 07:22:00,
2013-05-27 02:23:00,57.1,54.5,29.15,SE,135,1.0,4.0,91,0.19,,,0.97,0.00,VWS V14.01,2013-05-27 07:23:00,
2013-05-27 02:24:00,57.1,54.5,29.15,SE,135,0.0,2.0,91,0.19,,,0.97,0.00,VWS V14.01,2013-05-27 07:24:00,
2013-05-27 02:25:00,57.1,54.5,29.15,ESE,112,1.0,2.0,91,0.20,,,0.98,0.00,VWS V14.01,2013-05-27 07:25:00,
2013-05-27 02:26:00,57.1,54.5,29.14,ESE,112,0.0,2.0,91,0.20,,,0.98,0.00,VWS V14.01,2013-05-27 07:26:00,
2013-05-27 02:27:00,57.1,54.5,29.15,ESE,112,0.0,0.0,91,0.20,,,0.98,0.00,VWS V14.01,2013-05-27 07:27:00,
2013-05-27 02:28:00,57.1,54.5,29.14,ESE,112,3.0,6.0,91,0.20,,,0.98,0.00,VWS V14.01,2013-05-27 07:28:00,
2013-05-27 02:29:00,57.1,54.5,29.15,ESE,112,2.0,8.0,91,0.20,,,0.98,0.00,VWS V14.01,2013-05-27 07:29:00,
2013-05-27 02:30:00,57.1,54.5,29.15,SE,135,3.0,6.0,91,0.21,,,0.99,0.00,VWS V14.01,2013-05-27 07:30:00,
2013-05-27 02:31:00,57.1,54.5,29.15,SE,135,1.0,5.0,91,0.21,,,0.99,0.00,VWS V14.01,2013-05-27 07:31:00,
2013-05-27 02:32:00,57.1,54.5,29.14,SE,135,4.0,8.0,91,0.21,,,0.99,0.00,VWS V14.01,2013-05-27 07:32:00,
2013-05-27 02:33:00,57.1,54.5,29.14,SE,135,1.0,4.0,91,0.22,,,1.00,0.00,VWS V14.01,2013-05-27 07:33:00,
2013-05-27 02:34:00,57.1,54.5,29.14,SE,135,2.0,7.0,91,0.22,,,1.00,0.00,VWS V14.01,2013-05-27 07:34:00,
2013-05-27 02:35:00,57.1,54.5,29.14,ESE,112,2.0,4.0,91,0.22,,,1.00,0.00,VWS V14.01,2013-05-27 07:35:00,
2013-05-27 02:36:00,57.1,54.5,29.14,SE,135,1.0,2.0,91,0.21,,,1.00,0.00,VWS V14.01,2013-05-27 07:36:00,
2013-05-27 02:37:00,57.1,54.5,29.14,ESE,112,2.0,4.0,91,0.21,,,1.00,0.00,VWS V14.01,2013-05-27 07:37:00,
2013-05-27 02:38:00,57.1,54.5,29.14,ESE,112,0.0,2.0,91,0.21,,,1.00,0.00,VWS V14.01,2013-05-27 07:38:00,
2013-05-27 02:39:00,57.1,54.5,29.14,SE,135,2.0,5.0,91,0.21,,,1.00,0.00,VWS V14.01,2013-05-27 07:39:00,
2013-05-27 02:40:00,57.1,54.5,29.14,ESE,112,1.0,4.0,91,0.21,,,1.01,0.00,VWS V14.01,2013-05-27 07:40:00,
2013-05-27 02:41:00,57.1,54.5,29.14,SE,135,1.0,2.0,91,0.21,,,1.01,0.00,VWS V14.01,2013-05-27 07:41:00,
2013-05-27 02:42:00,57.1,54.5,29.14,ESE,112,0.0,2.0,91,0.21,,,1.01,0.00,VWS V14.01,2013-05-27 07:42:00,
2013-05-27 02:43:00,57.1,54.5,29.14,SSE,158,0.0,2.0,91,0.20,,,1.01,0.00,VWS V14.01,2013-05-27 07:43:00,
2013-05-27 02:44:00,57.1,54.5,29.14,East,90,1.0,3.0,91,0.19,,,1.01,0.00,VWS V14.01,2013-05-27 07:44:00,
2013-05-27 02:45:00,57.1,54.5,29.14,SE,135,1.0,4.0,91,0.20,,,1.02,0.00,VWS V14.01,2013-05-27 07:45:00,
2013-05-27 02:46:00,57.1,54.5,29.14,ESE,112,1.0,5.0,91,0.19,,,1.02,0.00,VWS V14.01,2013-05-27 07:46:00,
2013-05-27 02:47:00,57.1,54.5,29.14,SE,135,0.0,1.0,91,0.18,,,1.02,0.00,VWS V14.01,2013-05-27 07:47:00,
2013-05-27 02:48:00,57.1,54.5,29.14,SE,135,1.0,4.0,91,0.18,,,1.02,0.00,VWS V14.01,2013-05-27 07:48:00,
2013-05-27 02:49:00,57.1,54.5,29.14,SE,135,1.0,4.0,91,0.18,,,1.02,0.00,VWS V14.01,2013-05-27 07:49:00,
2013-05-27 02:50:00,57.1,54.5,29.14,ESE,112,1.0,6.0,91,0.17,,,1.02,0.00,VWS V14.01,2013-05-27 07:50:00,
2013-05-27 02:51:00,57.1,54.5,29.14,ESE,112,2.0,5.0,91,0.16,,,1.02,0.00,VWS V14.01,2013-05-27 07:51:00,
2013-05-27 02:52:00,57.1,54.5,29.13,ESE,112,1.0,1.0,91,0.16,,,1.02,0.00,VWS V14.01,2013-05-27 07:52:00,
2013-05-27 02:53:00,57.1,54.5,29.13,SE,135,2.0,6.0,91,0.15,,,1.02,0.00,VWS V14.01,2013-05-27 07:53:00,
2013-05-27 02:54:00,57.1,54.5,29.13,SE,135,2.0,5.0,91,0.15,,,1.02,0.00,VWS V14.01,2013-05-27 07:54:00,
2013-05-27 02:55:00,57.1,54.5,29.13,SE,135,3.0,5.0,91,0.14,,,1.02,0.00,VWS V14.01,2013-05-27 07:55:00,
2013-05-27 02:56:00,57.1,54.5,29.13,ESE,112,2.0,7.0,91,0.14,,,1.02,0.00,VWS V14.01,2013-05-27 07:56:00,
2013-05-27 02:57:00,57.1,54.5,29.13,SE,135,1.0,5.0,91,0.13,,,1.02,0.00,VWS V14.01,2013-05-27 07:57:00,
2013-05-27 02:58:00,57.1,54.5,29.13,SE,135,2.0,5.0,91,0.13,,,1.02,0.00,VWS V14.01,2013-05-27 07:58:00,
2013-05-27 02:59:00,57.1,54.5,29.13,SE,135,2.0,5.0,91,0.12,,,1.02,0.00,VWS V14.01,2013-05-27 07:59:00,
2013-05-27 03:00:00,57.1,54.5,29.13,ESE,112,2.0,5.0,91,0.12,,,1.02,0.00,VWS V14.01,2013-05-27 08:00:00,
2013-05-27 03:01:00,57.1,54.5,29.14,SE,135,2.0,6.0,91,0.12,,,1.02,0.00,VWS V14.01,2013-05-27 08:01:00,
2013-05-27 03:02:00,57.1,54.5,29.13,SE,135,3.0,6.0,91,0.12,,,1.02,0.00,VWS V14.01,2013-05-27 08:02:00,
2013-05-27 03:03:00,57.1,54.5,29.14,ESE,112,2.0,5.0,91,0.12,,,1.02,0.00,VWS V14.01,2013-05-27 08:03:00,
2013-05-27 03:04:00,57.1,54.5,29.14,ESE,112,0.0,1.0,91,0.11,,,1.02,0.00,VWS V14.01,2013-05-27 08:04:00,
2013-05-27 03:05:00,57.1,54.5,29.14,SE,135,2.0,5.0,91,0.11,,,1.02,0.00,VWS V14.01,2013-05-27 08:05:00,
2013-05-27 03:06:00,57.1,54.5,29.14,ESE,112,5.0,6.0,91,0.11,,,1.02,0.00,VWS V14.01,2013-05-27 08:06:00,
2013-05-27 03:07:00,57.1,54.5,29.14,ESE,112,1.0,4.0,91,0.10,,,1.02,0.00,VWS V14.01,2013-05-27 08:07:00,
2013-05-27 03:08:00,57.1,54.5,29.14,ESE,112,1.0,2.0,91,0.10,,,1.02,0.00,VWS V14.01,2013-05-27 08:08:00,
2013-05-27 03:09:00,57.1,54.5,29.14,ESE,112,3.0,9.0,91,0.11,,,1.03,0.00,VWS V14.01,2013-05-27 08:09:00,
2013-05-27 03:10:00,57.1,54.5,29.14,SE,135,1.0,2.0,91,0.11,,,1.03,0.00,VWS V14.01,2013-05-27 08:10:00,
2013-05-27 03:11:00,57.1,54.5,29.14,SE,135,1.0,2.0,91,0.11,,,1.03,0.00,VWS V14.01,2013-05-27 08:11:00,
2013-05-27 03:12:00,57.2,54.6,29.14,SE,135,2.0,5.0,91,0.10,,,1.03,0.00,VWS V14.01,2013-05-27 08:12:00,
2013-05-27 03:13:00,57.2,54.6,29.14,ESE,112,2.0,4.0,91,0.10,,,1.03,0.00,VWS V14.01,2013-05-27 08:13:00,
2013-05-27 03:14:00,57.2,54.6,29.14,SE,135,0.0,2.0,91,0.09,,,1.03,0.00,VWS V14.01,2013-05-27 08:14:00,
2013-05-27 03:15:00,57.2,54.6,29.14,SE,135,1.0,2.0,91,0.09,,,1.03,0.00,VWS V14.01,2013-05-27 08:15:00,
2013-05-27 03:16:00,57.2,54.6,29.14,SE,135,2.0,7.0,91,0.09,,,1.03,0.00,VWS V14.01,2013-05-27 08:16:00,
2013-05-27 03:17:00,57.2,54.6,29.14,SE,135,2.0,5.0,91,0.09,,,1.03,0.00,VWS V14.01,2013-05-27 08:17:00,
2013-05-27 03:18:00,57.2,54.6,29.14,ESE,112,2.0,5.0,91,0.09,,,1.04,0.00,VWS V14.01,2013-05-27 08:18:00,
2013-05-27 03:19:00,57.2,54.6,29.14,SE,135,1.0,5.0,91,0.09,,,1.04,0.00,VWS V14.01,2013-05-27 08:19:00,
2013-05-27 03:20:00,57.2,54.6,29.13,SE,135,1.0,8.0,91,0.08,,,1.04,0.00,VWS V14.01,2013-05-27 08:20:00,
2013-05-27 03:21:00,57.2,54.6,29.14,SE,135,4.0,6.0,91,0.08,,,1.04,0.00,VWS V14.01,2013-05-27 08:21:00,
2013-05-27 03:22:00,57.2,54.6,29.14,ESE,112,1.0,6.0,91,0.08,,,1.04,0.00,VWS V14.01,2013-05-27 08:22:00,
2013-05-27 03:23:00,57.2,54.6,29.14,ESE,112,2.0,7.0,91,0.07,,,1.04,0.00,VWS V14.01,2013-05-27 08:23:00,
2013-05-27 03:24:00,57.2,54.6,29.14,ESE,112,1.0,4.0,91,0.07,,,1.04,0.00,VWS V14.01,2013-05-27 08:24:00,
2013-05-27 03:25:00,57.2,54.6,29.14,ESE,112,0.0,2.0,91,0.07,,,1.04,0.00,VWS V14.01,2013-05-27 08:25:00,
2013-05-27 03:26:00,57.2,54.6,29.14,ESE,112,1.0,4.0,91,0.06,,,1.04,0.00,VWS V14.01,2013-05-27 08:26:00,
2013-05-27 03:27:00,57.1,54.5,29.14,ESE,112,3.0,6.0,91,0.06,,,1.04,0.00,VWS V14.01,2013-05-27 08:27:00,
2013-05-27 03:28:00,57.2,54.6,29.14,ESE,112,2.0,7.0,91,0.06,,,1.04,0.00,VWS V14.01,2013-05-27 08:28:00,
2013-05-27 03:29:00,57.2,54.6,29.14,SE,135,2.0,6.0,91,0.06,,,1.04,0.00,VWS V14.01,2013-05-27 08:29:00,
2013-05-27 03:30:00,57.1,54.5,29.14,SE,135,1.0,4.0,91,0.06,,,1.04,0.00,VWS V14.01,2013-05-27 08:30:00,
2013-05-27 03:31:00,57.1,54.5,29.14,SE,135,1.0,4.0,91,0.05,,,1.04,0.00,VWS V14.01,2013-05-27 08:31:00,
2013-05-27 03:32:00,57.2,54.6,29.14,East,90,2.0,6.0,91,0.05,,,1.04,0.00,VWS V14.01,2013-05-27 08:32:00,
2013-05-27 03:33:00,57.2,54.6,29.14,ESE,112,2.0,5.0,91,0.05,,,1.04,0.00,VWS V14.01,2013-05-27 08:33:00,
2013-05-27 03:34:00,57.2,54.6,29.14,SE,135,1.0,5.0,91,0.04,,,1.04,0.00,VWS V14.01,2013-05-27 08:34:00,
2013-05-27 03:35:00,57.1,54.5,29.14,ESE,112,1.0,7.0,91,0.05,,,1.05,0.00,VWS V14.01,2013-05-27 08:35:00,
2013-05-27 03:36:00,57.1,54.5,29.13,East,90,0.0,1.0,91,0.05,,,1.05,0.00,VWS V14.01,2013-05-27 08:36:00,
2013-05-27 03:37:00,57.1,54.5,29.13,ESE,112,1.0,4.0,91,0.05,,,1.05,0.00,VWS V14.01,2013-05-27 08:37:00,
2013-05-27 03:38:00,57.1,54.5,29.13,ESE,112,0.0,2.0,91,0.05,,,1.05,0.00,VWS V14.01,2013-05-27 08:38:00,
2013-05-27 03:39:00,57.1,54.5,29.13,ESE,112,0.0,1.0,91,0.06,,,1.06,0.00,VWS V14.01,2013-05-27 08:39:00,
2013-05-27 03:40:00,57.1,54.5,29.13,ESE,112,0.0,1.0,91,0.06,,,1.06,0.00,VWS V14.01,2013-05-27 08:40:00,
2013-05-27 03:41:00,57.1,54.5,29.13,SE,135,1.0,4.0,91,0.05,,,1.06,0.00,VWS V14.01,2013-05-27 08:41:00,
2013-05-27 03:42:00,57.1,54.5,29.13,SE,135,0.0,1.0,91,0.05,,,1.06,0.00,VWS V14.01,2013-05-27 08:42:00,
2013-05-27 03:43:00,57.1,54.5,29.13,SE,135,0.0,1.0,91,0.06,,,1.07,0.00,VWS V14.01,2013-05-27 08:43:00,
2013-05-27 03:44:00,57.1,54.5,29.13,SE,135,1.0,6.0,91,0.07,,,1.08,0.00,VWS V14.01,2013-05-27 08:44:00,
2013-05-27 03:45:00,57.1,54.5,29.13,ESE,112,0.0,1.0,91,0.08,,,1.09,0.00,VWS V14.01,2013-05-27 08:45:00,
2013-05-27 03:46:00,57.1,54.5,29.13,ESE,112,0.0,1.0,91,0.07,,,1.09,0.00,VWS V14.01,2013-05-27 08:46:00,
2013-05-27 03:47:00,57.1,54.5,29.13,ESE,112,1.0,5.0,91,0.08,,,1.10,0.00,VWS V14.01,2013-05-27 08:47:00,
2013-05-27 03:48:00,57.1,54.5,29.13,SE,135,0.0,2.0,91,0.08,,,1.10,0.00,VWS V14.01,2013-05-27 08:48:00,
2013-05-27 03:49:00,57.1,54.5,29.13,ESE,112,2.0,6.0,91,0.08,,,1.10,0.00,VWS V14.01,2013-05-27 08:49:00,
2013-05-27 03:50:00,57.1,54.5,29.12,ESE,112,0.0,2.0,91,0.08,,,1.10,0.00,VWS V14.01,2013-05-27 08:50:00,
2013-05-27 03:51:00,57.1,54.5,29.12,ESE,112,0.0,1.0,91,0.08,,,1.10,0.00,VWS V14.01,2013-05-27 08:51:00,
2013-05-27 03:52:00,57.1,54.5,29.12,SSW,202,1.0,4.0,91,0.08,,,1.10,0.00,VWS V14.01,2013-05-27 08:52:00,
2013-05-27 03:53:00,57.1,54.5,29.13,SE,135,1.0,2.0,91,0.08,,,1.10,0.00,VWS V14.01,2013-05-27 08:53:00,
2013-05-27 03:54:00,57.1,54.5,29.13,SE,135,1.0,4.0,91,0.08,,,1.10,0.00,VWS V14.01,2013-05-27 08:54:00,
2013-05-27 03:55:00,57.1,54.5,29.13,SE,135,1.0,2.0,91,0.08,,,1.10,0.00,VWS V14.01,2013-05-27 08:55:00,
2013-05-27 03:56:00,57.1,54.5,29.13,SSW,202,1.0,3.0,91,0.08,,,1.10,0.00,VWS V14.01,2013-05-27 08:56:00,
2013-05-27 03:57:00,57.1,54.5,29.13,ESE,112,1.0,2.0,91,0.09,,,1.11,0.00,VWS V14.01,2013-05-27 08:57:00,
2013-05-27 03:58:00,57.1,54.5,29.13,ESE,112,1.0,4.0,91,0.09,,,1.11,0.00,VWS V14.01,2013-05-27 08:58:00,
2013-05-27 03:59:00,57.1,54.5,29.13,SE,135,1.0,4.0,91,0.09,,,1.11,0.00,VWS V14.01,2013-05-27 08:59:00,
2013-05-27 04:00:00,57.1,54.5,29.12,SE,135,1.0,4.0,91,0.09,,,1.11,0.00,VWS V14.01,2013-05-27 09:00:00,
2013-05-27 04:01:00,57.1,54.5,29.12,ESE,112,1.0,5.0,91,0.09,,,1.11,0.00,VWS V14.01,2013-05-27 09:01:00,
2013-05-27 04:02:00,57.1,54.5,29.12,SSW,202,1.0,2.0,91,0.09,,,1.11,0.00,VWS V14.01,2013-05-27 09:02:00,
2013-05-27 04:03:00,57.1,54.5,29.12,SE,135,1.0,4.0,91,0.10,,,1.12,0.00,VWS V14.01,2013-05-27 09:03:00,
2013-05-27 04:04:00,57.1,54.5,29.12,ESE,112,0.0,2.0,91,0.10,,,1.12,0.00,VWS V14.01,2013-05-27 09:04:00,
2013-05-27 04:05:00,57.1,54.5,29.12,SSE,158,0.0,1.0,91,0.10,,,1.12,0.00,VWS V14.01,2013-05-27 09:05:00,
2013-05-27 04:06:00,57.1,54.5,29.12,SE,135,1.0,4.0,91,0.10,,,1.12,0.00,VWS V14.01,2013-05-27 09:06:00,
2013-05-27 04:07:00,57.1,54.5,29.12,SE,135,0.0,2.0,91,0.10,,,1.12,0.00,VWS V14.01,2013-05-27 09:07:00,
2013-05-27 04:08:00,57.1,54.5,29.12,SE,135,1.0,2.0,91,0.10,,,1.12,0.00,VWS V14.01,2013-05-27 09:08:00,
2013-05-27 04:09:00,57.1,54.5,29.12,SE,135,1.0,4.0,91,0.11,,,1.13,0.00,VWS V14.01,2013-05-27 09:09:00,
2013-05-27 04:10:00,57.1,54.5,29.12,SE,135,0.0,1.0,91,0.10,,,1.13,0.00,VWS V14.01,2013-05-27 09:10:00,
2013-05-27 04:11:00,57.1,54.5,29.12,SE,135,0.0,1.0,91,0.10,,,1.13,0.00,VWS V14.01,2013-05-27 09:11:00,
2013-05-27 04:12:00,57.1,54.5,29.12,SE,135,0.0,1.0,91,0.10,,,1.13,0.00,VWS V14.01,2013-05-27 09:12:00,
2013-05-27 04:13:00,57.1,54.5,29.12,SE,135,0.0,1.0,91,0.11,,,1.14,0.00,VWS V14.01,2013-05-27 09:13:00,
2013-05-27 04:14:00,57.2,54.6,29.12,SE,135,0.0,1.0,91,0.11,,,1.14,0.00,VWS V14.01,2013-05-27 09:14:00,
2013-05-27 04:15:00,57.1,54.5,29.12,SSW,202,0.0,2.0,91,0.11,,,1.14,0.00,VWS V14.01,2013-05-27 09:15:00,
2013-05-27 04:16:00,57.1,54.5,29.12,SSW,202,0.0,0.0,91,0.11,,,1.14,0.00,VWS V14.01,2013-05-27 09:16:00,
2013-05-27 04:17:00,57.1,54.5,29.12,SSW,202,0.0,2.0,91,0.11,,,1.14,0.00,VWS V14.01,2013-05-27 09:17:00,
2013-05-27 04:18:00,57.1,54.5,29.12,SE,135,0.0,1.0,91,0.12,,,1.15,0.00,VWS V14.01,2013-05-27 09:18:00,
2013-05-27 04:19:00,57.1,54.5,29.12,SSE,158,1.0,4.0,91,0.11,,,1.15,0.00,VWS V14.01,2013-05-27 09:19:00,
2013-05-27 04:20:00,57.1,54.5,29.12,SE,135,0.0,2.0,91,0.11,,,1.15,0.00,VWS V14.01,2013-05-27 09:20:00,
2013-05-27 04:21:00,57.1,54.5,29.12,SE,135,0.0,2.0,91,0.11,,,1.15,0.00,VWS V14.01,2013-05-27 09:21:00,
2013-05-27 04:22:00,57.2,54.6,29.12,SE,135,1.0,4.0,91,0.11,,,1.15,0.00,VWS V14.01,2013-05-27 09:22:00,
2013-05-27 04:23:00,57.1,54.5,29.12,SE,135,0.0,1.0,91,0.11,,,1.15,0.00,VWS V14.01,2013-05-27 09:23:00,
2013-05-27 04:24:00,57.1,54.5,29.12,SE,135,0.0,0.0,91,0.11,,,1.15,0.00,VWS V14.01,2013-05-27 09:24:00,
2013-05-27 04:25:00,57.1,54.5,29.12,SE,135,1.0,4.0,91,0.11,,,1.15,0.00,VWS V14.01,2013-05-27 09:25:00,
2013-05-27 04:26:00,57.2,54.6,29.12,SE,135,0.0,2.0,91,0.11,,,1.15,0.00,VWS V14.01,2013-05-27 09:26:00,
2013-05-27 04:27:00,57.2,54.6,29.12,SE,135,0.0,0.0,91,0.12,,,1.16,0.00,VWS V14.01,2013-05-27 09:27:00,
2013-05-27 04:28:00,57.2,54.6,29.11,SE,135,0.0,1.0,91,0.12,,,1.16,0.00,VWS V14.01,2013-05-27 09:28:00,
2013-05-27 04:29:00,57.2,54.6,29.11,SE,135,0.0,0.0,91,0.12,,,1.16,0.00,VWS V14.01,2013-05-27 09:29:00,
2013-05-27 04:30:00,57.2,54.6,29.12,SE,135,0.0,1.0,91,0.12,,,1.16,0.00,VWS V14.01,2013-05-27 09:30:00,
2013-05-27 04:31:00,57.2,54.6,29.12,SE,135,0.0,2.0,91,0.12,,,1.16,0.00,VWS V14.01,2013-05-27 09:31:00,
2013-05-27 04:32:00,57.2,54.6,29.12,SE,135,0.0,1.0,91,0.12,,,1.16,0.00,VWS V14.01,2013-05-27 09:32:00,
2013-05-27 04:33:00,57.2,54.6,29.11,SE,135,0.0,1.0,91,0.12,,,1.16,0.00,VWS V14.01,2013-05-27 09:33:00,
2013-05-27 04:34:00,57.2,54.6,29.12,SE,135,0.0,1.0,91,0.12,,,1.16,0.00,VWS V14.01,2013-05-27 09:34:00,
2013-05-27 04:35:00,57.2,54.6,29.11,SE,135,0.0,1.0,91,0.12,,,1.16,0.00,VWS V14.01,2013-05-27 09:35:00,
2013-05-27 04:36:00,57.2,54.6,29.11,SE,135,0.0,2.0,91,0.11,,,1.16,0.00,VWS V14.01,2013-05-27 09:36:00,
2013-05-27 04:37:00,57.2,54.6,29.11,SE,135,1.0,2.0,91,0.11,,,1.16,0.00,VWS V14.01,2013-05-27 09:37:00,
2013-05-27 04:38:00,57.2,54.6,29.11,SE,135,1.0,2.0,91,0.11,,,1.16,0.00,VWS V14.01,2013-05-27 09:38:00,
2013-05-27 04:39:00,57.2,54.6,29.11,ESE,112,1.0,5.0,91,0.11,,,1.16,0.00,VWS V14.01,2013-05-27 09:39:00,
2013-05-27 04:40:00,57.2,54.6,29.11,ESE,112,1.0,6.0,91,0.10,,,1.16,0.00,VWS V14.01,2013-05-27 09:40:00,
2013-05-27 04:41:00,57.2,54.6,29.11,SE,135,0.0,1.0,91,0.10,,,1.16,0.00,VWS V14.01,2013-05-27 09:41:00,
2013-05-27 04:42:00,57.2,54.6,29.11,SE,135,0.0,1.0,91,0.10,,,1.16,0.00,VWS V14.01,2013-05-27 09:42:00,
2013-05-27 04:43:00,57.2,54.6,29.11,SE,135,0.0,1.0,91,0.10,,,1.16,0.00,VWS V14.01,2013-05-27 09:43:00,
2013-05-27 04:44:00,57.2,54.6,29.11,SE,135,1.0,5.0,91,0.09,,,1.16,0.00,VWS V14.01,2013-05-27 09:44:00,
2013-05-27 04:45:00,57.2,54.6,29.11,SE,135,0.0,2.0,91,0.08,,,1.16,0.00,VWS V14.01,2013-05-27 09:45:00,
2013-05-27 04:46:00,57.2,54.6,29.11,SE,135,1.0,4.0,91,0.07,,,1.16,0.00,VWS V14.01,2013-05-27 09:46:00,
2013-05-27 04:47:00,57.2,54.6,29.11,SSE,158,1.0,4.0,91,0.07,,,1.16,0.00,VWS V14.01,2013-05-27 09:47:00,
2013-05-27 04:48:00,57.3,54.7,29.11,ENE,68,1.0,4.0,91,0.06,,,1.16,0.00,VWS V14.01,2013-05-27 09:48:00,
2013-05-27 04:49:00,57.2,54.6,29.11,SW,225,1.0,2.0,91,0.07,,,1.17,0.00,VWS V14.01,2013-05-27 09:49:00,
2013-05-27 04:50:00,57.2,54.6,29.11,SSE,158,0.0,2.0,91,0.07,,,1.17,0.00,VWS V14.01,2013-05-27 09:50:00,
2013-05-27 04:51:00,57.3,54.7,29.11,SE,135,0.0,1.0,91,0.07,,,1.17,0.00,VWS V14.01,2013-05-27 09:51:00,
2013-05-27 04:52:00,57.3,54.7,29.11,SE,135,1.0,5.0,91,0.07,,,1.17,0.00,VWS V14.01,2013-05-27 09:52:00,
2013-05-27 04:53:00,57.3,54.7,29.11,ESE,112,3.0,6.0,91,0.07,,,1.17,0.00,VWS V14.01,2013-05-27 09:53:00,
2013-05-27 04:54:00,57.3,54.7,29.11,ESE,112,1.0,3.0,91,0.07,,,1.17,0.00,VWS V14.01,2013-05-27 09:54:00,
2013-05-27 04:55:00,57.3,54.7,29.11,South,180,1.0,2.0,91,0.07,,,1.17,0.00,VWS V14.01,2013-05-27 09:55:00,
2013-05-27 04:56:00,57.3,54.7,29.11,SE,135,1.0,4.0,91,0.07,,,1.17,0.00,VWS V14.01,2013-05-27 09:56:00,
2013-05-27 04:57:00,57.3,54.7,29.11,SE,135,1.0,4.0,91,0.07,,,1.17,0.00,VWS V14.01,2013-05-27 09:57:00,
2013-05-27 04:58:00,57.3,54.7,29.11,SSW,202,0.0,3.0,91,0.06,,,1.17,0.00,VWS V14.01,2013-05-27 09:58:00,
2013-05-27 04:59:00,57.3,54.7,29.11,SSE,158,3.0,6.0,91,0.06,,,1.17,0.00,VWS V14.01,2013-05-27 09:59:00,
2013-05-27 05:00:00,57.3,54.7,29.11,ESE,112,1.0,5.0,91,0.06,,,1.17,0.00,VWS V14.01,2013-05-27 10:00:00,
2013-05-27 05:01:00,57.3,54.7,29.11,SSE,158,1.0,4.0,91,0.06,,,1.17,0.00,VWS V14.01,2013-05-27 10:01:00,
2013-05-27 05:02:00,57.3,54.7,29.11,SSE,158,0.0,2.0,91,0.06,,,1.17,0.00,VWS V14.01,2013-05-27 10:02:00,
2013-05-27 05:03:00,57.3,54.7,29.11,SE,135,1.0,2.0,91,0.06,,,1.17,0.00,VWS V14.01,2013-05-27 10:03:00,
2013-05-27 05:04:00,57.3,54.7,29.11,ESE,112,2.0,6.0,91,0.05,,,1.17,0.00,VWS V14.01,2013-05-27 10:04:00,
2013-05-27 05:05:00,57.3,54.7,29.11,ESE,112,1.0,4.0,91,0.05,,,1.17,0.00,VWS V14.01,2013-05-27 10:05:00,
2013-05-27 05:06:00,57.3,54.7,29.11,ESE,112,0.0,1.0,91,0.05,,,1.17,0.00,VWS V14.01,2013-05-27 10:06:00,
2013-05-27 05:07:00,57.3,54.7,29.11,ESE,112,0.0,1.0,91,0.05,,,1.17,0.00,VWS V14.01,2013-05-27 10:07:00,
2013-05-27 05:08:00,57.3,54.7,29.11,ESE,112,1.0,2.0,91,0.05,,,1.17,0.00,VWS V14.01,2013-05-27 10:08:00,
2013-05-27 05:09:00,57.3,54.7,29.11,SE,135,2.0,6.0,91,0.05,,,1.17,0.00,VWS V14.01,2013-05-27 10:09:00,
2013-05-27 05:10:00,57.2,54.6,29.11,SE,135,0.0,1.0,91,0.04,,,1.17,0.00,VWS V14.01,2013-05-27 10:10:00,
2013-05-27 05:11:00,57.3,54.7,29.11,SE,135,0.0,1.0,91,0.04,,,1.17,0.00,VWS V14.01,2013-05-27 10:11:00,
2013-05-27 05:12:00,57.2,54.6,29.11,SE,135,1.0,4.0,91,0.04,,,1.17,0.00,VWS V14.01,2013-05-27 10:12:00,
2013-05-27 05:13:00,57.2,54.6,29.11,ESE,112,1.0,3.0,91,0.04,,,1.17,0.00,VWS V14.01,2013-05-27 10:13:00,
2013-05-27 05:14:00,57.2,54.6,29.11,South,180,0.0,2.0,91,0.03,,,1.17,0.00,VWS V14.01,2013-05-27 10:14:00,
2013-05-27 05:15:00,57.2,54.6,29.11,South,180,0.0,2.0,91,0.03,,,1.17,0.00,VWS V14.01,2013-05-27 10:15:00,
2013-05-27 05:16:00,57.2,54.6,29.11,ESE,112,1.0,6.0,91,0.03,,,1.17,0.00,VWS V14.01,2013-05-27 10:16:00,
2013-05-27 05:17:00,57.2,54.6,29.10,ESE,112,1.0,4.0,91,0.04,,,1.18,0.00,VWS V14.01,2013-05-27 10:17:00,
2013-05-27 05:18:00,57.2,54.6,29.10,ESE,112,1.0,4.0,91,0.04,,,1.18,0.00,VWS V14.01,2013-05-27 10:18:00,
2013-05-27 05:19:00,57.2,54.6,29.10,SE,135,1.0,4.0,91,0.03,,,1.18,0.00,VWS V14.01,2013-05-27 10:19:00,
2013-05-27 05:20:00,57.2,54.6,29.10,SE,135,2.0,7.0,91,0.03,,,1.18,0.00,VWS V14.01,2013-05-27 10:20:00,
2013-05-27 05:21:00,57.2,54.6,29.10,SE,135,1.0,6.0,91,0.03,,,1.18,0.00,VWS V14.01,2013-05-27 10:21:00,
2013-05-27 05:22:00,57.1,54.5,29.10,ESE,112,1.0,5.0,91,0.03,,,1.18,0.00,VWS V14.01,2013-05-27 10:22:00,
2013-05-27 05:23:00,57.1,54.5,29.10,ESE,112,0.0,4.0,91,0.03,,,1.18,0.00,VWS V14.01,2013-05-27 10:23:00,
2013-05-27 05:24:00,57.1,54.5,29.11,SSW,202,1.0,3.0,91,0.03,,,1.18,0.00,VWS V14.01,2013-05-27 10:24:00,
2013-05-27 05:25:00,57.1,54.5,29.11,SE,135,1.0,5.0,91,0.03,,,1.18,0.00,VWS V14.01,2013-05-27 10:25:00,
2013-05-27 05:26:00,57.1,54.5,29.11,SE,135,0.0,2.0,91,0.03,,,1.18,0.00,VWS V14.01,2013-05-27 10:26:00,
2013-05-27 05:27:00,57.1,54.5,29.11,SE,135,1.0,5.0,91,0.03,,,1.18,0.00,VWS V14.01,2013-05-27 10:27:00,
2013-05-27 05:28:00,57.1,54.5,29.10,SE,135,1.0,2.0,91,0.02,,,1.18,0.00,VWS V14.01,2013-05-27 10:28:00,
2013-05-27 05:29:00,57.1,54.5,29.11,SE,135,0.0,2.0,91,0.02,,,1.18,0.00,VWS V14.01,2013-05-27 10:29:00,
2013-05-27 05:30:00,57.1,54.5,29.10,SE,135,1.0,4.0,91,0.02,,,1.18,0.00,VWS V14.01,2013-05-27 10:30:00,
2013-05-27 05:31:00,57.1,54.5,29.11,ESE,112,0.0,1.0,91,0.02,,,1.18,0.00,VWS V14.01,2013-05-27 10:31:00,
2013-05-27 05:32:00,57.1,54.5,29.11,ESE,112,0.0,2.0,91,0.03,,,1.19,0.00,VWS V14.01,2013-05-27 10:32:00,
2013-05-27 05:33:00,57.1,54.5,29.11,ESE,112,1.0,4.0,91,0.03,,,1.19,0.00,VWS V14.01,2013-05-27 10:33:00,
2013-05-27 05:34:00,57.1,54.5,29.10,ESE,112,1.0,2.0,91,0.03,,,1.19,0.00,VWS V14.01,2013-05-27 10:34:00,
2013-05-27 05:35:00,57.1,54.5,29.10,ESE,112,0.0,1.0,91,0.04,,,1.20,0.00,VWS V14.01,2013-05-27 10:35:00,
2013-05-27 05:36:00,57.1,54.5,29.10,SE,135,1.0,4.0,91,0.04,,,1.20,0.00,VWS V14.01,2013-05-27 10:36:00,
2013-05-27 05:37:00,57.1,54.5,29.10,SE,135,1.0,6.0,91,0.04,,,1.20,0.00,VWS V14.01,2013-05-27 10:37:00,
2013-05-27 05:38:00,57.1,54.5,29.10,SE,135,2.0,6.0,91,0.04,,,1.20,0.00,VWS V14.01,2013-05-27 10:38:00,
2013-05-27 05:39:00,57.1,54.5,29.10,SE,135,2.0,5.0,91,0.05,,,1.21,0.00,VWS V14.01,2013-05-27 10:39:00,
2013-05-27 05:40:00,57.1,54.5,29.10,ESE,112,0.0,1.0,91,0.06,,,1.22,0.00,VWS V14.01,2013-05-27 10:40:00,
2013-05-27 05:41:00,57.1,54.5,29.10,ESE,112,0.0,2.0,91,0.06,,,1.22,0.00,VWS V14.01,2013-05-27 10:41:00,
2013-05-27 05:42:00,57.1,54.5,29.10,ESE,112,0.0,2.0,91,0.06,,,1.22,0.00,VWS V14.01,2013-05-27 10:42:00,
2013-05-27 05:43:00,57.1,54.5,29.10,SE,135,0.0,2.0,91,0.07,,,1.23,0.00,VWS V14.01,2013-05-27 10:43:00,
2013-05-27 05:44:00,57.1,54.5,29.10,SE,135,0.0,1.0,91,0.08,,,1.24,0.00,VWS V14.01,2013-05-27 10:44:00,
2013-05-27 05:45:00,57.1,54.5,29.10,SE,135,0.0,0.0,91,0.08,,,1.24,0.00,VWS V14.01,2013-05-27 10:45:00,
2013-05-27 05:46:00,57.1,54.5,29.10,SE,135,0.0,1.0,91,0.09,,,1.25,0.00,VWS V14.01,2013-05-27 10:46:00,
2013-05-27 05:47:00,57.1,54.5,29.10,SE,135,1.0,5.0,91,0.09,,,1.25,0.00,VWS V14.01,2013-05-27 10:47:00,
2013-05-27 05:48:00,57.1,54.5,29.09,SE,135,1.0,2.0,91,0.10,,,1.26,0.00,VWS V14.01,2013-05-27 10:48:00,
2013-05-27 05:49:00,57.2,54.6,29.09,SE,135,1.0,4.0,91,0.10,,,1.26,0.00,VWS V14.01,2013-05-27 10:49:00,
2013-05-27 05:50:00,57.2,54.6,29.09,ESE,112,3.0,6.0,91,0.10,,,1.27,0.00,VWS V14.01,2013-05-27 10:50:00,
2013-05-27 05:51:00,57.2,54.6,29.09,SE,135,0.0,2.0,91,0.10,,,1.27,0.00,VWS V14.01,2013-05-27 10:51:00,
2013-05-27 05:52:00,57.1,54.5,29.08,SE,135,0.0,1.0,91,0.11,,,1.28,0.00,VWS V14.01,2013-05-27 10:52:00,
2013-05-27 05:53:00,57.1,54.5,29.08,SE,135,2.0,7.0,91,0.11,,,1.28,0.00,VWS V14.01,2013-05-27 10:53:00,
2013-05-27 05:54:00,57.1,54.5,29.08,ESE,112,2.0,4.0,91,0.11,,,1.28,0.00,VWS V14.01,2013-05-27 10:54:00,
2013-05-27 05:55:00,57.2,54.6,29.08,ESE,112,1.0,5.0,91,0.12,,,1.29,0.00,VWS V14.01,2013-05-27 10:55:00,
2013-05-27 05:56:00,57.1,54.5,29.08,SE,135,1.0,2.0,91,0.12,,,1.29,0.00,VWS V14.01,2013-05-27 10:56:00,
2013-05-27 05:57:00,57.1,54.5,29.08,SSE,158,0.0,2.0,91,0.13,,,1.30,0.00,VWS V14.01,2013-05-27 10:57:00,
2013-05-27 05:58:00,57.1,54.5,29.08,SE,135,3.0,6.0,91,0.13,,,1.30,0.00,VWS V14.01,2013-05-27 10:58:00,
2013-05-27 05:59:00,57.1,54.5,29.08,ESE,112,2.0,4.0,91,0.13,,,1.30,0.00,VWS V14.01,2013-05-27 10:59:00,
2013-05-27 06:00:00,57.1,54.5,29.07,SSE,158,2.0,4.0,91,0.14,,,1.31,0.00,VWS V14.01,2013-05-27 11:00:00,
2013-05-27 06:01:00,57.1,54.5,29.07,ESE,112,1.0,2.0,91,0.14,,,1.31,0.00,VWS V14.01,2013-05-27 11:01:00,
2013-05-27 06:02:00,57.1,54.5,29.07,SE,135,2.0,4.0,91,0.15,,,1.32,0.00,VWS V14.01,2013-05-27 11:02:00,
2013-05-27 06:03:00,57.1,54.5,29.07,SE,135,2.0,8.0,91,0.15,,,1.32,0.00,VWS V14.01,2013-05-27 11:03:00,
2013-05-27 06:04:00,57.1,54.5,29.07,ESE,112,2.0,4.0,91,0.15,,,1.32,0.00,VWS V14.01,2013-05-27 11:04:00,
2013-05-27 06:05:00,57.1,54.5,29.07,SE,135,3.0,7.0,91,0.15,,,1.32,0.00,VWS V14.01,2013-05-27 11:05:00,
2013-05-27 06:06:00,57.1,54.5,29.07,SE,135,1.0,4.0,91,0.16,,,1.33,0.00,VWS V14.01,2013-05-27 11:06:00,
2013-05-27 06:07:00,57.1,54.5,29.07,SE,135,1.0,4.0,91,0.16,,,1.33,0.00,VWS V14.01,2013-05-27 11:07:00,
2013-05-27 06:08:00,57.1,54.5,29.07,SE,135,1.0,5.0,91,0.17,,,1.34,0.00,VWS V14.01,2013-05-27 11:08:00,
2013-05-27 06:09:00,57.1,54.8,29.07,ESE,112,2.0,4.0,92,0.17,,,1.34,0.00,VWS V14.01,2013-05-27 11:09:00,
2013-05-27 06:10:00,57.1,54.8,29.06,ESE,112,1.0,4.0,92,0.17,,,1.34,0.00,VWS V14.01,2013-05-27 11:10:00,
2013-05-27 06:11:00,57.2,54.9,29.06,SE,135,2.0,5.0,92,0.17,,,1.34,0.00,VWS V14.01,2013-05-27 11:11:00,
2013-05-27 06:12:00,57.2,54.9,29.06,ESE,112,1.0,4.0,92,0.17,,,1.34,0.00,VWS V14.01,2013-05-27 11:12:00,
2013-05-27 06:13:00,57.2,54.9,29.07,SE,135,1.0,2.0,92,0.18,,,1.35,0.00,VWS V14.01,2013-05-27 11:13:00,
2013-05-27 06:14:00,57.2,54.9,29.07,SSE,158,2.0,5.0,92,0.18,,,1.35,0.00,VWS V14.01,2013-05-27 11:14:00,
2013-05-27 06:15:00,57.2,54.9,29.07,SSE,158,1.0,4.0,92,0.18,,,1.35,0.00,VWS V14.01,2013-05-27 11:15:00,
2013-05-27 06:16:00,57.2,54.9,29.07,SE,135,0.0,2.0,92,0.18,,,1.35,0.00,VWS V14.01,2013-05-27 11:16:00,
2013-05-27 06:17:00,57.2,54.9,29.06,SE,135,2.0,7.0,92,0.18,,,1.35,0.00,VWS V14.01,2013-05-27 11:17:00,
2013-05-27 06:18:00,57.2,54.9,29.06,SE,135,1.0,2.0,92,0.18,,,1.36,0.00,VWS V14.01,2013-05-27 11:18:00,
2013-05-27 06:19:00,57.2,54.9,29.06,SE,135,1.0,4.0,92,0.18,,,1.36,5.00,VWS V14.01,2013-05-27 11:19:00,
2013-05-27 06:20:00,57.2,54.9,29.06,ESE,112,2.0,5.0,92,0.18,,,1.36,5.00,VWS V14.01,2013-05-27 11:20:00,
2013-05-27 06:21:00,57.2,54.9,29.06,SE,135,3.0,7.0,92,0.18,,,1.36,5.00,VWS V14.01,2013-05-27 11:21:00,
2013-05-27 06:22:00,57.2,54.9,29.06,SE,135,2.0,5.0,92,0.18,,,1.36,5.00,VWS V14.01,2013-05-27 11:22:00,
2013-05-27 06:23:00,57.2,54.9,29.06,SSE,158,4.0,8.0,92,0.18,,,1.36,5.00,VWS V14.01,2013-05-27 11:23:00,
2013-05-27 06:24:00,57.2,54.9,29.06,SE,135,2.0,6.0,92,0.18,,,1.36,5.00,VWS V14.01,2013-05-27 11:24:00,
2013-05-27 06:25:00,57.2,54.9,29.06,ESE,112,2.0,5.0,92,0.18,,,1.36,5.00,VWS V14.01,2013-05-27 11:25:00,
2013-05-27 06:26:00,57.3,55.0,29.06,ESE,112,1.0,2.0,92,0.18,,,1.36,5.00,VWS V14.01,2013-05-27 11:26:00,
2013-05-27 06:27:00,57.3,55.0,29.07,ESE,112,1.0,5.0,92,0.18,,,1.36,5.00,VWS V14.01,2013-05-27 11:27:00,
2013-05-27 06:28:00,57.3,55.0,29.07,ESE,112,1.0,6.0,92,0.19,,,1.37,5.00,VWS V14.01,2013-05-27 11:28:00,
2013-05-27 06:29:00,57.3,55.0,29.07,SE,135,4.0,6.0,92,0.19,,,1.37,7.00,VWS V14.01,2013-05-27 11:29:00,
2013-05-27 06:30:00,57.3,55.0,29.07,SE,135,1.0,6.0,92,0.19,,,1.37,7.00,VWS V14.01,2013-05-27 11:30:00,
2013-05-27 06:31:00,57.3,55.0,29.06,SE,135,2.0,5.0,92,0.19,,,1.37,9.00,VWS V14.01,2013-05-27 11:31:00,
2013-05-27 06:32:00,57.3,55.0,29.06,ESE,112,1.0,4.0,92,0.19,,,1.37,9.00,VWS V14.01,2013-05-27 11:32:00,
2013-05-27 06:33:00,57.3,55.0,29.07,SSE,158,3.0,7.0,92,0.18,,,1.37,9.00,VWS V14.01,2013-05-27 11:33:00,
2013-05-27 06:34:00,57.3,55.0,29.07,SE,135,2.0,7.0,92,0.18,,,1.37,11.00,VWS V14.01,2013-05-27 11:34:00,
2013-05-27 06:35:00,57.3,55.0,29.07,ESE,112,3.0,6.0,92,0.18,,,1.37,12.00,VWS V14.01,2013-05-27 11:35:00,
2013-05-27 06:36:00,57.3,55.0,29.07,SE,135,2.0,8.0,92,0.17,,,1.37,12.00,VWS V14.01,2013-05-27 11:36:00,
2013-05-27 06:37:00,57.3,55.0,29.07,SE,135,3.0,5.0,92,0.17,,,1.37,14.00,VWS V14.01,2013-05-27 11:37:00,
2013-05-27 06:38:00,57.3,55.0,29.07,SE,135,5.0,10.0,92,0.17,,,1.37,14.00,VWS V14.01,2013-05-27 11:38:00,
2013-05-27 06:39:00,57.4,55.1,29.07,SE,135,3.0,11.0,92,0.17,,,1.37,16.00,VWS V14.01,2013-05-27 11:39:00,
2013-05-27 06:40:00,57.4,55.1,29.07,ESE,112,2.0,6.0,92,0.16,,,1.37,16.00,VWS V14.01,2013-05-27 11:40:00,
2013-05-27 06:41:00,57.4,55.1,29.07,SE,135,2.0,5.0,92,0.15,,,1.37,18.00,VWS V14.01,2013-05-27 11:41:00,
2013-05-27 06:42:00,57.4,55.1,29.07,SE,135,2.0,4.0,92,0.15,,,1.37,18.00,VWS V14.01,2013-05-27 11:42:00,
2013-05-27 06:43:00,57.4,55.1,29.07,East,90,2.0,8.0,92,0.15,,,1.37,18.00,VWS V14.01,2013-05-27 11:43:00,
2013-05-27 06:44:00,57.4,55.1,29.07,ESE,112,2.0,5.0,92,0.14,,,1.37,18.00,VWS V14.01,2013-05-27 11:44:00,
2013-05-27 06:45:00,57.5,55.2,29.07,ESE,112,2.0,6.0,92,0.13,,,1.37,18.00,VWS V14.01,2013-05-27 11:45:00,
2013-05-27 06:46:00,57.5,55.2,29.07,ESE,112,0.0,1.0,92,0.13,,,1.37,16.00,VWS V14.01,2013-05-27 11:46:00,
2013-05-27 06:47:00,57.5,55.2,29.07,SE,135,3.0,7.0,92,0.12,,,1.37,16.00,VWS V14.01,2013-05-27 11:47:00,
2013-05-27 06:48:00,57.5,55.2,29.07,ESE,112,1.0,2.0,92,0.12,,,1.37,14.00,VWS V14.01,2013-05-27 11:48:00,
2013-05-27 06:49:00,57.5,55.2,29.07,SE,135,1.0,4.0,92,0.11,,,1.37,14.00,VWS V14.01,2013-05-27 11:49:00,
2013-05-27 06:50:00,57.5,55.2,29.07,SE,135,1.0,2.0,92,0.11,,,1.37,16.00,VWS V14.01,2013-05-27 11:50:00,
2013-05-27 06:51:00,57.5,55.2,29.07,SE,135,1.0,2.0,92,0.10,,,1.37,16.00,VWS V14.01,2013-05-27 11:51:00,
2013-05-27 06:52:00,57.5,55.2,29.07,SE,135,2.0,6.0,92,0.10,,,1.37,18.00,VWS V14.01,2013-05-27 11:52:00,
2013-05-27 06:53:00,57.5,55.2,29.07,SE,135,2.0,8.0,92,0.09,,,1.37,20.00,VWS V14.01,2013-05-27 11:53:00,
2013-05-27 06:54:00,57.5,55.2,29.07,South,180,1.0,4.0,92,0.09,,,1.37,23.00,VWS V14.01,2013-05-27 11:54:00,
2013-05-27 06:55:00,57.5,55.2,29.07,SE,135,3.0,5.0,92,0.09,,,1.37,26.00,VWS V14.01,2013-05-27 11:55:00,
2013-05-27 06:56:00,57.5,55.2,29.07,SE,135,2.0,7.0,92,0.08,,,1.37,28.00,VWS V14.01,2013-05-27 11:56:00,
2013-05-27 06:57:00,57.5,55.2,29.07,SE,135,3.0,8.0,92,0.09,,,1.38,30.00,VWS V14.01,2013-05-27 11:57:00,
2013-05-27 06:58:00,57.5,55.2,29.06,SE,135,1.0,5.0,92,0.08,,,1.38,33.00,VWS V14.01,2013-05-27 11:58:00,
2013-05-27 06:59:00,57.6,55.3,29.06,ESE,112,2.0,6.0,92,0.08,,,1.38,35.00,VWS V14.01,2013-05-27 11:59:00,
2013-05-27 07:00:00,57.6,55.3,29.07,SE,135,1.0,5.0,92,0.08,,,1.38,37.00,VWS V14.01,2013-05-27 12:00:00,
2013-05-27 07:01:00,57.6,55.3,29.07,SE,135,1.0,4.0,92,0.07,,,1.38,39.00,VWS V14.01,2013-05-27 12:01:00,
2013-05-27 07:02:00,57.6,55.3,29.07,ESE,112,0.0,1.0,92,0.07,,,1.38,40.00,VWS V14.01,2013-05-27 12:02:00,
2013-05-27 07:03:00,57.6,55.3,29.07,SE,135,0.0,2.0,92,0.06,,,1.38,40.00,VWS V14.01,2013-05-27 12:03:00,
2013-05-27 07:04:00,57.6,55.3,29.07,SE,135,0.0,1.0,92,0.06,,,1.38,43.00,VWS V14.01,2013-05-27 12:04:00,
2013-05-27 07:05:00,57.6,55.3,29.07,SE,135,0.0,1.0,92,0.06,,,1.38,46.00,VWS V14.01,2013-05-27 12:05:00,
2013-05-27 07:06:00,57.7,55.4,29.07,ESE,112,1.0,4.0,92,0.06,,,1.38,46.00,VWS V14.01,2013-05-27 12:06:00,
2013-05-27 07:07:00,57.7,55.4,29.07,SE,135,1.0,5.0,92,0.05,,,1.38,46.00,VWS V14.01,2013-05-27 12:07:00,
2013-05-27 07:08:00,57.7,55.4,29.07,SE,135,0.0,2.0,92,0.05,,,1.38,44.00,VWS V14.01,2013-05-27 12:08:00,
2013-05-27 07:09:00,57.7,55.4,29.07,SE,135,2.0,6.0,92,0.04,,,1.38,44.00,VWS V14.01,2013-05-27 12:09:00,
2013-05-27 07:10:00,57.7,55.4,29.06,ESE,112,1.0,2.0,92,0.04,,,1.38,42.00,VWS V14.01,2013-05-27 12:10:00,
2013-05-27 07:11:00,57.7,55.4,29.06,WSW,248,0.0,3.0,92,0.04,,,1.38,42.00,VWS V14.01,2013-05-27 12:11:00,
2013-05-27 07:12:00,57.7,55.4,29.06,SW,225,1.0,3.0,92,0.04,,,1.38,40.00,VWS V14.01,2013-05-27 12:12:00,
2013-05-27 07:13:00,57.7,55.4,29.06,ESE,112,1.0,4.0,92,0.04,,,1.38,40.00,VWS V14.01,2013-05-27 12:13:00,
2013-05-27 07:14:00,57.8,55.5,29.06,ESE,112,1.0,2.0,92,0.03,,,1.38,40.00,VWS V14.01,2013-05-27 12:14:00,
2013-05-27 07:15:00,57.8,55.5,29.06,ESE,112,1.0,2.0,92,0.03,,,1.38,40.00,VWS V14.01,2013-05-27 12:15:00,
2013-05-27 07:16:00,57.8,55.5,29.06,SE,135,1.0,5.0,92,0.03,,,1.38,40.00,VWS V14.01,2013-05-27 12:16:00,
2013-05-27 07:17:00,57.8,55.5,29.06,SE,135,0.0,1.0,92,0.03,,,1.38,40.00,VWS V14.01,2013-05-27 12:17:00,
2013-05-27 07:18:00,57.8,55.5,29.06,SE,135,0.0,1.0,92,0.03,,,1.38,42.00,VWS V14.01,2013-05-27 12:18:00,
2013-05-27 07:19:00,57.8,55.5,29.06,SE,135,3.0,6.0,92,0.02,,,1.38,42.00,VWS V14.01,2013-05-27 12:19:00,
2013-05-27 07:20:00,57.9,55.6,29.06,SE,135,1.0,4.0,92,0.02,,,1.38,40.00,VWS V14.01,2013-05-27 12:20:00,
2013-05-27 07:21:00,57.9,55.6,29.06,SE,135,1.0,4.0,92,0.02,,,1.38,39.00,VWS V14.01,2013-05-27 12:21:00,
2013-05-27 07:22:00,57.9,55.6,29.06,SE,135,1.0,4.0,92,0.02,,,1.38,38.00,VWS V14.01,2013-05-27 12:22:00,
2013-05-27 07:23:00,57.9,55.6,29.06,SE,135,1.0,4.0,92,0.02,,,1.38,39.00,VWS V14.01,2013-05-27 12:23:00,
2013-05-27 07:24:00,57.9,55.6,29.06,SE,135,2.0,4.0,92,0.02,,,1.38,39.00,VWS V14.01,2013-05-27 12:24:00,
2013-05-27 07:25:00,57.9,55.6,29.06,SE,135,0.0,2.0,92,0.02,,,1.38,37.00,VWS V14.01,2013-05-27 12:25:00,
2013-05-27 07:26:00,58.0,55.7,29.06,SE,135,0.0,1.0,92,0.02,,,1.38,37.00,VWS V14.01,2013-05-27 12:26:00,
2013-05-27 07:27:00,58.0,55.7,29.06,SE,135,0.0,1.0,92,0.02,,,1.38,39.00,VWS V14.01,2013-05-27 12:27:00,
2013-05-27 07:28:00,58.0,55.7,29.06,SSE,158,0.0,1.0,92,0.02,,,1.38,39.00,VWS V14.01,2013-05-27 12:28:00,
2013-05-27 07:29:00,58.0,55.7,29.06,SE,135,0.0,1.0,92,0.01,,,1.38,37.00,VWS V14.01,2013-05-27 12:29:00,
2013-05-27 07:30:00,58.0,55.7,29.06,ESE,112,0.0,1.0,92,0.01,,,1.38,39.00,VWS V14.01,2013-05-27 12:30:00,
2013-05-27 07:31:00,58.0,55.7,29.07,ESE,112,1.0,4.0,92,0.01,,,1.38,42.00,VWS V14.01,2013-05-27 12:31:00,
2013-05-27 07:32:00,58.1,55.8,29.06,SE,135,0.0,1.0,92,0.01,,,1.38,44.00,VWS V14.01,2013-05-27 12:32:00,
2013-05-27 07:33:00,58.1,55.8,29.06,ESE,112,0.0,1.0,92,0.01,,,1.38,46.00,VWS V14.01,2013-05-27 12:33:00,
2013-05-27 07:34:00,58.1,55.8,29.06,ESE,112,1.0,5.0,92,0.01,,,1.38,48.00,VWS V14.01,2013-05-27 12:34:00,
2013-05-27 07:35:00,58.1,55.8,29.06,SE,135,1.0,2.0,92,0.01,,,1.38,54.00,VWS V14.01,2013-05-27 12:35:00,
2013-05-27 07:36:00,58.2,55.9,29.06,ESE,112,1.0,4.0,92,0.01,,,1.38,54.00,VWS V14.01,2013-05-27 12:36:00,
2013-05-27 07:37:00,58.2,55.9,29.07,ESE,112,0.0,2.0,92,0.01,,,1.38,56.00,VWS V14.01,2013-05-27 12:37:00,
2013-05-27 07:38:00,58.2,55.9,29.07,ESE,112,1.0,2.0,92,0.01,,,1.38,58.00,VWS V14.01,2013-05-27 12:38:00,
2013-05-27 07:39:00,58.2,55.9,29.07,ESE,112,0.0,1.0,92,0.01,,,1.38,62.00,VWS V14.01,2013-05-27 12:39:00,
2013-05-27 07:40:00,58.3,56.0,29.07,ESE,112,1.0,3.0,92,0.01,,,1.38,60.00,VWS V14.01,2013-05-27 12:40:00,
2013-05-27 07:41:00,58.3,56.0,29.07,SE,135,0.0,1.0,92,0.01,,,1.38,56.00,VWS V14.01,2013-05-27 12:41:00,
2013-05-27 07:42:00,58.3,56.0,29.07,SE,135,0.0,2.0,92,0.01,,,1.38,56.00,VWS V14.01,2013-05-27 12:42:00,
2013-05-27 07:43:00,58.3,56.0,29.07,SE,135,1.0,5.0,92,0.01,,,1.38,58.00,VWS V14.01,2013-05-27 12:43:00,
2013-05-27 07:44:00,58.4,56.1,29.07,ESE,112,2.0,6.0,92,0.01,,,1.38,62.00,VWS V14.01,2013-05-27 12:44:00,
2013-05-27 07:45:00,58.4,56.1,29.07,SE,135,3.0,5.0,92,0.01,,,1.38,58.00,VWS V14.01,2013-05-27 12:45:00,
2013-05-27 07:46:00,58.4,56.1,29.07,SE,135,2.0,4.0,92,0.01,,,1.38,54.00,VWS V14.01,2013-05-27 12:46:00,
2013-05-27 07:47:00,58.4,56.1,29.07,SE,135,1.0,2.0,92,0.01,,,1.38,53.00,VWS V14.01,2013-05-27 12:47:00,
2013-05-27 07:48:00,58.4,56.1,29.07,SW,225,1.0,3.0,92,0.01,,,1.38,53.00,VWS V14.01,2013-05-27 12:48:00,
2013-05-27 07:49:00,58.4,56.1,29.07,SW,225,0.0,1.0,92,0.01,,,1.38,49.00,VWS V14.01,2013-05-27 12:49:00,
2013-05-27 07:50:00,58.5,56.2,29.07,SE,135,0.0,2.0,92,0.01,,,1.38,44.00,VWS V14.01,2013-05-27 12:50:00,
2013-05-27 07:51:00,58.5,56.2,29.07,SE,135,1.0,4.0,92,0.01,,,1.38,45.00,VWS V14.01,2013-05-27 12:51:00,
2013-05-27 07:52:00,58.5,56.2,29.07,SSE,158,1.0,5.0,92,0.01,,,1.38,56.00,VWS V14.01,2013-05-27 12:52:00,
2013-05-27 07:53:00,58.5,56.2,29.07,SE,135,0.0,1.0,92,0.01,,,1.38,62.00,VWS V14.01,2013-05-27 12:53:00,
2013-05-27 07:54:00,58.6,56.3,29.07,SE,135,1.0,5.0,92,0.01,,,1.38,63.00,VWS V14.01,2013-05-27 12:54:00,
2013-05-27 07:55:00,58.6,56.3,29.07,ESE,112,0.0,2.0,92,0.01,,,1.38,67.00,VWS V14.01,2013-05-27 12:55:00,
2013-05-27 07:56:00,58.6,56.3,29.07,SE,135,0.0,1.0,92,0.01,,,1.38,70.00,VWS V14.01,2013-05-27 12:56:00,
2013-05-27 07:57:00,58.6,56.3,29.07,ESE,112,0.0,1.0,92,0.01,,,1.38,76.00,VWS V14.01,2013-05-27 12:57:00,
2013-05-27 07:58:00,58.7,56.4,29.07,SE,135,0.0,1.0,92,0.00,,,1.38,79.00,VWS V14.01,2013-05-27 12:58:00,
2013-05-27 07:59:00,58.7,56.4,29.07,SE,135,1.0,5.0,92,0.00,,,1.38,81.00,VWS V14.01,2013-05-27 12:59:00,
2013-05-27 08:00:00,58.7,56.4,29.08,SE,135,1.0,4.0,92,0.00,,,1.38,83.00,VWS V14.01,2013-05-27 13:00:00,
2013-05-27 08:01:00,58.8,56.5,29.08,SSE,158,1.0,2.0,92,0.00,,,1.38,86.00,VWS V14.01,2013-05-27 13:01:00,
2013-05-27 08:02:00,58.9,56.6,29.07,SSE,158,0.0,1.0,92,0.00,,,1.38,86.00,VWS V14.01,2013-05-27 13:02:00,
2013-05-27 08:03:00,58.9,56.6,29.07,SE,135,1.0,6.0,92,0.00,,,1.38,82.00,VWS V14.01,2013-05-27 13:03:00,
2013-05-27 08:04:00,59.0,56.7,29.07,SE,135,1.0,5.0,92,0.00,,,1.38,79.00,VWS V14.01,2013-05-27 13:04:00,
2013-05-27 08:05:00,59.0,56.7,29.07,ESE,112,1.0,6.0,92,0.00,,,1.38,76.00,VWS V14.01,2013-05-27 13:05:00,
2013-05-27 08:06:00,59.0,56.7,29.07,ESE,112,1.0,4.0,92,0.00,,,1.38,74.00,VWS V14.01,2013-05-27 13:06:00,
2013-05-27 08:07:00,59.0,56.7,29.07,SE,135,0.0,1.0,92,0.00,,,1.38,74.00,VWS V14.01,2013-05-27 13:07:00,
2013-05-27 08:08:00,59.0,56.7,29.07,SE,135,2.0,5.0,92,0.00,,,1.38,76.00,VWS V14.01,2013-05-27 13:08:00,
2013-05-27 08:09:00,59.0,56.7,29.07,SE,135,1.0,4.0,92,0.00,,,1.38,73.00,VWS V14.01,2013-05-27 13:09:00,
2013-05-27 08:10:00,59.0,56.7,29.07,SSE,158,0.0,2.0,92,0.00,,,1.38,67.00,VWS V14.01,2013-05-27 13:10:00,
2013-05-27 08:11:00,59.0,56.7,29.07,SSE,158,1.0,5.0,92,0.00,,,1.38,63.00,VWS V14.01,2013-05-27 13:11:00,
2013-05-27 08:12:00,59.0,56.7,29.07,SE,135,1.0,4.0,92,0.00,,,1.38,62.00,VWS V14.01,2013-05-27 13:12:00,
2013-05-27 08:13:00,59.0,56.7,29.07,South,180,1.0,4.0,92,0.00,,,1.38,69.00,VWS V14.01,2013-05-27 13:13:00,
2013-05-27 08:14:00,59.0,56.7,29.07,ESE,112,1.0,4.0,92,0.00,,,1.38,74.00,VWS V14.01,2013-05-27 13:14:00,
2013-05-27 08:15:00,59.0,56.7,29.07,ESE,112,0.0,2.0,92,0.00,,,1.38,81.00,VWS V14.01,2013-05-27 13:15:00,
2013-05-27 08:16:00,59.0,56.7,29.07,SE,135,2.0,8.0,92,0.00,,,1.38,90.00,VWS V14.01,2013-05-27 13:16:00,
2013-05-27 08:17:00,59.0,56.7,29.07,SE,135,2.0,7.0,92,0.00,,,1.38,95.00,VWS V14.01,2013-05-27 13:17:00,
2013-05-27 08:18:00,59.0,56.7,29.07,ESE,112,1.0,2.0,92,0.00,,,1.38,98.00,VWS V14.01,2013-05-27 13:18:00,
2013-05-27 08:19:00,59.0,56.7,29.07,ESE,112,1.0,4.0,92,0.00,,,1.38,104.00,VWS V14.01,2013-05-27 13:19:00,
2013-05-27 08:20:00,59.0,56.7,29.07,ESE,112,1.0,4.0,92,0.00,,,1.38,109.00,VWS V14.01,2013-05-27 13:20:00,
2013-05-27 08:21:00,59.0,56.7,29.07,ESE,112,1.0,5.0,92,0.00,,,1.38,113.00,VWS V14.01,2013-05-27 13:21:00,
2013-05-27 08:22:00,59.0,56.7,29.07,SE,135,1.0,4.0,92,0.00,,,1.38,114.00,VWS V14.01,2013-05-27 13:22:00,
2013-05-27 08:23:00,59.0,56.7,29.07,South,180,2.0,6.0,92,0.00,,,1.38,116.00,VWS V14.01,2013-05-27 13:23:00,
2013-05-27 08:24:00,59.0,56.7,29.07,East,90,0.0,2.0,92,0.00,,,1.38,118.00,VWS V14.01,2013-05-27 13:24:00,
2013-05-27 08:25:00,59.0,56.7,29.07,SE,135,0.0,2.0,92,0.00,,,1.38,121.00,VWS V14.01,2013-05-27 13:25:00,
2013-05-27 08:26:00,59.0,56.7,29.07,SE,135,1.0,2.0,92,0.00,,,1.38,129.00,VWS V14.01,2013-05-27 13:26:00,
2013-05-27 08:27:00,59.0,56.7,29.07,ESE,112,1.0,2.0,92,0.00,,,1.38,137.00,VWS V14.01,2013-05-27 13:27:00,
2013-05-27 08:28:00,59.1,56.8,29.07,SSE,158,1.0,4.0,92,0.00,,,1.38,141.00,VWS V14.01,2013-05-27 13:28:00,
2013-05-27 08:29:00,59.1,56.8,29.07,SE,135,1.0,4.0,92,0.00,,,1.38,144.00,VWS V14.01,2013-05-27 13:29:00,
2013-05-27 08:30:00,59.2,56.9,29.07,SE,135,0.0,2.0,92,0.00,,,1.38,146.00,VWS V14.01,2013-05-27 13:30:00,
2013-05-27 08:31:00,59.2,56.9,29.07,SE,135,0.0,1.0,92,0.00,,,1.38,146.00,VWS V14.01,2013-05-27 13:31:00,
2013-05-27 08:32:00,59.3,57.0,29.07,South,180,1.0,3.0,92,0.00,,,1.38,144.00,VWS V14.01,2013-05-27 13:32:00,
2013-05-27 08:33:00,59.3,57.0,29.07,SSE,158,1.0,2.0,92,0.00,,,1.38,142.00,VWS V14.01,2013-05-27 13:33:00,
2013-05-27 08:34:00,59.3,57.0,29.07,SE,135,2.0,5.0,92,0.00,,,1.38,141.00,VWS V14.01,2013-05-27 13:34:00,
2013-05-27 08:35:00,59.4,57.1,29.07,SE,135,1.0,2.0,92,0.00,,,1.38,135.00,VWS V14.01,2013-05-27 13:35:00,
2013-05-27 08:36:00,59.5,57.2,29.07,ESE,112,1.0,2.0,92,0.00,,,1.38,130.00,VWS V14.01,2013-05-27 13:36:00,
2013-05-27 08:37:00,59.5,57.2,29.07,ESE,112,1.0,2.0,92,0.00,,,1.38,125.00,VWS V14.01,2013-05-27 13:37:00,
2013-05-27 08:38:00,59.5,57.2,29.07,ENE,68,1.0,4.0,92,0.00,,,1.38,119.00,VWS V14.01,2013-05-27 13:38:00,
2013-05-27 08:39:00,59.5,57.2,29.07,ESE,112,1.0,3.0,92,0.00,,,1.38,113.00,VWS V14.01,2013-05-27 13:39:00,
2013-05-27 08:40:00,59.6,57.3,29.07,South,180,0.0,2.0,92,0.00,,,1.38,109.00,VWS V14.01,2013-05-27 13:40:00,
2013-05-27 08:41:00,59.6,57.3,29.07,SE,135,3.0,8.0,92,0.00,,,1.38,107.00,VWS V14.01,2013-05-27 13:41:00,
2013-05-27 08:42:00,59.6,57.3,29.07,SE,135,1.0,4.0,92,0.00,,,1.38,104.00,VWS V14.01,2013-05-27 13:42:00,
2013-05-27 08:43:00,59.6,57.3,29.07,SE,135,0.0,1.0,92,0.00,,,1.38,102.00,VWS V14.01,2013-05-27 13:43:00,
2013-05-27 08:44:00,59.6,57.3,29.07,SE,135,3.0,8.0,92,0.00,,,1.38,99.00,VWS V14.01,2013-05-27 13:44:00,
2013-05-27 08:45:00,59.6,57.3,29.07,SW,225,1.0,3.0,92,0.00,,,1.38,95.00,VWS V14.01,2013-05-27 13:45:00,
2013-05-27 08:46:00,59.6,57.3,29.07,ESE,112,1.0,4.0,92,0.00,,,1.38,97.00,VWS V14.01,2013-05-27 13:46:00,
2013-05-27 08:47:00,59.6,57.3,29.07,SE,135,1.0,2.0,92,0.00,,,1.38,97.00,VWS V14.01,2013-05-27 13:47:00,
2013-05-27 08:48:00,59.6,57.3,29.07,SE,135,2.0,6.0,92,0.00,,,1.38,97.00,VWS V14.01,2013-05-27 13:48:00,
2013-05-27 08:49:00,59.6,57.3,29.07,SE,135,1.0,4.0,92,0.00,,,1.38,97.00,VWS V14.01,2013-05-27 13:49:00,
2013-05-27 08:50:00,59.6,57.3,29.07,ESE,112,1.0,4.0,92,0.00,,,1.38,93.00,VWS V14.01,2013-05-27 13:50:00,
2013-05-27 08:51:00,59.6,57.3,29.07,ESE,112,1.0,5.0,92,0.00,,,1.38,90.00,VWS V14.01,2013-05-27 13:51:00,
2013-05-27 08:52:00,59.6,57.3,29.07,ESE,112,3.0,8.0,92,0.00,,,1.38,88.00,VWS V14.01,2013-05-27 13:52:00,
2013-05-27 08:53:00,59.6,57.3,29.07,SSE,158,1.0,2.0,92,0.00,,,1.38,84.00,VWS V14.01,2013-05-27 13:53:00,
2013-05-27 08:54:00,59.6,57.3,29.07,SSE,158,1.0,5.0,92,0.00,,,1.38,81.00,VWS V14.01,2013-05-27 13:54:00,
2013-05-27 08:55:00,59.6,57.3,29.07,SE,135,1.0,5.0,92,0.00,,,1.38,77.00,VWS V14.01,2013-05-27 13:55:00,
2013-05-27 08:56:00,59.7,57.4,29.07,ESE,112,3.0,6.0,92,0.00,,,1.38,73.00,VWS V14.01,2013-05-27 13:56:00,
2013-05-27 08:57:00,59.7,57.4,29.07,ESE,112,1.0,6.0,92,0.00,,,1.38,69.00,VWS V14.01,2013-05-27 13:57:00,
2013-05-27 08:58:00,59.7,57.4,29.07,ESE,112,1.0,4.0,92,0.00,,,1.38,69.00,VWS V14.01,2013-05-27 13:58:00,
2013-05-27 08:59:00,59.7,57.4,29.07,ESE,112,0.0,2.0,92,0.00,,,1.38,69.00,VWS V14.01,2013-05-27 13:59:00,
2013-05-27 09:00:00,59.7,57.4,29.07,East,90,0.0,1.0,92,0.00,,,1.38,67.00,VWS V14.01,2013-05-27 14:00:00,
2013-05-27 09:01:00,59.7,57.4,29.07,East,90,0.0,1.0,92,0.00,,,1.38,69.00,VWS V14.01,2013-05-27 14:01:00,
2013-05-27 09:02:00,59.8,57.5,29.07,East,90,0.0,2.0,92,0.01,,,1.39,69.00,VWS V14.01,2013-05-27 14:02:00,
2013-05-27 09:03:00,59.8,57.5,29.07,East,90,0.0,0.0,92,0.01,,,1.39,69.00,VWS V14.01,2013-05-27 14:03:00,
2013-05-27 09:04:00,59.8,57.5,29.07,SSE,158,1.0,4.0,92,0.01,,,1.39,65.00,VWS V14.01,2013-05-27 14:04:00,
2013-05-27 09:05:00,59.8,57.5,29.07,SSE,158,0.0,1.0,92,0.01,,,1.39,58.00,VWS V14.01,2013-05-27 14:05:00,
2013-05-27 09:06:00,59.8,57.5,29.07,SSE,158,1.0,2.0,92,0.02,,,1.40,51.00,VWS V14.01,2013-05-27 14:06:00,
2013-05-27 09:07:00,59.9,57.6,29.07,SE,135,1.0,2.0,92,0.02,,,1.40,43.00,VWS V14.01,2013-05-27 14:07:00,
2013-05-27 09:08:00,59.9,57.6,29.07,SE,135,0.0,1.0,92,0.02,,,1.40,33.00,VWS V14.01,2013-05-27 14:08:00,
2013-05-27 09:09:00,59.9,57.6,29.07,South,180,1.0,4.0,92,0.02,,,1.40,33.00,VWS V14.01,2013-05-27 14:09:00,
2013-05-27 09:10:00,59.9,57.6,29.07,ESE,112,1.0,4.0,92,0.02,,,1.40,35.00,VWS V14.01,2013-05-27 14:10:00,
2013-05-27 09:11:00,59.9,57.6,29.07,East,90,0.0,1.0,92,0.02,,,1.40,35.00,VWS V14.01,2013-05-27 14:11:00,
2013-05-27 09:12:00,59.9,57.6,29.07,East,90,0.0,0.0,92,0.02,,,1.40,35.00,VWS V14.01,2013-05-27 14:12:00,
2013-05-27 09:13:00,59.9,57.6,29.07,East,90,0.0,1.0,92,0.02,,,1.40,32.00,VWS V14.01,2013-05-27 14:13:00,
2013-05-27 09:14:00,59.9,57.6,29.07,East,90,0.0,1.0,92,0.03,,,1.41,28.00,VWS V14.01,2013-05-27 14:14:00,
2013-05-27 09:15:00,59.9,57.6,29.07,East,90,0.0,1.0,92,0.03,,,1.41,26.00,VWS V14.01,2013-05-27 14:15:00,
2013-05-27 09:16:00,59.9,57.6,29.07,East,90,0.0,1.0,92,0.04,,,1.42,25.00,VWS V14.01,2013-05-27 14:16:00,
2013-05-27 09:17:00,60.0,57.7,29.07,SSE,158,1.0,4.0,92,0.04,,,1.42,23.00,VWS V14.01,2013-05-27 14:17:00,
2013-05-27 09:18:00,59.9,57.6,29.07,SE,135,0.0,2.0,92,0.04,,,1.42,21.00,VWS V14.01,2013-05-27 14:18:00,
2013-05-27 09:19:00,60.0,57.7,29.07,SE,135,0.0,1.0,92,0.04,,,1.42,21.00,VWS V14.01,2013-05-27 14:19:00,
2013-05-27 09:20:00,60.0,57.7,29.07,ESE,112,0.0,4.0,92,0.04,,,1.42,23.00,VWS V14.01,2013-05-27 14:20:00,
2013-05-27 09:21:00,60.0,57.7,29.06,SE,135,1.0,2.0,92,0.04,,,1.42,26.00,VWS V14.01,2013-05-27 14:21:00,
2013-05-27 09:22:00,60.0,57.7,29.06,SE,135,1.0,2.0,92,0.04,,,1.42,32.00,VWS V14.01,2013-05-27 14:22:00,
2013-05-27 09:23:00,60.0,57.7,29.06,SE,135,0.0,1.0,92,0.04,,,1.42,33.00,VWS V14.01,2013-05-27 14:23:00,
2013-05-27 09:24:00,60.0,57.7,29.06,SE,135,0.0,1.0,92,0.04,,,1.42,33.00,VWS V14.01,2013-05-27 14:24:00,
2013-05-27 09:25:00,59.9,57.6,29.06,SE,135,0.0,1.0,92,0.04,,,1.42,35.00,VWS V14.01,2013-05-27 14:25:00,
2013-05-27 09:26:00,60.0,57.7,29.06,ESE,112,1.0,2.0,92,0.04,,,1.42,40.00,VWS V14.01,2013-05-27 14:26:00,
2013-05-27 09:27:00,59.9,57.6,29.06,ESE,112,0.0,4.0,92,0.05,,,1.43,37.00,VWS V14.01,2013-05-27 14:27:00,
2013-05-27 09:28:00,59.9,57.6,29.06,South,180,1.0,5.0,92,0.05,,,1.43,35.00,VWS V14.01,2013-05-27 14:28:00,
2013-05-27 09:29:00,59.9,57.6,29.06,South,180,0.0,1.0,92,0.05,,,1.43,35.00,VWS V14.01,2013-05-27 14:29:00,
2013-05-27 09:30:00,60.0,57.7,29.06,SE,135,1.0,2.0,92,0.05,,,1.43,39.00,VWS V14.01,2013-05-27 14:30:00,
2013-05-27 09:31:00,60.0,57.7,29.06,ESE,112,0.0,1.0,92,0.06,,,1.44,41.00,VWS V14.01,2013-05-27 14:31:00,
2013-05-27 09:32:00,60.0,57.7,29.06,SE,135,0.0,1.0,92,0.06,,,1.44,44.00,VWS V14.01,2013-05-27 14:32:00,
2013-05-27 09:33:00,59.9,57.6,29.06,SE,135,0.0,2.0,92,0.06,,,1.44,46.00,VWS V14.01,2013-05-27 14:33:00,
2013-05-27 09:34:00,60.0,57.7,29.06,SE,135,0.0,1.0,92,0.06,,,1.44,49.00,VWS V14.01,2013-05-27 14:34:00,
2013-05-27 09:35:00,60.0,57.7,29.06,SE,135,0.0,1.0,92,0.06,,,1.44,51.00,VWS V14.01,2013-05-27 14:35:00,
2013-05-27 09:36:00,60.0,57.7,29.06,SE,135,1.0,3.0,92,0.06,,,1.44,49.00,VWS V14.01,2013-05-27 14:36:00,
2013-05-27 09:37:00,60.0,57.7,29.06,SE,135,0.0,1.0,92,0.06,,,1.44,45.00,VWS V14.01,2013-05-27 14:37:00,
2013-05-27 09:38:00,60.0,57.7,29.06,SE,135,0.0,1.0,92,0.06,,,1.44,44.00,VWS V14.01,2013-05-27 14:38:00,
2013-05-27 09:39:00,60.0,57.7,29.06,SE,135,0.0,2.0,92,0.06,,,1.44,44.00,VWS V14.01,2013-05-27 14:39:00,
2013-05-27 09:40:00,60.0,57.7,29.06,SE,135,0.0,2.0,92,0.06,,,1.44,44.00,VWS V14.01,2013-05-27 14:40:00,
2013-05-27 09:41:00,60.0,57.7,29.05,SE,135,0.0,1.0,92,0.06,,,1.44,47.00,VWS V14.01,2013-05-27 14:41:00,
2013-05-27 09:42:00,60.0,57.7,29.05,SE,135,0.0,1.0,92,0.06,,,1.44,55.00,VWS V14.01,2013-05-27 14:42:00,
2013-05-27 09:43:00,60.0,57.7,29.05,SE,135,0.0,2.0,92,0.06,,,1.44,63.00,VWS V14.01,2013-05-27 14:43:00,
2013-05-27 09:44:00,60.0,57.7,29.05,SE,135,1.0,4.0,92,0.06,,,1.44,65.00,VWS V14.01,2013-05-27 14:44:00,
2013-05-27 09:45:00,60.1,57.8,29.05,SE,135,0.0,1.0,92,0.06,,,1.44,65.00,VWS V14.01,2013-05-27 14:45:00,
2013-05-27 09:46:00,60.1,57.8,29.05,SE,135,0.0,1.0,92,0.06,,,1.44,63.00,VWS V14.01,2013-05-27 14:46:00,
2013-05-27 09:47:00,60.1,57.8,29.05,SSE,158,0.0,2.0,92,0.06,,,1.44,67.00,VWS V14.01,2013-05-27 14:47:00,
2013-05-27 09:48:00,60.1,57.8,29.05,SE,135,0.0,2.0,92,0.06,,,1.44,70.00,VWS V14.01,2013-05-27 14:48:00,
2013-05-27 09:49:00,60.1,57.8,29.05,SE,135,1.0,2.0,92,0.06,,,1.44,74.00,VWS V14.01,2013-05-27 14:49:00,
2013-05-27 09:50:00,60.1,57.8,29.05,SE,135,0.0,1.0,92,0.06,,,1.44,81.00,VWS V14.01,2013-05-27 14:50:00,
2013-05-27 09:51:00,60.2,57.9,29.05,SE,135,0.0,1.0,92,0.06,,,1.44,86.00,VWS V14.01,2013-05-27 14:51:00,
2013-05-27 09:52:00,60.2,57.9,29.05,SE,135,0.0,1.0,92,0.06,,,1.44,84.00,VWS V14.01,2013-05-27 14:52:00,
2013-05-27 09:53:00,60.2,57.9,29.05,SE,135,0.0,1.0,92,0.06,,,1.44,83.00,VWS V14.01,2013-05-27 14:53:00,
2013-05-27 09:54:00,60.2,57.9,29.05,ESE,112,2.0,6.0,92,0.06,,,1.44,76.00,VWS V14.01,2013-05-27 14:54:00,
2013-05-27 09:55:00,60.2,57.9,29.05,ESE,112,1.0,3.0,92,0.06,,,1.44,70.00,VWS V14.01,2013-05-27 14:55:00,
2013-05-27 09:56:00,60.3,58.0,29.04,SSW,202,0.0,2.0,92,0.06,,,1.44,65.00,VWS V14.01,2013-05-27 14:56:00,
2013-05-27 09:57:00,60.2,57.9,29.04,South,180,0.0,1.0,92,0.06,,,1.44,65.00,VWS V14.01,2013-05-27 14:57:00,
2013-05-27 09:58:00,60.3,58.0,29.04,South,180,0.0,1.0,92,0.06,,,1.44,63.00,VWS V14.01,2013-05-27 14:58:00,
2013-05-27 09:59:00,60.3,58.0,29.04,South,180,0.0,1.0,92,0.06,,,1.44,63.00,VWS V14.01,2013-05-27 14:59:00,
2013-05-27 10:00:00,60.3,58.0,29.04,SE,135,0.0,1.0,92,0.06,,,1.44,78.00,VWS V14.01,2013-05-27 15:00:00,
2013-05-27 10:01:00,60.3,58.0,29.04,SW,225,0.0,2.0,92,0.06,,,1.44,79.00,VWS V14.01,2013-05-27 15:01:00,
2013-05-27 10:02:00,60.3,58.0,29.04,SSW,202,0.0,2.0,92,0.06,,,1.44,74.00,VWS V14.01,2013-05-27 15:02:00,
2013-05-27 10:03:00,60.4,58.1,29.04,ESE,112,0.0,1.0,92,0.05,,,1.44,70.00,VWS V14.01,2013-05-27 15:03:00,
2013-05-27 10:04:00,60.4,58.1,29.04,ESE,112,0.0,2.0,92,0.05,,,1.44,67.00,VWS V14.01,2013-05-27 15:04:00,
2013-05-27 10:05:00,60.4,58.1,29.04,ESE,112,0.0,1.0,92,0.05,,,1.44,69.00,VWS V14.01,2013-05-27 15:05:00,
2013-05-27 10:06:00,60.4,58.1,29.04,ESE,112,0.0,1.0,92,0.05,,,1.44,82.00,VWS V14.01,2013-05-27 15:06:00,
2013-05-27 10:07:00,60.4,58.1,29.04,SW,225,1.0,3.0,92,0.04,,,1.44,91.00,VWS V14.01,2013-05-27 15:07:00,
2013-05-27 10:08:00,60.4,58.1,29.04,SW,225,0.0,0.0,92,0.04,,,1.44,98.00,VWS V14.01,2013-05-27 15:08:00,
2013-05-27 10:09:00,60.4,58.1,29.04,ESE,112,0.0,1.0,92,0.04,,,1.44,97.00,VWS V14.01,2013-05-27 15:09:00,
2013-05-27 10:10:00,60.4,58.1,29.04,ESE,112,1.0,4.0,92,0.04,,,1.44,90.00,VWS V14.01,2013-05-27 15:10:00,
2013-05-27 10:11:00,60.5,58.2,29.04,ESE,112,1.0,5.0,92,0.04,,,1.44,91.00,VWS V14.01,2013-05-27 15:11:00,
2013-05-27 10:12:00,60.5,58.2,29.04,ESE,112,1.0,4.0,92,0.04,,,1.44,94.00,VWS V14.01,2013-05-27 15:12:00,
2013-05-27 10:13:00,60.5,58.2,29.04,ESE,112,0.0,2.0,92,0.04,,,1.44,90.00,VWS V14.01,2013-05-27 15:13:00,
2013-05-27 10:14:00,60.5,58.2,29.04,ESE,112,0.0,1.0,92,0.04,,,1.44,83.00,VWS V14.01,2013-05-27 15:14:00,
2013-05-27 10:15:00,60.5,58.2,29.05,ESE,112,0.0,0.0,92,0.03,,,1.44,76.00,VWS V14.01,2013-05-27 15:15:00,
2013-05-27 10:16:00,60.6,58.3,29.05,ESE,112,0.0,0.0,92,0.03,,,1.44,69.00,VWS V14.01,2013-05-27 15:16:00,
2013-05-27 10:17:00,60.6,58.3,29.05,ESE,112,0.0,1.0,92,0.02,,,1.44,58.00,VWS V14.01,2013-05-27 15:17:00,
2013-05-27 10:18:00,60.6,58.3,29.05,ESE,112,0.0,0.0,92,0.02,,,1.44,49.00,VWS V14.01,2013-05-27 15:18:00,
2013-05-27 10:19:00,60.7,58.4,29.05,ESE,112,0.0,0.0,92,0.02,,,1.44,53.00,VWS V14.01,2013-05-27 15:19:00,
2013-05-27 10:20:00,60.7,58.4,29.05,ESE,112,0.0,1.0,92,0.02,,,1.44,60.00,VWS V14.01,2013-05-27 15:20:00,
2013-05-27 10:21:00,60.7,58.4,29.05,ESE,112,0.0,0.0,92,0.02,,,1.44,67.00,VWS V14.01,2013-05-27 15:21:00,
2013-05-27 10:22:00,60.7,58.4,29.04,ESE,112,0.0,1.0,92,0.02,,,1.44,70.00,VWS V14.01,2013-05-27 15:22:00,
2013-05-27 10:23:00,60.7,58.4,29.04,SSW,202,0.0,4.0,92,0.02,,,1.44,68.00,VWS V14.01,2013-05-27 15:23:00,
2013-05-27 10:24:00,60.7,58.4,29.05,SE,135,0.0,1.0,92,0.02,,,1.44,63.00,VWS V14.01,2013-05-27 15:24:00,
2013-05-27 10:25:00,60.7,58.4,29.05,SE,135,0.0,1.0,92,0.02,,,1.44,58.00,VWS V14.01,2013-05-27 15:25:00,
2013-05-27 10:26:00,60.8,58.5,29.05,SE,135,0.0,1.0,92,0.02,,,1.44,60.00,VWS V14.01,2013-05-27 15:26:00,
2013-05-27 10:27:00,60.8,58.5,29.05,SE,135,0.0,0.0,92,0.02,,,1.44,67.00,VWS V14.01,2013-05-27 15:27:00,
2013-05-27 10:28:00,60.8,58.5,29.05,SE,135,0.0,0.0,92,0.01,,,1.44,67.00,VWS V14.01,2013-05-27 15:28:00,
2013-05-27 10:29:00,60.8,58.5,29.05,SE,135,0.0,0.0,92,0.01,,,1.44,63.00,VWS V14.01,2013-05-27 15:29:00,
2013-05-27 10:30:00,60.8,58.5,29.05,SE,135,0.0,1.0,92,0.01,,,1.44,63.00,VWS V14.01,2013-05-27 15:30:00,
2013-05-27 10:31:00,60.8,58.5,29.04,SE,135,0.0,1.0,92,0.01,,,1.44,60.00,VWS V14.01,2013-05-27 15:31:00,
2013-05-27 10:32:00,60.9,58.6,29.04,SE,135,0.0,1.0,92,0.00,,,1.44,63.00,VWS V14.01,2013-05-27 15:32:00,
2013-05-27 10:33:00,60.9,58.6,29.05,SE,135,0.0,0.0,92,0.00,,,1.44,65.00,VWS V14.01,2013-05-27 15:33:00,
2013-05-27 10:34:00,60.9,58.6,29.04,SE,135,0.0,0.0,92,0.00,,,1.44,63.00,VWS V14.01,2013-05-27 15:34:00,
2013-05-27 10:35:00,60.9,58.6,29.05,SE,135,0.0,0.0,92,0.00,,,1.44,59.00,VWS V14.01,2013-05-27 15:35:00,
2013-05-27 10:36:00,60.9,58.6,29.04,SE,135,0.0,0.0,92,0.00,,,1.44,54.00,VWS V14.01,2013-05-27 15:36:00,
2013-05-27 10:37:00,60.9,58.6,29.04,SE,135,0.0,0.0,92,0.00,,,1.44,54.00,VWS V14.01,2013-05-27 15:37:00,
2013-05-27 10:38:00,60.9,58.6,29.05,SE,135,0.0,0.0,92,0.00,,,1.44,69.00,VWS V14.01,2013-05-27 15:38:00,
2013-05-27 10:39:00,60.9,58.6,29.04,SE,135,0.0,0.0,92,0.00,,,1.44,69.00,VWS V14.01,2013-05-27 15:39:00,
2013-05-27 10:40:00,60.9,58.6,29.05,SE,135,0.0,1.0,92,0.00,,,1.44,65.00,VWS V14.01,2013-05-27 15:40:00,
2013-05-27 10:41:00,60.9,58.6,29.05,SE,135,0.0,0.0,92,0.00,,,1.44,64.00,VWS V14.01,2013-05-27 15:41:00,
2013-05-27 10:42:00,61.0,58.7,29.04,SE,135,0.0,0.0,92,0.00,,,1.44,67.00,VWS V14.01,2013-05-27 15:42:00,
2013-05-27 10:43:00,61.0,58.7,29.04,SE,135,0.0,0.0,92,0.00,,,1.44,72.00,VWS V14.01,2013-05-27 15:43:00,
2013-05-27 10:44:00,61.0,58.7,29.04,SE,135,0.0,0.0,92,0.00,,,1.44,79.00,VWS V14.01,2013-05-27 15:44:00,
2013-05-27 10:45:00,61.0,58.7,29.04,SE,135,0.0,0.0,92,0.00,,,1.44,84.00,VWS V14.01,2013-05-27 15:45:00,
2013-05-27 10:46:00,61.1,58.8,29.05,SE,135,0.0,0.0,92,0.00,,,1.44,77.00,VWS V14.01,2013-05-27 15:46:00,
2013-05-27 10:47:00,61.1,58.8,29.05,SE,135,0.0,0.0,92,0.00,,,1.44,71.00,VWS V14.01,2013-05-27 15:47:00,
2013-05-27 10:48:00,61.1,58.8,29.05,SE,135,0.0,0.0,92,0.00,,,1.44,79.00,VWS V14.01,2013-05-27 15:48:00,
2013-05-27 10:49:00,61.1,58.8,29.05,SE,135,0.0,0.0,92,0.00,,,1.44,79.00,VWS V14.01,2013-05-27 15:49:00,
2013-05-27 10:50:00,61.2,58.9,29.05,SE,135,0.0,0.0,92,0.00,,,1.44,83.00,VWS V14.01,2013-05-27 15:50:00,
2013-05-27 10:51:00,61.2,58.9,29.05,SE,135,0.0,0.0,92,0.00,,,1.44,86.00,VWS V14.01,2013-05-27 15:51:00,
2013-05-27 10:52:00,61.2,58.9,29.05,SE,135,0.0,0.0,92,0.00,,,1.44,81.00,VWS V14.01,2013-05-27 15:52:00,
2013-05-27 10:53:00,61.3,59.0,29.04,SE,135,0.0,1.0,92,0.00,,,1.44,79.00,VWS V14.01,2013-05-27 15:53:00,
2013-05-27 10:54:00,61.3,59.0,29.04,SE,135,0.0,2.0,92,0.00,,,1.44,97.00,VWS V14.01,2013-05-27 15:54:00,
2013-05-27 10:55:00,61.4,59.1,29.04,SE,135,0.0,1.0,92,0.00,,,1.44,100.00,VWS V14.01,2013-05-27 15:55:00,
2013-05-27 10:56:00,61.4,59.1,29.04,SE,135,0.0,2.0,92,0.00,,,1.44,107.00,VWS V14.01,2013-05-27 15:56:00,
2013-05-27 10:57:00,61.4,59.1,29.05,SE,135,0.0,0.0,92,0.00,,,1.44,102.00,VWS V14.01,2013-05-27 15:57:00,
2013-05-27 10:58:00,61.5,59.2,29.05,SE,135,0.0,0.0,92,0.00,,,1.44,105.00,VWS V14.01,2013-05-27 15:58:00,
2013-05-27 10:59:00,61.5,59.2,29.05,SE,135,0.0,0.0,92,0.00,,,1.44,101.00,VWS V14.01,2013-05-27 15:59:00,
2013-05-27 11:00:00,61.6,59.3,29.05,SE,135,0.0,0.0,92,0.00,,,1.44,113.00,VWS V14.01,2013-05-27 16:00:00,
2013-05-27 11:01:00,61.6,59.3,29.05,SE,135,0.0,0.0,92,0.00,,,1.44,130.00,VWS V14.01,2013-05-27 16:01:00,
2013-05-27 11:02:00,61.7,59.4,29.05,SE,135,0.0,0.0,92,0.00,,,1.44,139.00,VWS V14.01,2013-05-27 16:02:00,
2013-05-27 11:03:00,61.7,59.4,29.05,SE,135,0.0,0.0,92,0.00,,,1.44,141.00,VWS V14.01,2013-05-27 16:03:00,
2013-05-27 11:04:00,61.8,59.5,29.05,SE,135,1.0,4.0,92,0.00,,,1.44,161.00,VWS V14.01,2013-05-27 16:04:00,
2013-05-27 11:05:00,61.8,59.5,29.05,SE,135,0.0,2.0,92,0.00,,,1.44,195.00,VWS V14.01,2013-05-27 16:05:00,
2013-05-27 11:06:00,61.8,59.5,29.05,SE,135,0.0,0.0,92,0.00,,,1.44,186.00,VWS V14.01,2013-05-27 16:06:00,
2013-05-27 11:07:00,61.9,59.5,29.05,SE,135,0.0,0.0,92,0.00,,,1.44,188.00,VWS V14.01,2013-05-27 16:07:00,
2013-05-27 11:08:00,62.0,59.7,29.05,SSE,158,0.0,1.0,92,0.00,,,1.44,197.00,VWS V14.01,2013-05-27 16:08:00,
2013-05-27 11:09:00,62.0,59.7,29.05,SSE,158,0.0,0.0,92,0.00,,,1.44,174.00,VWS V14.01,2013-05-27 16:09:00,
2013-05-27 11:10:00,62.1,59.8,29.05,SSE,158,0.0,1.0,92,0.00,,,1.44,150.00,VWS V14.01,2013-05-27 16:10:00,
2013-05-27 11:11:00,62.1,59.8,29.05,SSE,158,0.0,1.0,92,0.00,,,1.44,176.00,VWS V14.01,2013-05-27 16:11:00,
2013-05-27 11:12:00,62.2,59.8,29.05,SSE,158,0.0,0.0,92,0.00,,,1.44,185.00,VWS V14.01,2013-05-27 16:12:00,
2013-05-27 11:13:00,62.3,60.0,29.05,SSE,158,0.0,1.0,92,0.00,,,1.44,204.00,VWS V14.01,2013-05-27 16:13:00,
2013-05-27 11:14:00,62.3,60.0,29.05,SSE,158,0.0,0.0,92,0.00,,,1.44,220.00,VWS V14.01,2013-05-27 16:14:00,
2013-05-27 11:15:00,62.4,60.0,29.05,SSE,158,0.0,0.0,92,0.00,,,1.44,257.00,VWS V14.01,2013-05-27 16:15:00,
2013-05-27 11:16:00,62.5,60.2,29.04,SSE,158,0.0,0.0,92,0.00,,,1.44,281.00,VWS V14.01,2013-05-27 16:16:00,
2013-05-27 11:17:00,62.7,60.3,29.04,SSE,158,0.0,0.0,92,0.00,,,1.44,425.00,VWS V14.01,2013-05-27 16:17:00,
2013-05-27 11:18:00,62.8,60.5,29.04,SSE,158,0.0,0.0,92,0.00,,,1.44,366.00,VWS V14.01,2013-05-27 16:18:00,
2013-05-27 11:19:00,62.9,60.5,29.04,SSE,158,0.0,1.0,92,0.00,,,1.44,362.00,VWS V14.01,2013-05-27 16:19:00,
2013-05-27 11:20:00,63.1,60.7,29.04,SSE,158,0.0,1.0,92,0.00,,,1.44,362.00,VWS V14.01,2013-05-27 16:20:00,
2013-05-27 11:21:00,63.2,60.8,29.04,SSE,158,0.0,1.0,92,0.00,,,1.44,362.00,VWS V14.01,2013-05-27 16:21:00,
2013-05-27 11:22:00,63.4,61.0,29.05,SSE,158,0.0,1.0,92,0.00,,,1.44,448.00,VWS V14.01,2013-05-27 16:22:00,
2013-05-27 11:23:00,63.5,61.1,29.05,SSE,158,0.0,1.0,92,0.00,,,1.44,538.00,VWS V14.01,2013-05-27 16:23:00,
2013-05-27 11:24:00,63.6,61.2,29.05,SSE,158,0.0,1.0,92,0.00,,,1.44,503.00,VWS V14.01,2013-05-27 16:24:00,
2013-05-27 11:25:00,63.7,61.3,29.05,SSE,158,0.0,1.0,92,0.00,,,1.44,503.00,VWS V14.01,2013-05-27 16:25:00,
2013-05-27 11:26:00,63.8,61.4,29.04,SSE,158,0.0,2.0,92,0.00,,,1.44,401.00,VWS V14.01,2013-05-27 16:26:00,
2013-05-27 11:27:00,63.8,61.4,29.04,SSE,158,1.0,2.0,92,0.00,,,1.44,401.00,VWS V14.01,2013-05-27 16:27:00,
2013-05-27 11:28:00,63.9,61.5,29.05,SSE,158,0.0,1.0,92,0.00,,,1.44,401.00,VWS V14.01,2013-05-27 16:28:00,
2013-05-27 11:29:00,64.0,61.6,29.04,SSE,158,0.0,1.0,92,0.00,,,1.44,248.00,VWS V14.01,2013-05-27 16:29:00,
2013-05-27 11:30:00,64.0,61.6,29.05,SSE,158,0.0,1.0,92,0.00,,,1.44,192.00,VWS V14.01,2013-05-27 16:30:00,
2013-05-27 11:31:00,64.0,61.6,29.05,SSE,158,0.0,0.0,92,0.00,,,1.44,239.00,VWS V14.01,2013-05-27 16:31:00,
2013-05-27 11:32:00,64.0,61.6,29.05,SSE,158,0.0,1.0,92,0.00,,,1.44,209.00,VWS V14.01,2013-05-27 16:32:00,
2013-05-27 11:33:00,64.0,61.6,29.05,SSE,158,0.0,2.0,92,0.00,,,1.44,185.00,VWS V14.01,2013-05-27 16:33:00,
2013-05-27 11:34:00,63.9,61.5,29.05,SSE,158,0.0,1.0,92,0.00,,,1.44,271.00,VWS V14.01,2013-05-27 16:34:00,
2013-05-27 11:35:00,63.9,61.5,29.05,SSE,158,0.0,1.0,92,0.00,,,1.44,515.00,VWS V14.01,2013-05-27 16:35:00,
2013-05-27 11:36:00,64.0,61.6,29.05,SSE,158,0.0,1.0,92,0.00,,,1.44,478.00,VWS V14.01,2013-05-27 16:36:00,
2013-05-27 11:37:00,64.0,61.6,29.05,SSE,158,0.0,1.0,92,0.00,,,1.44,478.00,VWS V14.01,2013-05-27 16:37:00,
2013-05-27 11:38:00,64.0,61.6,29.05,SSE,158,0.0,1.0,92,0.00,,,1.44,557.00,VWS V14.01,2013-05-27 16:38:00,
2013-05-27 11:39:00,64.1,61.7,29.04,SSE,158,0.0,1.0,92,0.00,,,1.44,499.00,VWS V14.01,2013-05-27 16:39:00,
2013-05-27 11:40:00,64.1,61.7,29.04,SSE,158,0.0,0.0,92,0.00,,,1.44,504.00,VWS V14.01,2013-05-27 16:40:00,
2013-05-27 11:41:00,64.3,61.9,29.04,SSE,158,0.0,0.0,92,0.00,,,1.44,397.00,VWS V14.01,2013-05-27 16:41:00,
2013-05-27 11:42:00,64.4,62.0,29.04,SSE,158,0.0,2.0,92,0.00,,,1.44,413.00,VWS V14.01,2013-05-27 16:42:00,
2013-05-27 11:43:00,64.5,62.1,29.04,SSE,158,0.0,1.0,92,0.00,,,1.44,478.00,VWS V14.01,2013-05-27 16:43:00,
2013-05-27 11:44:00,64.6,62.2,29.04,South,180,0.0,3.0,92,0.00,,,1.44,478.00,VWS V14.01,2013-05-27 16:44:00,
2013-05-27 11:45:00,64.5,62.1,29.03,South,180,0.0,1.0,92,0.00,,,1.44,798.00,VWS V14.01,2013-05-27 16:45:00,
2013-05-27 11:46:00,64.5,62.1,29.03,South,180,0.0,0.0,92,0.00,,,1.44,798.00,VWS V14.01,2013-05-27 16:46:00,
2013-05-27 11:47:00,64.5,62.1,29.03,South,180,0.0,1.0,92,0.00,,,1.44,701.00,VWS V14.01,2013-05-27 16:47:00,
2013-05-27 11:48:00,64.5,62.1,29.04,South,180,0.0,1.0,92,0.00,,,1.44,701.00,VWS V14.01,2013-05-27 16:48:00,
2013-05-27 11:49:00,64.5,62.1,29.04,South,180,1.0,2.0,92,0.00,,,1.44,701.00,VWS V14.01,2013-05-27 16:49:00,
2013-05-27 11:50:00,64.6,62.2,29.04,South,180,0.0,1.0,92,0.00,,,1.44,816.00,VWS V14.01,2013-05-27 16:50:00,
2013-05-27 11:51:00,64.7,62.3,29.04,South,180,0.0,1.0,92,0.00,,,1.44,816.00,VWS V14.01,2013-05-27 16:51:00,
2013-05-27 11:52:00,64.7,62.3,29.04,South,180,0.0,1.0,92,0.00,,,1.44,397.00,VWS V14.01,2013-05-27 16:52:00,
2013-05-27 11:53:00,64.8,62.4,29.04,South,180,0.0,1.0,92,0.00,,,1.44,475.00,VWS V14.01,2013-05-27 16:53:00,
2013-05-27 11:54:00,64.8,62.4,29.04,South,180,0.0,0.0,92,0.00,,,1.44,469.00,VWS V14.01,2013-05-27 16:54:00,
2013-05-27 11:55:00,64.9,62.5,29.05,South,180,0.0,0.0,92,0.00,,,1.44,450.00,VWS V14.01,2013-05-27 16:55:00,
2013-05-27 11:56:00,65.0,62.6,29.04,South,180,0.0,1.0,92,0.00,,,1.44,450.00,VWS V14.01,2013-05-27 16:56:00,
2013-05-27 11:57:00,65.1,62.7,29.04,South,180,0.0,1.0,92,0.00,,,1.44,603.00,VWS V14.01,2013-05-27 16:57:00,
2013-05-27 11:58:00,65.1,62.7,29.04,South,180,0.0,1.0,92,0.00,,,1.44,559.00,VWS V14.01,2013-05-27 16:58:00,
2013-05-27 11:59:00,65.2,62.8,29.04,South,180,0.0,0.0,92,0.00,,,1.44,554.00,VWS V14.01,2013-05-27 16:59:00,
2013-05-27 12:00:00,65.2,62.8,29.04,South,180,0.0,1.0,92,0.00,,,1.44,504.00,VWS V14.01,2013-05-27 17:00:00,
2013-05-27 12:01:00,65.3,62.9,29.04,South,180,0.0,1.0,92,0.00,,,1.44,490.00,VWS V14.01,2013-05-27 17:01:00,
2013-05-27 12:02:00,65.4,63.0,29.04,South,180,0.0,2.0,92,0.00,,,1.44,490.00,VWS V14.01,2013-05-27 17:02:00,
2013-05-27 12:03:00,65.5,63.1,29.04,South,180,0.0,0.0,92,0.00,,,1.44,798.00,VWS V14.01,2013-05-27 17:03:00,
2013-05-27 12:04:00,65.6,63.2,29.04,South,180,0.0,1.0,92,0.00,,,1.44,798.00,VWS V14.01,2013-05-27 17:04:00,
2013-05-27 12:05:00,65.7,63.3,29.04,South,180,0.0,1.0,92,0.00,,,1.44,798.00,VWS V14.01,2013-05-27 17:05:00,
2013-05-27 12:06:00,65.8,63.4,29.04,South,180,0.0,1.0,92,0.00,,,1.44,803.00,VWS V14.01,2013-05-27 17:06:00,
2013-05-27 12:07:00,65.9,63.5,29.04,South,180,0.0,0.0,92,0.00,,,1.44,831.00,VWS V14.01,2013-05-27 17:07:00,
2013-05-27 12:08:00,66.0,63.6,29.04,South,180,0.0,0.0,92,0.00,,,1.44,831.00,VWS V14.01,2013-05-27 17:08:00,
2013-05-27 12:09:00,66.1,63.7,29.04,South,180,0.0,0.0,92,0.00,,,1.44,415.00,VWS V14.01,2013-05-27 17:09:00,
2013-05-27 12:10:00,66.1,63.7,29.04,South,180,1.0,2.0,92,0.00,,,1.44,431.00,VWS V14.01,2013-05-27 17:10:00,
2013-05-27 12:11:00,66.2,63.8,29.04,South,180,0.0,1.0,92,0.00,,,1.44,406.00,VWS V14.01,2013-05-27 17:11:00,
2013-05-27 12:12:00,66.2,63.8,29.04,South,180,0.0,1.0,92,0.00,,,1.44,503.00,VWS V14.01,2013-05-27 17:12:00,
2013-05-27 12:13:00,66.3,63.9,29.04,SE,135,0.0,2.0,92,0.00,,,1.44,503.00,VWS V14.01,2013-05-27 17:13:00,
2013-05-27 12:14:00,66.4,64.0,29.04,SE,135,0.0,0.0,92,0.00,,,1.44,540.00,VWS V14.01,2013-05-27 17:14:00,
2013-05-27 12:15:00,66.5,63.8,29.04,SE,135,0.0,0.0,91,0.00,,,1.44,495.00,VWS V14.01,2013-05-27 17:15:00,
2013-05-27 12:16:00,66.6,63.9,29.04,SE,135,0.0,0.0,91,0.00,,,1.44,480.00,VWS V14.01,2013-05-27 17:16:00,
2013-05-27 12:17:00,66.6,63.9,29.04,SE,135,0.0,1.0,91,0.00,,,1.44,480.00,VWS V14.01,2013-05-27 17:17:00,
2013-05-27 12:18:00,66.6,63.9,29.04,SE,135,0.0,0.0,91,0.00,,,1.44,543.00,VWS V14.01,2013-05-27 17:18:00,
2013-05-27 12:19:00,66.6,63.9,29.04,SE,135,0.0,0.0,91,0.00,,,1.44,543.00,VWS V14.01,2013-05-27 17:19:00,
2013-05-27 12:20:00,66.5,63.5,29.04,SE,135,0.0,0.0,90,0.00,,,1.44,381.00,VWS V14.01,2013-05-27 17:20:00,
2013-05-27 12:21:00,66.5,63.5,29.04,SE,135,0.0,1.0,90,0.00,,,1.44,411.00,VWS V14.01,2013-05-27 17:21:00,
2013-05-27 12:22:00,66.5,63.5,29.04,SE,135,0.0,0.0,90,0.00,,,1.44,392.00,VWS V14.01,2013-05-27 17:22:00,
2013-05-27 12:23:00,66.5,63.5,29.04,SE,135,0.0,1.0,90,0.00,,,1.44,387.00,VWS V14.01,2013-05-27 17:23:00,
2013-05-27 12:24:00,66.6,63.6,29.05,SE,135,0.0,0.0,90,0.00,,,1.44,362.00,VWS V14.01,2013-05-27 17:24:00,
2013-05-27 12:25:00,66.6,63.6,29.05,SE,135,0.0,1.0,90,0.00,,,1.44,325.00,VWS V14.01,2013-05-27 17:25:00,
2013-05-27 12:26:00,66.7,63.4,29.05,SE,135,0.0,0.0,89,0.00,,,1.44,276.00,VWS V14.01,2013-05-27 17:26:00,
2013-05-27 12:27:00,66.8,63.8,29.05,SE,135,0.0,1.0,90,0.00,,,1.44,327.00,VWS V14.01,2013-05-27 17:27:00,
2013-05-27 12:28:00,66.8,63.5,29.05,SE,135,0.0,1.0,89,0.00,,,1.44,325.00,VWS V14.01,2013-05-27 17:28:00,
2013-05-27 12:29:00,66.9,63.6,29.05,SE,135,0.0,0.0,89,0.00,,,1.44,313.00,VWS V14.01,2013-05-27 17:29:00,
2013-05-27 12:30:00,67.0,63.7,29.05,SE,135,0.0,1.0,89,0.00,,,1.44,304.00,VWS V14.01,2013-05-27 17:30:00,
2013-05-27 12:31:00,67.1,63.8,29.05,SE,135,1.0,2.0,89,0.00,,,1.44,315.00,VWS V14.01,2013-05-27 17:31:00,
2013-05-27 12:32:00,67.2,63.8,29.05,SE,135,0.0,0.0,89,0.00,,,1.44,372.00,VWS V14.01,2013-05-27 17:32:00,
2013-05-27 12:33:00,67.3,64.0,29.05,SE,135,0.0,0.0,89,0.00,,,1.44,422.00,VWS V14.01,2013-05-27 17:33:00,
2013-05-27 12:34:00,67.3,64.0,29.05,SE,135,0.0,0.0,89,0.00,,,1.44,410.00,VWS V14.01,2013-05-27 17:34:00,
2013-05-27 12:35:00,67.4,64.1,29.05,SE,135,0.0,1.0,89,0.00,,,1.44,381.00,VWS V14.01,2013-05-27 17:35:00,
2013-05-27 12:36:00,67.5,63.8,29.05,SE,135,1.0,2.0,88,0.00,,,1.44,381.00,VWS V14.01,2013-05-27 17:36:00,
2013-05-27 12:37:00,67.5,63.8,29.05,SE,135,0.0,1.0,88,0.00,,,1.44,383.00,VWS V14.01,2013-05-27 17:37:00,
2013-05-27 12:38:00,67.6,63.9,29.05,SE,135,1.0,4.0,88,0.00,,,1.44,376.00,VWS V14.01,2013-05-27 17:38:00,
2013-05-27 12:39:00,67.6,63.9,29.05,SE,135,0.0,1.0,88,0.00,,,1.44,373.00,VWS V14.01,2013-05-27 17:39:00,
2013-05-27 12:40:00,67.7,64.0,29.05,SE,135,0.0,2.0,88,0.00,,,1.44,311.00,VWS V14.01,2013-05-27 17:40:00,
2013-05-27 12:41:00,67.7,63.7,29.05,NW,315,1.0,2.0,87,0.00,,,1.44,255.00,VWS V14.01,2013-05-27 17:41:00,
2013-05-27 12:42:00,67.7,63.7,29.05,SSE,158,0.0,2.0,87,0.00,,,1.44,213.00,VWS V14.01,2013-05-27 17:42:00,
2013-05-27 12:43:00,67.7,63.7,29.05,South,180,1.0,2.0,87,0.00,,,1.44,169.00,VWS V14.01,2013-05-27 17:43:00,
2013-05-27 12:44:00,67.7,63.4,29.05,South,180,0.0,1.0,86,0.00,,,1.44,181.00,VWS V14.01,2013-05-27 17:44:00,
2013-05-27 12:45:00,67.7,63.4,29.06,South,180,0.0,1.0,86,0.00,,,1.44,221.00,VWS V14.01,2013-05-27 17:45:00,
2013-05-27 12:46:00,67.7,63.4,29.06,South,180,0.0,1.0,86,0.00,,,1.44,211.00,VWS V14.01,2013-05-27 17:46:00,
2013-05-27 12:47:00,67.7,63.4,29.06,South,180,0.0,1.0,86,0.00,,,1.44,211.00,VWS V14.01,2013-05-27 17:47:00,
2013-05-27 12:48:00,67.7,63.4,29.05,South,180,0.0,1.0,86,0.00,,,1.44,248.00,VWS V14.01,2013-05-27 17:48:00,
2013-05-27 12:49:00,67.7,63.4,29.06,South,180,0.0,1.0,86,0.00,,,1.44,283.00,VWS V14.01,2013-05-27 17:49:00,
2013-05-27 12:50:00,67.8,63.5,29.06,South,180,0.0,0.0,86,0.00,,,1.44,278.00,VWS V14.01,2013-05-27 17:50:00,
2013-05-27 12:51:00,67.9,63.6,29.06,East,90,0.0,1.0,86,0.00,,,1.44,350.00,VWS V14.01,2013-05-27 17:51:00,
2013-05-27 12:52:00,67.9,63.9,29.06,East,90,0.0,1.0,87,0.00,,,1.44,387.00,VWS V14.01,2013-05-27 17:52:00,
2013-05-27 12:53:00,67.9,63.9,29.06,SSW,202,0.0,3.0,87,0.00,,,1.44,399.00,VWS V14.01,2013-05-27 17:53:00,
2013-05-27 12:54:00,67.9,63.6,29.06,SSW,202,1.0,3.0,86,0.00,,,1.44,490.00,VWS V14.01,2013-05-27 17:54:00,
2013-05-27 12:55:00,67.9,63.6,29.06,SE,135,0.0,1.0,86,0.00,,,1.44,571.00,VWS V14.01,2013-05-27 17:55:00,
2013-05-27 12:56:00,68.0,63.7,29.06,SE,135,0.0,1.0,86,0.00,,,1.44,939.00,VWS V14.01,2013-05-27 17:56:00,
2013-05-27 12:57:00,68.1,63.8,29.06,SE,135,0.0,1.0,86,0.00,,,1.44,939.00,VWS V14.01,2013-05-27 17:57:00,
2013-05-27 12:58:00,68.2,63.9,29.06,SE,135,0.0,1.0,86,0.00,,,1.44,657.00,VWS V14.01,2013-05-27 17:58:00,
2013-05-27 12:59:00,68.3,63.6,29.06,SE,135,0.0,0.0,85,0.00,,,1.44,580.00,VWS V14.01,2013-05-27 17:59:00,
2013-05-27 13:00:00,68.4,63.7,29.06,WSW,248,0.0,2.0,85,0.00,,,1.44,580.00,VWS V14.01,2013-05-27 18:00:00,
2013-05-27 13:01:00,68.5,63.8,29.06,WSW,248,0.0,1.0,85,0.00,,,1.44,580.00,VWS V14.01,2013-05-27 18:01:00,
2013-05-27 13:02:00,68.5,63.8,29.06,WSW,248,1.0,2.0,85,0.00,,,1.44,374.00,VWS V14.01,2013-05-27 18:02:00,
2013-05-27 13:03:00,68.6,63.9,29.06,ESE,112,0.0,1.0,85,0.00,,,1.44,383.00,VWS V14.01,2013-05-27 18:03:00,
2013-05-27 13:04:00,68.6,63.6,29.06,SSE,158,0.0,1.0,84,0.00,,,1.44,385.00,VWS V14.01,2013-05-27 18:04:00,
2013-05-27 13:05:00,68.6,63.2,29.06,SSE,158,0.0,0.0,83,0.00,,,1.44,367.00,VWS V14.01,2013-05-27 18:05:00,
2013-05-27 13:06:00,68.6,63.2,29.06,SSE,158,0.0,1.0,83,0.00,,,1.44,327.00,VWS V14.01,2013-05-27 18:06:00,
2013-05-27 13:07:00,68.6,63.2,29.06,SSE,158,0.0,1.0,83,0.00,,,1.44,292.00,VWS V14.01,2013-05-27 18:07:00,
2013-05-27 13:08:00,68.7,63.3,29.06,SSE,158,0.0,0.0,83,0.00,,,1.44,223.00,VWS V14.01,2013-05-27 18:08:00,
2013-05-27 13:09:00,68.7,63.3,29.06,SSE,158,0.0,1.0,83,0.00,,,1.44,213.00,VWS V14.01,2013-05-27 18:09:00,
2013-05-27 13:10:00,68.7,63.3,29.06,SSE,158,0.0,1.0,83,0.00,,,1.44,192.00,VWS V14.01,2013-05-27 18:10:00,
2013-05-27 13:11:00,68.7,63.3,29.06,SSE,158,0.0,0.0,83,0.00,,,1.44,186.00,VWS V14.01,2013-05-27 18:11:00,
2013-05-27 13:12:00,68.8,63.8,29.06,SSE,158,0.0,0.0,84,0.00,,,1.44,207.00,VWS V14.01,2013-05-27 18:12:00,
2013-05-27 13:13:00,68.8,63.8,29.06,SSE,158,0.0,0.0,84,0.00,,,1.44,220.00,VWS V14.01,2013-05-27 18:13:00,
2013-05-27 13:14:00,68.8,63.4,29.06,SSE,158,0.0,1.0,83,0.00,,,1.44,218.00,VWS V14.01,2013-05-27 18:14:00,
2013-05-27 13:15:00,68.8,63.4,29.06,SSE,158,0.0,2.0,83,0.00,,,1.44,229.00,VWS V14.01,2013-05-27 18:15:00,
2013-05-27 13:16:00,68.8,63.4,29.06,SSE,158,0.0,1.0,83,0.00,,,1.44,237.00,VWS V14.01,2013-05-27 18:16:00,
2013-05-27 13:17:00,68.7,63.3,29.06,SE,135,0.0,1.0,83,0.00,,,1.44,255.00,VWS V14.01,2013-05-27 18:17:00,
2013-05-27 13:18:00,68.7,63.3,29.06,SE,135,0.0,0.0,83,0.00,,,1.44,301.00,VWS V14.01,2013-05-27 18:18:00,
2013-05-27 13:19:00,68.7,63.3,29.06,SE,135,0.0,1.0,83,0.00,,,1.44,396.00,VWS V14.01,2013-05-27 18:19:00,
2013-05-27 13:20:00,68.7,63.3,29.06,SE,135,0.0,0.0,83,0.00,,,1.44,367.00,VWS V14.01,2013-05-27 18:20:00,
2013-05-27 13:21:00,68.8,63.4,29.06,SE,135,0.0,1.0,83,0.00,,,1.44,415.00,VWS V14.01,2013-05-27 18:21:00,
2013-05-27 13:22:00,68.8,63.4,29.06,SE,135,0.0,2.0,83,0.00,,,1.44,429.00,VWS V14.01,2013-05-27 18:22:00,
2013-05-27 13:23:00,68.8,63.4,29.06,SE,135,0.0,0.0,83,0.00,,,1.44,439.00,VWS V14.01,2013-05-27 18:23:00,
2013-05-27 13:24:00,68.8,63.4,29.06,SE,135,0.0,0.0,83,0.00,,,1.44,429.00,VWS V14.01,2013-05-27 18:24:00,
2013-05-27 13:25:00,68.9,63.9,29.06,SE,135,0.0,0.0,84,0.00,,,1.44,322.00,VWS V14.01,2013-05-27 18:25:00,
2013-05-27 13:26:00,69.0,63.6,29.06,SE,135,0.0,1.0,83,0.00,,,1.44,279.00,VWS V14.01,2013-05-27 18:26:00,
2013-05-27 13:27:00,69.0,63.6,29.06,SE,135,0.0,1.0,83,0.00,,,1.44,285.00,VWS V14.01,2013-05-27 18:27:00,
2013-05-27 13:28:00,69.0,63.6,29.06,SE,135,0.0,1.0,83,0.00,,,1.44,292.00,VWS V14.01,2013-05-27 18:28:00,
2013-05-27 13:29:00,69.0,63.6,29.06,SE,135,0.0,0.0,83,0.00,,,1.44,308.00,VWS V14.01,2013-05-27 18:29:00,
2013-05-27 13:30:00,69.0,63.6,29.06,SE,135,0.0,1.0,83,0.00,,,1.44,306.00,VWS V14.01,2013-05-27 18:30:00,
2013-05-27 13:31:00,69.0,63.6,29.06,SE,135,0.0,0.0,83,0.00,,,1.44,320.00,VWS V14.01,2013-05-27 18:31:00,
2013-05-27 13:32:00,69.0,63.6,29.06,SE,135,0.0,0.0,83,0.00,,,1.44,373.00,VWS V14.01,2013-05-27 18:32:00,
2013-05-27 13:33:00,69.0,63.6,29.06,SE,135,0.0,0.0,83,0.00,,,1.44,373.00,VWS V14.01,2013-05-27 18:33:00,
2013-05-27 13:34:00,69.1,63.7,29.06,SE,135,0.0,0.0,83,0.00,,,1.44,399.00,VWS V14.01,2013-05-27 18:34:00,
2013-05-27 13:35:00,69.1,63.7,29.06,SE,135,0.0,1.0,83,0.00,,,1.44,408.00,VWS V14.01,2013-05-27 18:35:00,
2013-05-27 13:36:00,69.1,63.7,29.06,SE,135,0.0,1.0,83,0.00,,,1.44,417.00,VWS V14.01,2013-05-27 18:36:00,
2013-05-27 13:37:00,69.2,63.8,29.06,SE,135,0.0,0.0,83,0.00,,,1.44,440.00,VWS V14.01,2013-05-27 18:37:00,
2013-05-27 13:38:00,69.3,63.9,29.06,SE,135,0.0,1.0,83,0.00,,,1.44,434.00,VWS V14.01,2013-05-27 18:38:00,
2013-05-27 13:39:00,69.3,63.9,29.05,SE,135,0.0,1.0,83,0.00,,,1.44,454.00,VWS V14.01,2013-05-27 18:39:00,
2013-05-27 13:40:00,69.3,63.9,29.05,SE,135,0.0,1.0,83,0.00,,,1.44,420.00,VWS V14.01,2013-05-27 18:40:00,
2013-05-27 13:41:00,69.4,64.0,29.05,SE,135,0.0,0.0,83,0.00,,,1.44,359.00,VWS V14.01,2013-05-27 18:41:00,
2013-05-27 13:42:00,69.5,64.1,29.05,SE,135,0.0,0.0,83,0.00,,,1.44,371.00,VWS V14.01,2013-05-27 18:42:00,
2013-05-27 13:43:00,69.5,64.1,29.05,SE,135,0.0,0.0,83,0.00,,,1.44,371.00,VWS V14.01,2013-05-27 18:43:00,
2013-05-27 13:44:00,69.6,64.2,29.05,SE,135,0.0,1.0,83,0.00,,,1.44,422.00,VWS V14.01,2013-05-27 18:44:00,
2013-05-27 13:45:00,69.6,64.2,29.05,SE,135,0.0,0.0,83,0.00,,,1.44,417.00,VWS V14.01,2013-05-27 18:45:00,
2013-05-27 13:46:00,69.5,63.8,29.05,SE,135,0.0,0.0,82,0.00,,,1.44,483.00,VWS V14.01,2013-05-27 18:46:00,
2013-05-27 13:47:00,69.5,63.4,29.05,SE,135,0.0,0.0,81,0.00,,,1.44,445.00,VWS V14.01,2013-05-27 18:47:00,
2013-05-27 13:48:00,69.6,63.9,29.05,SE,135,0.0,0.0,82,0.00,,,1.44,483.00,VWS V14.01,2013-05-27 18:48:00,
2013-05-27 13:49:00,69.7,64.0,29.05,SE,135,0.0,0.0,82,0.00,,,1.44,564.00,VWS V14.01,2013-05-27 18:49:00,
2013-05-27 13:50:00,69.7,64.0,29.05,SE,135,0.0,0.0,82,0.00,,,1.44,564.00,VWS V14.01,2013-05-27 18:50:00,
2013-05-27 13:51:00,69.8,64.1,29.05,SE,135,0.0,1.0,82,0.00,,,1.44,626.00,VWS V14.01,2013-05-27 18:51:00,
2013-05-27 13:52:00,69.9,64.2,29.05,SE,135,0.0,0.0,82,0.00,,,1.44,605.00,VWS V14.01,2013-05-27 18:52:00,
2013-05-27 13:53:00,69.9,64.2,29.05,SE,135,0.0,1.0,82,0.00,,,1.44,605.00,VWS V14.01,2013-05-27 18:53:00,
2013-05-27 13:54:00,69.9,63.8,29.05,SE,135,0.0,0.0,81,0.00,,,1.44,492.00,VWS V14.01,2013-05-27 18:54:00,
2013-05-27 13:55:00,70.0,63.9,29.05,SE,135,0.0,1.0,81,0.00,,,1.44,497.00,VWS V14.01,2013-05-27 18:55:00,
2013-05-27 13:56:00,70.0,63.9,29.05,SE,135,0.0,0.0,81,0.00,,,1.44,466.00,VWS V14.01,2013-05-27 18:56:00,
2013-05-27 13:57:00,70.1,64.0,29.05,SE,135,0.0,0.0,81,0.00,,,1.44,399.00,VWS V14.01,2013-05-27 18:57:00,
2013-05-27 13:58:00,70.1,64.0,29.05,SE,135,0.0,1.0,81,0.00,,,1.44,359.00,VWS V14.01,2013-05-27 18:58:00,
2013-05-27 13:59:00,70.2,64.1,29.05,SE,135,0.0,0.0,81,0.00,,,1.44,359.00,VWS V14.01,2013-05-27 18:59:00,
2013-05-27 14:00:00,70.3,64.2,29.05,SE,135,0.0,1.0,81,0.00,,,1.44,325.00,VWS V14.01,2013-05-27 19:00:00,
2013-05-27 14:01:00,70.4,64.3,29.05,SE,135,0.0,1.0,81,0.00,,,1.44,299.00,VWS V14.01,2013-05-27 19:01:00,
2013-05-27 14:02:00,70.4,64.3,29.04,SE,135,0.0,1.0,81,0.00,,,1.44,299.00,VWS V14.01,2013-05-27 19:02:00,
2013-05-27 14:03:00,70.4,64.3,29.04,SE,135,0.0,1.0,81,0.00,,,1.44,304.00,VWS V14.01,2013-05-27 19:03:00,
2013-05-27 14:04:00,70.4,63.9,29.04,SE,135,0.0,1.0,80,0.00,,,1.44,322.00,VWS V14.01,2013-05-27 19:04:00,
2013-05-27 14:05:00,70.4,63.9,29.04,SE,135,0.0,0.0,80,0.00,,,1.44,360.00,VWS V14.01,2013-05-27 19:05:00,
2013-05-27 14:06:00,70.5,64.4,29.04,SE,135,0.0,1.0,81,0.00,,,1.44,383.00,VWS V14.01,2013-05-27 19:06:00,
2013-05-27 14:07:00,70.5,64.4,29.04,SSE,158,0.0,2.0,81,0.00,,,1.44,388.00,VWS V14.01,2013-05-27 19:07:00,
2013-05-27 14:08:00,70.6,64.1,29.04,SSE,158,0.0,2.0,80,0.00,,,1.44,399.00,VWS V14.01,2013-05-27 19:08:00,
2013-05-27 14:09:00,70.6,64.1,29.03,SSE,158,0.0,1.0,80,0.00,,,1.44,434.00,VWS V14.01,2013-05-27 19:09:00,
2013-05-27 14:10:00,70.7,64.2,29.04,SSE,158,0.0,0.0,80,0.00,,,1.44,417.00,VWS V14.01,2013-05-27 19:10:00,
2013-05-27 14:11:00,70.8,64.3,29.03,SSE,158,0.0,0.0,80,0.00,,,1.44,469.00,VWS V14.01,2013-05-27 19:11:00,
2013-05-27 14:12:00,70.9,64.8,29.03,SSE,158,0.0,1.0,81,0.00,,,1.44,508.00,VWS V14.01,2013-05-27 19:12:00,
2013-05-27 14:13:00,71.0,64.5,29.03,SSE,158,0.0,1.0,80,0.00,,,1.44,519.00,VWS V14.01,2013-05-27 19:13:00,
2013-05-27 14:14:00,71.0,64.5,29.03,SE,135,1.0,4.0,80,0.00,,,1.44,534.00,VWS V14.01,2013-05-27 19:14:00,
2013-05-27 14:15:00,71.1,64.3,29.03,ESE,112,0.0,2.0,79,0.00,,,1.44,555.00,VWS V14.01,2013-05-27 19:15:00,
2013-05-27 14:16:00,71.2,64.4,29.03,ESE,112,0.0,0.0,79,0.00,,,1.44,564.00,VWS V14.01,2013-05-27 19:16:00,
2013-05-27 14:17:00,71.3,64.5,29.03,ESE,112,0.0,1.0,79,0.00,,,1.44,555.00,VWS V14.01,2013-05-27 19:17:00,
2013-05-27 14:18:00,71.3,64.1,29.03,ESE,112,0.0,1.0,78,0.00,,,1.44,570.00,VWS V14.01,2013-05-27 19:18:00,
2013-05-27 14:19:00,71.3,64.1,29.03,ESE,112,0.0,1.0,78,0.00,,,1.44,564.00,VWS V14.01,2013-05-27 19:19:00,
2013-05-27 14:20:00,71.4,64.2,29.03,ESE,112,0.0,2.0,78,0.00,,,1.44,568.00,VWS V14.01,2013-05-27 19:20:00,
2013-05-27 14:21:00,71.5,64.3,29.03,ESE,112,0.0,1.0,78,0.00,,,1.44,568.00,VWS V14.01,2013-05-27 19:21:00,
2013-05-27 14:22:00,71.5,64.3,29.03,ESE,112,0.0,1.0,78,0.00,,,1.44,346.00,VWS V14.01,2013-05-27 19:22:00,
2013-05-27 14:23:00,71.6,64.8,29.03,SE,135,1.0,4.0,79,0.00,,,1.44,316.00,VWS V14.01,2013-05-27 19:23:00,
2013-05-27 14:24:00,71.6,64.4,29.03,SE,135,0.0,1.0,78,0.00,,,1.44,279.00,VWS V14.01,2013-05-27 19:24:00,
2013-05-27 14:25:00,71.7,64.5,29.03,SSE,158,0.0,1.0,78,0.00,,,1.44,197.00,VWS V14.01,2013-05-27 19:25:00,
2013-05-27 14:26:00,71.7,64.5,29.03,SSE,158,0.0,0.0,78,0.00,,,1.44,251.00,VWS V14.01,2013-05-27 19:26:00,
2013-05-27 14:27:00,71.7,64.5,29.03,SSE,158,0.0,1.0,78,0.00,,,1.44,243.00,VWS V14.01,2013-05-27 19:27:00,
2013-05-27 14:28:00,71.7,64.5,29.03,SE,135,0.0,2.0,78,0.00,,,1.44,236.00,VWS V14.01,2013-05-27 19:28:00,
2013-05-27 14:29:00,71.8,64.6,29.03,SE,135,0.0,1.0,78,0.00,,,1.44,245.00,VWS V14.01,2013-05-27 19:29:00,
2013-05-27 14:30:00,71.8,64.6,29.03,SE,135,1.0,4.0,78,0.00,,,1.44,251.00,VWS V14.01,2013-05-27 19:30:00,
2013-05-27 14:31:00,71.8,64.6,29.03,SE,135,0.0,1.0,78,0.00,,,1.44,250.00,VWS V14.01,2013-05-27 19:31:00,
2013-05-27 14:32:00,71.8,64.6,29.03,SE,135,0.0,0.0,78,0.00,,,1.44,243.00,VWS V14.01,2013-05-27 19:32:00,
2013-05-27 14:33:00,71.8,64.6,29.03,SE,135,0.0,1.0,78,0.00,,,1.44,234.00,VWS V14.01,2013-05-27 19:33:00,
2013-05-27 14:34:00,71.7,64.5,29.03,SE,135,0.0,2.0,78,0.00,,,1.44,220.00,VWS V14.01,2013-05-27 19:34:00,
2013-05-27 14:35:00,71.7,64.5,29.03,ESE,112,1.0,2.0,78,0.00,,,1.44,188.00,VWS V14.01,2013-05-27 19:35:00,
2013-05-27 14:36:00,71.7,64.5,29.03,ESE,112,0.0,1.0,78,0.00,,,1.44,160.00,VWS V14.01,2013-05-27 19:36:00,
2013-05-27 14:37:00,71.6,64.8,29.03,ESE,112,0.0,1.0,79,0.00,,,1.44,153.00,VWS V14.01,2013-05-27 19:37:00,
2013-05-27 14:38:00,71.6,64.8,29.03,ESE,112,0.0,0.0,79,0.00,,,1.44,148.00,VWS V14.01,2013-05-27 19:38:00,
2013-05-27 14:39:00,71.6,64.8,29.03,ESE,112,1.0,4.0,79,0.00,,,1.44,141.00,VWS V14.01,2013-05-27 19:39:00,
2013-05-27 14:40:00,71.6,64.8,29.03,ESE,112,0.0,0.0,79,0.00,,,1.44,132.00,VWS V14.01,2013-05-27 19:40:00,
2013-05-27 14:41:00,71.5,64.7,29.03,ESE,112,0.0,0.0,79,0.00,,,1.44,127.00,VWS V14.01,2013-05-27 19:41:00,
2013-05-27 14:42:00,71.6,64.8,29.03,ESE,112,0.0,1.0,79,0.00,,,1.44,134.00,VWS V14.01,2013-05-27 19:42:00,
2013-05-27 14:43:00,71.5,64.7,29.03,East,90,0.0,1.0,79,0.00,,,1.44,146.00,VWS V14.01,2013-05-27 19:43:00,
2013-05-27 14:44:00,71.5,64.7,29.03,SE,135,1.0,4.0,79,0.00,,,1.44,153.00,VWS V14.01,2013-05-27 19:44:00,
2013-05-27 14:45:00,71.5,64.7,29.03,ESE,112,1.0,4.0,79,0.00,,,1.44,151.00,VWS V14.01,2013-05-27 19:45:00,
2013-05-27 14:46:00,71.4,64.6,29.03,ESE,112,0.0,0.0,79,0.00,,,1.44,142.00,VWS V14.01,2013-05-27 19:46:00,
2013-05-27 14:47:00,71.3,64.5,29.03,ESE,112,0.0,0.0,79,0.00,,,1.44,129.00,VWS V14.01,2013-05-27 19:47:00,
2013-05-27 14:48:00,71.3,64.8,29.02,SE,135,0.0,1.0,80,0.00,,,1.44,113.00,VWS V14.01,2013-05-27 19:48:00,
2013-05-27 14:49:00,71.3,64.8,29.03,SE,135,0.0,0.0,80,0.00,,,1.44,109.00,VWS V14.01,2013-05-27 19:49:00,
2013-05-27 14:50:00,71.2,64.7,29.03,SE,135,0.0,1.0,80,0.00,,,1.44,104.00,VWS V14.01,2013-05-27 19:50:00,
2013-05-27 14:51:00,71.1,64.6,29.03,SE,135,0.0,1.0,80,0.00,,,1.44,91.00,VWS V14.01,2013-05-27 19:51:00,
2013-05-27 14:52:00,71.0,64.5,29.03,SE,135,0.0,1.0,80,0.00,,,1.44,74.00,VWS V14.01,2013-05-27 19:52:00,
2013-05-27 14:53:00,70.9,64.4,29.03,SE,135,0.0,0.0,80,0.00,,,1.44,47.00,VWS V14.01,2013-05-27 19:53:00,
2013-05-27 14:54:00,70.8,64.3,29.04,SE,135,0.0,0.0,80,0.00,,,1.44,26.00,VWS V14.01,2013-05-27 19:54:00,
2013-05-27 14:55:00,70.7,64.2,29.04,SE,135,0.0,1.0,80,0.00,,,1.44,18.00,VWS V14.01,2013-05-27 19:55:00,
2013-05-27 14:56:00,70.6,64.1,29.04,SE,135,0.0,0.0,80,0.00,,,1.44,12.00,VWS V14.01,2013-05-27 19:56:00,
2013-05-27 14:57:00,70.5,64.0,29.04,SE,135,0.0,0.0,80,0.00,,,1.44,11.00,VWS V14.01,2013-05-27 19:57:00,
2013-05-27 14:58:00,70.4,64.3,29.04,SE,135,0.0,0.0,81,0.00,,,1.44,9.00,VWS V14.01,2013-05-27 19:58:00,
2013-05-27 14:59:00,70.3,64.2,29.05,ENE,68,0.0,1.0,81,0.00,,,1.44,14.00,VWS V14.01,2013-05-27 19:59:00,
2013-05-27 15:00:00,70.2,64.1,29.05,SSW,202,0.0,1.0,81,0.00,,,1.44,16.00,VWS V14.01,2013-05-27 20:00:00,
2013-05-27 15:01:00,70.1,64.0,29.04,SSW,202,0.0,0.0,81,0.00,,,1.44,14.00,VWS V14.01,2013-05-27 20:01:00,
2013-05-27 15:02:00,70.0,64.3,29.04,SSW,202,0.0,1.0,82,0.00,,,1.44,19.00,VWS V14.01,2013-05-27 20:02:00,
2013-05-27 15:03:00,70.0,64.3,29.04,SSW,202,0.0,0.0,82,0.01,,,1.45,26.00,VWS V14.01,2013-05-27 20:03:00,
2013-05-27 15:04:00,69.9,64.2,29.04,SSW,202,0.0,1.0,82,0.02,,,1.46,33.00,VWS V14.01,2013-05-27 20:04:00,
2013-05-27 15:05:00,69.8,64.4,29.04,SSW,202,0.0,1.0,83,0.02,,,1.46,40.00,VWS V14.01,2013-05-27 20:05:00,
2013-05-27 15:06:00,69.7,64.3,29.04,SSW,202,0.0,1.0,83,0.03,,,1.47,44.00,VWS V14.01,2013-05-27 20:06:00,
2013-05-27 15:07:00,69.6,64.2,29.04,SSW,202,0.0,1.0,83,0.04,,,1.48,53.00,VWS V14.01,2013-05-27 20:07:00,
2013-05-27 15:08:00,69.5,64.1,29.04,SSW,202,0.0,1.0,83,0.04,,,1.48,58.00,VWS V14.01,2013-05-27 20:08:00,
2013-05-27 15:09:00,69.4,64.0,29.04,West,270,1.0,3.0,83,0.04,,,1.48,60.00,VWS V14.01,2013-05-27 20:09:00,
2013-05-27 15:10:00,69.3,64.3,29.04,West,270,0.0,0.0,84,0.04,,,1.48,56.00,VWS V14.01,2013-05-27 20:10:00,
2013-05-27 15:11:00,69.2,64.2,29.04,West,270,0.0,1.0,84,0.05,,,1.49,51.00,VWS V14.01,2013-05-27 20:11:00,
2013-05-27 15:12:00,69.1,64.1,29.04,West,270,0.0,0.0,84,0.05,,,1.49,49.00,VWS V14.01,2013-05-27 20:12:00,
2013-05-27 15:13:00,69.0,64.3,29.04,West,270,0.0,0.0,85,0.05,,,1.49,47.00,VWS V14.01,2013-05-27 20:13:00,
2013-05-27 15:14:00,68.9,64.2,29.04,West,270,0.0,1.0,85,0.06,,,1.50,47.00,VWS V14.01,2013-05-27 20:14:00,
2013-05-27 15:15:00,68.8,64.1,29.04,West,270,0.0,0.0,85,0.06,,,1.50,47.00,VWS V14.01,2013-05-27 20:15:00,
2013-05-27 15:16:00,68.6,63.9,29.04,West,270,0.0,1.0,85,0.06,,,1.50,46.00,VWS V14.01,2013-05-27 20:16:00,
2013-05-27 15:17:00,68.6,63.9,29.04,West,270,0.0,1.0,85,0.06,,,1.50,39.00,VWS V14.01,2013-05-27 20:17:00,
2013-05-27 15:18:00,68.5,64.2,29.04,SW,225,0.0,1.0,86,0.06,,,1.50,35.00,VWS V14.01,2013-05-27 20:18:00,
2013-05-27 15:19:00,68.4,64.1,29.04,East,90,0.0,1.0,86,0.06,,,1.50,33.00,VWS V14.01,2013-05-27 20:19:00,
2013-05-27 15:20:00,68.3,64.0,29.04,East,90,0.0,0.0,86,0.06,,,1.50,32.00,VWS V14.01,2013-05-27 20:20:00,
2013-05-27 15:21:00,68.2,63.9,29.04,East,90,0.0,1.0,86,0.06,,,1.50,32.00,VWS V14.01,2013-05-27 20:21:00,
2013-05-27 15:22:00,68.1,64.1,29.04,South,180,0.0,1.0,87,0.06,,,1.50,31.00,VWS V14.01,2013-05-27 20:22:00,
2013-05-27 15:23:00,68.0,64.0,29.04,South,180,0.0,0.0,87,0.06,,,1.50,28.00,VWS V14.01,2013-05-27 20:23:00,
2013-05-27 15:24:00,68.0,64.0,29.04,South,180,0.0,0.0,87,0.06,,,1.50,30.00,VWS V14.01,2013-05-27 20:24:00,
2013-05-27 15:25:00,67.9,63.9,29.04,South,180,0.0,1.0,87,0.06,,,1.50,30.00,VWS V14.01,2013-05-27 20:25:00,
2013-05-27 15:26:00,67.8,63.8,29.04,South,180,0.0,0.0,87,0.06,,,1.50,30.00,VWS V14.01,2013-05-27 20:26:00,
2013-05-27 15:27:00,67.8,63.8,29.03,South,180,0.0,0.0,87,0.06,,,1.50,30.00,VWS V14.01,2013-05-27 20:27:00,
2013-05-27 15:28:00,67.7,63.7,29.03,South,180,0.0,1.0,87,0.06,,,1.50,30.00,VWS V14.01,2013-05-27 20:28:00,
2013-05-27 15:29:00,67.7,63.7,29.03,South,180,0.0,1.0,87,0.07,,,1.51,30.00,VWS V14.01,2013-05-27 20:29:00,
2013-05-27 15:30:00,67.7,63.7,29.03,South,180,0.0,0.0,87,0.08,,,1.52,32.00,VWS V14.01,2013-05-27 20:30:00,
2013-05-27 15:31:00,67.6,63.9,29.02,South,180,0.0,0.0,88,0.08,,,1.52,32.00,VWS V14.01,2013-05-27 20:31:00,
2013-05-27 15:32:00,67.6,63.9,29.02,South,180,0.0,0.0,88,0.08,,,1.52,32.00,VWS V14.01,2013-05-27 20:32:00,
2013-05-27 15:33:00,67.6,63.9,29.02,South,180,0.0,0.0,88,0.08,,,1.52,30.00,VWS V14.01,2013-05-27 20:33:00,
2013-05-27 15:34:00,67.5,63.8,29.02,South,180,0.0,0.0,88,0.08,,,1.52,25.00,VWS V14.01,2013-05-27 20:34:00,
2013-05-27 15:35:00,67.5,63.8,29.02,South,180,0.0,0.0,88,0.08,,,1.52,21.00,VWS V14.01,2013-05-27 20:35:00,
2013-05-27 15:36:00,67.4,63.7,29.02,South,180,0.0,0.0,88,0.08,,,1.52,19.00,VWS V14.01,2013-05-27 20:36:00,
2013-05-27 15:37:00,67.4,63.7,29.02,South,180,0.0,0.0,88,0.08,,,1.52,19.00,VWS V14.01,2013-05-27 20:37:00,
2013-05-27 15:38:00,67.4,63.7,29.02,South,180,0.0,0.0,88,0.08,,,1.52,19.00,VWS V14.01,2013-05-27 20:38:00,
2013-05-27 15:39:00,67.4,63.7,29.02,South,180,0.0,0.0,88,0.08,,,1.52,19.00,VWS V14.01,2013-05-27 20:39:00,
2013-05-27 15:40:00,67.3,63.6,29.02,South,180,0.0,0.0,88,0.09,,,1.53,19.00,VWS V14.01,2013-05-27 20:40:00,
2013-05-27 15:41:00,67.3,63.6,29.02,South,180,0.0,0.0,88,0.09,,,1.53,19.00,VWS V14.01,2013-05-27 20:41:00,
2013-05-27 15:42:00,67.3,63.6,29.02,South,180,0.0,0.0,88,0.09,,,1.53,21.00,VWS V14.01,2013-05-27 20:42:00,
2013-05-27 15:43:00,67.3,63.6,29.01,South,180,0.0,0.0,88,0.09,,,1.53,21.00,VWS V14.01,2013-05-27 20:43:00,
2013-05-27 15:44:00,67.2,63.5,29.01,South,180,0.0,0.0,88,0.10,,,1.54,21.00,VWS V14.01,2013-05-27 20:44:00,
2013-05-27 15:45:00,67.2,63.5,29.01,South,180,0.0,0.0,88,0.10,,,1.54,19.00,VWS V14.01,2013-05-27 20:45:00,
2013-05-27 15:46:00,67.2,63.5,29.01,South,180,0.0,0.0,88,0.10,,,1.54,19.00,VWS V14.01,2013-05-27 20:46:00,
2013-05-27 15:47:00,67.2,63.5,29.01,South,180,0.0,0.0,88,0.10,,,1.54,19.00,VWS V14.01,2013-05-27 20:47:00,
2013-05-27 15:48:00,67.2,63.5,29.01,South,180,0.0,0.0,88,0.10,,,1.54,19.00,VWS V14.01,2013-05-27 20:48:00,
2013-05-27 15:49:00,67.2,63.8,29.01,South,180,0.0,0.0,89,0.10,,,1.54,19.00,VWS V14.01,2013-05-27 20:49:00,
2013-05-27 15:50:00,67.1,63.8,29.01,South,180,0.0,0.0,89,0.10,,,1.54,19.00,VWS V14.01,2013-05-27 20:50:00,
2013-05-27 15:51:00,67.1,63.8,29.01,South,180,0.0,0.0,89,0.10,,,1.54,19.00,VWS V14.01,2013-05-27 20:51:00,
2013-05-27 15:52:00,67.1,63.8,29.01,South,180,0.0,0.0,89,0.10,,,1.54,16.00,VWS V14.01,2013-05-27 20:52:00,
2013-05-27 15:53:00,67.1,63.8,29.01,South,180,0.0,0.0,89,0.10,,,1.54,14.00,VWS V14.01,2013-05-27 20:53:00,
2013-05-27 15:54:00,67.1,63.8,29.01,South,180,0.0,0.0,89,0.10,,,1.54,14.00,VWS V14.01,2013-05-27 20:54:00,
2013-05-27 15:55:00,67.1,63.8,29.01,South,180,0.0,0.0,89,0.11,,,1.55,14.00,VWS V14.01,2013-05-27 20:55:00,
2013-05-27 15:56:00,67.0,63.7,29.00,South,180,0.0,0.0,89,0.11,,,1.55,14.00,VWS V14.01,2013-05-27 20:56:00,
2013-05-27 15:57:00,67.0,63.7,29.00,ESE,112,0.0,1.0,89,0.11,,,1.55,14.00,VWS V14.01,2013-05-27 20:57:00,
2013-05-27 15:58:00,67.0,63.7,29.00,ESE,112,0.0,0.0,89,0.11,,,1.55,12.00,VWS V14.01,2013-05-27 20:58:00,
2013-05-27 15:59:00,67.0,63.7,29.00,ESE,112,0.0,0.0,89,0.11,,,1.55,12.00,VWS V14.01,2013-05-27 20:59:00,
2013-05-27 16:00:00,67.0,63.7,28.99,ESE,112,0.0,1.0,89,0.11,,,1.55,12.00,VWS V14.01,2013-05-27 21:00:00,
2013-05-27 16:01:00,67.0,63.7,28.99,ESE,112,0.0,0.0,89,0.12,,,1.56,11.00,VWS V14.01,2013-05-27 21:01:00,
2013-05-27 16:02:00,66.9,63.6,28.99,ESE,112,0.0,0.0,89,0.12,,,1.56,11.00,VWS V14.01,2013-05-27 21:02:00,
2013-05-27 16:03:00,66.9,63.6,28.99,ESE,112,0.0,1.0,89,0.12,,,1.56,10.00,VWS V14.01,2013-05-27 21:03:00,
2013-05-27 16:04:00,66.8,63.5,28.99,ESE,112,0.0,0.0,89,0.11,,,1.56,9.00,VWS V14.01,2013-05-27 21:04:00,
2013-05-27 16:05:00,66.8,63.5,28.99,ESE,112,0.0,0.0,89,0.10,,,1.56,9.00,VWS V14.01,2013-05-27 21:05:00,
2013-05-27 16:06:00,66.7,63.4,28.99,ESE,112,0.0,0.0,89,0.10,,,1.56,9.00,VWS V14.01,2013-05-27 21:06:00,
2013-05-27 16:07:00,66.6,63.3,28.99,ESE,112,0.0,1.0,89,0.09,,,1.56,9.00,VWS V14.01,2013-05-27 21:07:00,
2013-05-27 16:08:00,66.6,63.3,28.99,ESE,112,0.0,1.0,89,0.08,,,1.56,7.00,VWS V14.01,2013-05-27 21:08:00,
2013-05-27 16:09:00,66.5,63.2,28.99,SSE,158,0.0,2.0,89,0.09,,,1.57,7.00,VWS V14.01,2013-05-27 21:09:00,
2013-05-27 16:10:00,66.5,63.2,28.99,SSE,158,0.0,2.0,89,0.09,,,1.57,7.00,VWS V14.01,2013-05-27 21:10:00,
2013-05-27 16:11:00,66.5,63.2,28.99,SSE,158,0.0,1.0,89,0.09,,,1.57,7.00,VWS V14.01,2013-05-27 21:11:00,
2013-05-27 16:12:00,66.4,63.1,28.99,SSE,158,0.0,1.0,89,0.09,,,1.58,7.00,VWS V14.01,2013-05-27 21:12:00,
2013-05-27 16:13:00,66.4,63.1,28.99,ESE,112,0.0,1.0,89,0.09,,,1.58,7.00,VWS V14.01,2013-05-27 21:13:00,
2013-05-27 16:14:00,66.3,63.0,28.98,ESE,112,0.0,1.0,89,0.09,,,1.58,7.00,VWS V14.01,2013-05-27 21:14:00,
2013-05-27 16:15:00,66.2,62.9,28.98,ESE,112,0.0,2.0,89,0.08,,,1.58,7.00,VWS V14.01,2013-05-27 21:15:00,
2013-05-27 16:16:00,66.2,62.9,28.98,ESE,112,0.0,1.0,89,0.09,,,1.59,7.00,VWS V14.01,2013-05-27 21:16:00,
2013-05-27 16:17:00,66.1,62.8,28.98,ESE,112,0.0,1.0,89,0.09,,,1.59,7.00,VWS V14.01,2013-05-27 21:17:00,
2013-05-27 16:18:00,66.1,62.8,28.98,SSE,158,0.0,1.0,89,0.10,,,1.60,7.00,VWS V14.01,2013-05-27 21:18:00,
2013-05-27 16:19:00,66.0,62.7,28.97,ESE,112,0.0,2.0,89,0.10,,,1.60,5.00,VWS V14.01,2013-05-27 21:19:00,
2013-05-27 16:20:00,66.0,62.7,28.97,ESE,112,0.0,0.0,89,0.10,,,1.60,5.00,VWS V14.01,2013-05-27 21:20:00,
2013-05-27 16:21:00,65.9,62.6,28.97,ESE,112,0.0,0.0,89,0.10,,,1.60,5.00,VWS V14.01,2013-05-27 21:21:00,
2013-05-27 16:22:00,65.9,62.6,28.96,ESE,112,0.0,0.0,89,0.11,,,1.61,5.00,VWS V14.01,2013-05-27 21:22:00,
2013-05-27 16:23:00,65.9,62.6,28.96,ESE,112,0.0,1.0,89,0.11,,,1.61,5.00,VWS V14.01,2013-05-27 21:23:00,
2013-05-27 16:24:00,65.8,62.5,28.96,SSE,158,1.0,4.0,89,0.12,,,1.62,5.00,VWS V14.01,2013-05-27 21:24:00,
2013-05-27 16:25:00,65.8,62.5,28.96,SSE,158,0.0,2.0,89,0.12,,,1.62,5.00,VWS V14.01,2013-05-27 21:25:00,
2013-05-27 16:26:00,65.8,62.5,28.95,East,90,0.0,2.0,89,0.12,,,1.62,5.00,VWS V14.01,2013-05-27 21:26:00,
2013-05-27 16:27:00,65.8,62.5,28.95,SE,135,0.0,2.0,89,0.13,,,1.63,5.00,VWS V14.01,2013-05-27 21:27:00,
2013-05-27 16:28:00,65.7,62.4,28.95,SE,135,1.0,4.0,89,0.13,,,1.63,5.00,VWS V14.01,2013-05-27 21:28:00,
2013-05-27 16:29:00,65.7,62.4,28.94,ESE,112,3.0,7.0,89,0.13,,,1.63,5.00,VWS V14.01,2013-05-27 21:29:00,
2013-05-27 16:30:00,65.6,62.3,28.94,SSE,158,0.0,1.0,89,0.13,,,1.64,5.00,VWS V14.01,2013-05-27 21:30:00,
2013-05-27 16:31:00,65.6,62.3,28.94,SE,135,2.0,5.0,89,0.12,,,1.64,5.00,VWS V14.01,2013-05-27 21:31:00,
2013-05-27 16:32:00,65.5,62.2,28.94,SE,135,1.0,4.0,89,0.12,,,1.64,5.00,VWS V14.01,2013-05-27 21:32:00,
2013-05-27 16:33:00,65.4,62.1,28.94,SSE,158,0.0,1.0,89,0.12,,,1.64,5.00,VWS V14.01,2013-05-27 21:33:00,
2013-05-27 16:34:00,65.4,62.1,28.94,SE,135,0.0,2.0,89,0.12,,,1.64,5.00,VWS V14.01,2013-05-27 21:34:00,
2013-05-27 16:35:00,65.3,62.0,28.95,ESE,112,1.0,2.0,89,0.12,,,1.64,5.00,VWS V14.01,2013-05-27 21:35:00,
2013-05-27 16:36:00,65.3,62.0,28.95,ESE,112,0.0,0.0,89,0.13,,,1.65,5.00,VWS V14.01,2013-05-27 21:36:00,
2013-05-27 16:37:00,65.2,61.9,28.95,ESE,112,0.0,1.0,89,0.13,,,1.65,5.00,VWS V14.01,2013-05-27 21:37:00,
2013-05-27 16:38:00,65.2,61.9,28.94,SSE,158,0.0,2.0,89,0.13,,,1.65,5.00,VWS V14.01,2013-05-27 21:38:00,
2013-05-27 16:39:00,65.2,61.9,28.94,SE,135,2.0,5.0,89,0.13,,,1.65,5.00,VWS V14.01,2013-05-27 21:39:00,
2013-05-27 16:40:00,65.2,61.9,28.94,SE,135,0.0,1.0,89,0.13,,,1.65,5.00,VWS V14.01,2013-05-27 21:40:00,
2013-05-27 16:41:00,65.1,61.8,28.94,SE,135,0.0,1.0,89,0.13,,,1.66,5.00,VWS V14.01,2013-05-27 21:41:00,
2013-05-27 16:42:00,65.1,62.1,28.95,SE,135,0.0,1.0,90,0.13,,,1.66,5.00,VWS V14.01,2013-05-27 21:42:00,
2013-05-27 16:43:00,65.1,62.1,28.95,ESE,112,1.0,4.0,90,0.13,,,1.66,5.00,VWS V14.01,2013-05-27 21:43:00,
2013-05-27 16:44:00,65.2,62.2,28.95,ESE,112,0.0,2.0,90,0.13,,,1.66,5.00,VWS V14.01,2013-05-27 21:44:00,
2013-05-27 16:45:00,65.2,62.2,28.95,NE,45,0.0,1.0,90,0.12,,,1.66,5.00,VWS V14.01,2013-05-27 21:45:00,
2013-05-27 16:46:00,65.2,62.2,28.95,ESE,112,1.0,2.0,90,0.12,,,1.66,5.00,VWS V14.01,2013-05-27 21:46:00,
2013-05-27 16:47:00,65.2,62.2,28.94,SE,135,2.0,6.0,90,0.12,,,1.66,5.00,VWS V14.01,2013-05-27 21:47:00,
2013-05-27 16:48:00,65.2,62.2,28.94,SE,135,0.0,1.0,90,0.12,,,1.66,5.00,VWS V14.01,2013-05-27 21:48:00,
2013-05-27 16:49:00,65.3,62.3,28.95,SE,135,0.0,2.0,90,0.13,,,1.67,5.00,VWS V14.01,2013-05-27 21:49:00,
2013-05-27 16:50:00,65.2,62.2,28.95,SE,135,0.0,0.0,90,0.13,,,1.67,5.00,VWS V14.01,2013-05-27 21:50:00,
2013-05-27 16:51:00,65.2,62.2,28.95,SE,135,0.0,1.0,90,0.13,,,1.67,7.00,VWS V14.01,2013-05-27 21:51:00,
2013-05-27 16:52:00,65.2,62.2,28.95,SE,135,0.0,1.0,90,0.13,,,1.67,7.00,VWS V14.01,2013-05-27 21:52:00,
2013-05-27 16:53:00,65.2,62.2,28.95,SE,135,0.0,1.0,90,0.13,,,1.67,7.00,VWS V14.01,2013-05-27 21:53:00,
2013-05-27 16:54:00,65.2,62.2,28.95,SE,135,1.0,2.0,90,0.13,,,1.67,7.00,VWS V14.01,2013-05-27 21:54:00,
2013-05-27 16:55:00,65.2,62.2,28.94,SE,135,2.0,5.0,90,0.14,,,1.68,7.00,VWS V14.01,2013-05-27 21:55:00,
2013-05-27 16:56:00,65.2,62.2,28.94,SE,135,2.0,5.0,90,0.13,,,1.68,7.00,VWS V14.01,2013-05-27 21:56:00,
2013-05-27 16:57:00,65.2,62.2,28.94,SE,135,0.0,1.0,90,0.13,,,1.68,9.00,VWS V14.01,2013-05-27 21:57:00,
2013-05-27 16:58:00,65.2,62.2,28.94,SE,135,0.0,1.0,90,0.13,,,1.68,9.00,VWS V14.01,2013-05-27 21:58:00,
2013-05-27 16:59:00,65.2,62.2,28.94,SE,135,0.0,0.0,90,0.13,,,1.68,9.00,VWS V14.01,2013-05-27 21:59:00,
2013-05-27 17:00:00,65.2,62.2,28.94,SE,135,0.0,1.0,90,0.13,,,1.68,11.00,VWS V14.01,2013-05-27 22:00:00,
2013-05-27 17:01:00,65.2,62.2,28.93,SE,135,0.0,1.0,90,0.13,,,1.68,11.00,VWS V14.01,2013-05-27 22:01:00,
2013-05-27 17:02:00,65.2,62.2,28.93,SE,135,1.0,4.0,90,0.12,,,1.68,12.00,VWS V14.01,2013-05-27 22:02:00,
2013-05-27 17:03:00,65.2,62.2,28.94,SE,135,0.0,1.0,90,0.12,,,1.68,14.00,VWS V14.01,2013-05-27 22:03:00,
2013-05-27 17:04:00,65.2,62.2,28.94,SE,135,0.0,1.0,90,0.12,,,1.68,16.00,VWS V14.01,2013-05-27 22:04:00,
2013-05-27 17:05:00,65.2,62.2,28.93,SE,135,0.0,2.0,90,0.12,,,1.68,16.00,VWS V14.01,2013-05-27 22:05:00,
2013-05-27 17:06:00,65.2,62.2,28.93,SE,135,0.0,1.0,90,0.12,,,1.68,18.00,VWS V14.01,2013-05-27 22:06:00,
2013-05-27 17:07:00,65.2,62.2,28.93,SE,135,0.0,1.0,90,0.12,,,1.68,20.00,VWS V14.01,2013-05-27 22:07:00,
2013-05-27 17:08:00,65.2,62.2,28.93,SE,135,0.0,1.0,90,0.12,,,1.68,23.00,VWS V14.01,2013-05-27 22:08:00,
2013-05-27 17:09:00,65.2,62.2,28.93,SE,135,0.0,1.0,90,0.12,,,1.68,23.00,VWS V14.01,2013-05-27 22:09:00,
2013-05-27 17:10:00,65.2,62.2,28.93,SE,135,1.0,5.0,90,0.11,,,1.68,25.00,VWS V14.01,2013-05-27 22:10:00,
2013-05-27 17:11:00,65.2,62.2,28.93,SE,135,1.0,3.0,90,0.11,,,1.68,26.00,VWS V14.01,2013-05-27 22:11:00,
2013-05-27 17:12:00,65.2,62.2,28.93,SSE,158,1.0,2.0,90,0.11,,,1.68,28.00,VWS V14.01,2013-05-27 22:12:00,
2013-05-27 17:13:00,65.2,62.2,28.93,East,90,0.0,2.0,90,0.10,,,1.68,31.00,VWS V14.01,2013-05-27 22:13:00,
2013-05-27 17:14:00,65.2,62.2,28.93,SSW,202,0.0,1.0,90,0.10,,,1.68,33.00,VWS V14.01,2013-05-27 22:14:00,
2013-05-27 17:15:00,65.1,62.1,28.92,SE,135,1.0,6.0,90,0.10,,,1.68,35.00,VWS V14.01,2013-05-27 22:15:00,
2013-05-27 17:16:00,65.1,62.1,28.92,SE,135,2.0,5.0,90,0.10,,,1.68,39.00,VWS V14.01,2013-05-27 22:16:00,
2013-05-27 17:17:00,65.1,62.1,28.92,SE,135,1.0,4.0,90,0.09,,,1.68,40.00,VWS V14.01,2013-05-27 22:17:00,
2013-05-27 17:18:00,65.1,62.1,28.92,SE,135,0.0,1.0,90,0.09,,,1.68,42.00,VWS V14.01,2013-05-27 22:18:00,
2013-05-27 17:19:00,65.0,62.0,28.92,South,180,1.0,5.0,90,0.08,,,1.68,46.00,VWS V14.01,2013-05-27 22:19:00,
2013-05-27 17:20:00,65.0,62.0,28.92,ESE,112,0.0,4.0,90,0.08,,,1.68,49.00,VWS V14.01,2013-05-27 22:20:00,
2013-05-27 17:21:00,65.0,62.0,28.92,ESE,112,1.0,7.0,90,0.08,,,1.68,51.00,VWS V14.01,2013-05-27 22:21:00,
2013-05-27 17:22:00,65.0,62.0,28.92,SSE,158,0.0,4.0,90,0.08,,,1.68,54.00,VWS V14.01,2013-05-27 22:22:00,
2013-05-27 17:23:00,65.0,62.0,28.92,SSE,158,0.0,1.0,90,0.07,,,1.68,56.00,VWS V14.01,2013-05-27 22:23:00,
2013-05-27 17:24:00,64.9,61.9,28.92,East,90,1.0,4.0,90,0.07,,,1.68,60.00,VWS V14.01,2013-05-27 22:24:00,
2013-05-27 17:25:00,64.9,61.9,28.92,ESE,112,1.0,4.0,90,0.06,,,1.68,63.00,VWS V14.01,2013-05-27 22:25:00,
2013-05-27 17:26:00,64.9,61.9,28.92,ESE,112,0.0,1.0,90,0.06,,,1.68,65.00,VWS V14.01,2013-05-27 22:26:00,
2013-05-27 17:27:00,64.9,61.9,28.92,ESE,112,0.0,0.0,90,0.06,,,1.68,67.00,VWS V14.01,2013-05-27 22:27:00,
2013-05-27 17:28:00,64.9,61.9,28.92,ESE,112,0.0,1.0,90,0.05,,,1.68,69.00,VWS V14.01,2013-05-27 22:28:00,
2013-05-27 17:29:00,64.9,61.9,28.92,ESE,112,0.0,1.0,90,0.05,,,1.68,69.00,VWS V14.01,2013-05-27 22:29:00,
2013-05-27 17:30:00,64.9,61.9,28.92,ESE,112,0.0,1.0,90,0.05,,,1.68,70.00,VWS V14.01,2013-05-27 22:30:00,
2013-05-27 17:31:00,64.9,62.2,28.92,SE,135,1.0,6.0,91,0.04,,,1.68,73.00,VWS V14.01,2013-05-27 22:31:00,
2013-05-27 17:32:00,64.9,62.2,28.92,SE,135,0.0,1.0,91,0.04,,,1.68,76.00,VWS V14.01,2013-05-27 22:32:00,
2013-05-27 17:33:00,64.9,62.2,28.92,SE,135,0.0,1.0,91,0.04,,,1.68,77.00,VWS V14.01,2013-05-27 22:33:00,
2013-05-27 17:34:00,64.9,62.2,28.92,SE,135,0.0,1.0,91,0.04,,,1.68,81.00,VWS V14.01,2013-05-27 22:34:00,
2013-05-27 17:35:00,64.9,62.2,28.92,SE,135,1.0,4.0,91,0.04,,,1.68,84.00,VWS V14.01,2013-05-27 22:35:00,
2013-05-27 17:36:00,64.9,62.2,28.92,SE,135,0.0,2.0,91,0.04,,,1.68,86.00,VWS V14.01,2013-05-27 22:36:00,
2013-05-27 17:37:00,64.9,62.2,28.92,SE,135,0.0,2.0,91,0.03,,,1.68,90.00,VWS V14.01,2013-05-27 22:37:00,
2013-05-27 17:38:00,64.9,62.2,28.92,SE,135,0.0,0.0,91,0.03,,,1.68,93.00,VWS V14.01,2013-05-27 22:38:00,
2013-05-27 17:39:00,64.9,62.2,28.92,SE,135,0.0,0.0,91,0.03,,,1.68,97.00,VWS V14.01,2013-05-27 22:39:00,
2013-05-27 17:40:00,64.9,62.2,28.92,SE,135,0.0,1.0,91,0.03,,,1.68,98.00,VWS V14.01,2013-05-27 22:40:00,
2013-05-27 17:41:00,64.9,62.2,28.92,SE,135,1.0,2.0,91,0.03,,,1.68,102.00,VWS V14.01,2013-05-27 22:41:00,
2013-05-27 17:42:00,64.9,62.2,28.92,SE,135,1.0,4.0,91,0.02,,,1.68,104.00,VWS V14.01,2013-05-27 22:42:00,
2013-05-27 17:43:00,64.9,62.2,28.92,SE,135,0.0,1.0,91,0.02,,,1.68,106.00,VWS V14.01,2013-05-27 22:43:00,
2013-05-27 17:44:00,65.0,62.3,28.92,SE,135,0.0,1.0,91,0.02,,,1.68,109.00,VWS V14.01,2013-05-27 22:44:00,
2013-05-27 17:45:00,65.0,62.3,28.92,SE,135,0.0,0.0,91,0.02,,,1.68,111.00,VWS V14.01,2013-05-27 22:45:00,
2013-05-27 17:46:00,65.0,62.3,28.92,SE,135,0.0,0.0,91,0.02,,,1.68,114.00,VWS V14.01,2013-05-27 22:46:00,
2013-05-27 17:47:00,65.0,62.3,28.92,SE,135,0.0,0.0,91,0.02,,,1.68,116.00,VWS V14.01,2013-05-27 22:47:00,
2013-05-27 17:48:00,65.0,62.3,28.93,SE,135,0.0,1.0,91,0.02,,,1.68,123.00,VWS V14.01,2013-05-27 22:48:00,
2013-05-27 17:49:00,65.1,62.4,28.93,SE,135,0.0,1.0,91,0.02,,,1.68,128.00,VWS V14.01,2013-05-27 22:49:00,
2013-05-27 17:50:00,65.1,62.4,28.93,SE,135,0.0,2.0,91,0.01,,,1.68,134.00,VWS V14.01,2013-05-27 22:50:00,
2013-05-27 17:51:00,65.2,62.5,28.93,SE,135,0.0,1.0,91,0.01,,,1.68,139.00,VWS V14.01,2013-05-27 22:51:00,
2013-05-27 17:52:00,65.2,62.5,28.93,SE,135,0.0,0.0,91,0.01,,,1.68,142.00,VWS V14.01,2013-05-27 22:52:00,
2013-05-27 17:53:00,65.3,62.6,28.93,SE,135,0.0,0.0,91,0.01,,,1.68,146.00,VWS V14.01,2013-05-27 22:53:00,
2013-05-27 17:54:00,65.3,62.6,28.93,SE,135,0.0,0.0,91,0.01,,,1.68,147.00,VWS V14.01,2013-05-27 22:54:00,
2013-05-27 17:55:00,65.4,62.7,28.93,SE,135,0.0,1.0,91,0.01,,,1.68,146.00,VWS V14.01,2013-05-27 22:55:00,
2013-05-27 17:56:00,65.4,62.7,28.93,SE,135,0.0,1.0,91,0.00,,,1.68,146.00,VWS V14.01,2013-05-27 22:56:00,
2013-05-27 18:06:00,65.5,62.8,28.93,ESE,112,0.0,1.0,91,0.00,,,1.68,139.00,VWS V14.01,2013-05-27 23:06:00,
2013-05-27 18:07:00,65.7,63.0,28.93,SE,146,0.0,2.0,91,0.36,,,1.64,104.00,VWS V14.01,2013-05-27 23:07:00,
2013-05-27 18:17:00,65.9,63.2,28.93,SE,146,0.0,0.0,91,0.36,,,1.64,98.00,VWS V14.01,2013-05-27 23:17:00,
2013-05-27 18:23:00,66.0,63.3,28.94,SE,146,0.0,0.0,91,0.36,,,1.64,95.00,VWS V14.01,2013-05-27 23:23:00,
2013-05-27 18:24:00,65.9,63.2,28.94,SE,146,0.0,0.0,91,0.36,,,1.64,95.00,VWS V14.01,2013-05-27 23:24:00,
2013-05-27 18:25:00,65.9,63.2,28.94,SE,146,0.0,0.0,91,0.36,,,1.64,95.00,VWS V14.01,2013-05-27 23:25:00,
2013-05-27 18:26:00,66.0,63.3,28.94,SE,145,0.0,0.0,91,0.36,,,1.64,95.00,VWS V14.01,2013-05-27 23:26:00,
2013-05-27 18:27:00,66.0,63.3,28.94,SE,145,0.0,1.0,91,0.36,,,1.64,95.00,VWS V14.01,2013-05-27 23:27:00,
2013-05-27 18:31:00,66.0,63.3,28.94,SE,146,0.0,0.0,91,0.36,,FEW049,1.64,91.00,VWS V14.01,2013-05-27 23:31:00,
2013-05-27 18:32:00,66.0,63.3,28.94,SE,145,0.0,0.0,91,0.36,,FEW049,1.64,91.00,VWS V14.01,2013-05-27 23:32:00,
2013-05-27 18:33:00,66.1,63.4,28.94,SE,145,0.0,0.0,91,0.36,,FEW049,1.64,90.00,VWS V14.01,2013-05-27 23:33:00,
2013-05-27 18:36:00,66.1,63.4,28.94,SE,146,0.0,0.0,91,0.36,,FEW049,1.64,90.00,VWS V14.01,2013-05-27 23:36:00,
2013-05-27 18:37:00,66.1,63.4,28.94,SE,146,0.0,1.0,91,0.36,,FEW049,1.64,90.00,VWS V14.01,2013-05-27 23:37:00,
2013-05-27 18:40:00,66.1,63.4,28.95,SE,145,0.0,1.0,91,0.36,,FEW049,1.64,88.00,VWS V14.01,2013-05-27 23:40:00,
2013-05-27 18:41:00,66.1,63.4,28.95,SE,145,0.0,1.0,91,0.36,,FEW049,1.64,86.00,VWS V14.01,2013-05-27 23:41:00,
2013-05-27 18:44:00,66.1,63.1,28.95,SE,138,1.0,1.0,90,0.36,,FEW049,1.64,83.00,VWS V14.01,2013-05-27 23:44:00,
2013-05-27 18:45:00,66.1,63.1,28.95,SE,138,0.0,1.0,90,0.36,,FEW049,1.64,83.00,VWS V14.01,2013-05-27 23:45:00,
2013-05-27 18:47:00,66.0,63.0,28.95,ESE,119,0.0,2.0,90,0.36,,FEW049,1.64,79.00,VWS V14.01,2013-05-27 23:47:00,
2013-05-27 18:49:00,66.0,63.0,28.95,ESE,120,0.0,0.0,90,0.36,,FEW049,1.64,77.00,VWS V14.01,2013-05-27 23:49:00,
2013-05-27 18:53:00,65.9,62.9,28.95,SE,142,0.0,1.0,90,0.36,,FEW049,1.64,72.00,VWS V14.01,2013-05-27 23:53:00,
2013-05-27 18:54:00,65.9,62.9,28.95,ESE,119,1.0,2.0,90,0.36,,FEW049,1.64,70.00,VWS V14.01,2013-05-27 23:54:00,
2013-05-27 18:55:00,65.8,62.8,28.95,ESE,119,0.0,1.0,90,0.36,,FEW049,1.64,70.00,VWS V14.01,2013-05-27 23:55:00,
2013-05-27 18:56:00,65.9,62.9,28.95,ESE,120,0.0,2.0,90,0.36,,FEW049,1.64,69.00,VWS V14.01,2013-05-27 23:56:00,
2013-05-27 18:59:00,65.8,62.8,28.95,ESE,117,0.0,1.0,90,0.36,,FEW049,1.64,63.00,VWS V14.01,2013-05-27 23:59:00,
2013-05-27 19:01:00,65.8,62.8,28.95,ESE,117,0.0,1.0,90,0.00,,FEW049,1.64,60.00,VWS V14.01,2013-05-28 00:01:00,
2013-05-27 19:03:00,65.8,62.8,28.95,ESE,117,0.0,1.0,90,0.00,,FEW049,1.64,56.00,VWS V14.01,2013-05-28 00:03:00,
2013-05-27 19:05:00,65.8,62.8,28.95,SE,142,0.0,1.0,90,0.00,,FEW049,1.64,54.00,VWS V14.01,2013-05-28 00:05:00,
2013-05-27 19:08:00,65.8,62.8,28.95,SE,137,0.0,1.0,90,0.00,,FEW049,1.64,53.00,VWS V14.01,2013-05-28 00:08:00,
2013-05-27 19:09:00,65.8,62.8,28.95,SE,129,0.0,2.0,90,0.00,,FEW049,1.64,56.00,VWS V14.01,2013-05-28 00:09:00,
2013-05-27 19:11:00,65.7,62.7,28.95,SE,129,0.0,1.0,90,0.00,,FEW049,1.64,51.00,VWS V14.01,2013-05-28 00:11:00,
2013-05-27 19:14:00,65.7,62.7,28.96,SE,128,2.0,4.0,90,0.00,,FEW049,1.64,49.00,VWS V14.01,2013-05-28 00:14:00,
2013-05-27 19:16:00,65.7,62.7,28.95,SE,130,0.0,2.0,90,0.00,,FEW049,1.64,49.00,VWS V14.01,2013-05-28 00:16:00,
2013-05-27 19:20:00,65.7,62.7,28.95,ESE,121,1.0,4.0,90,0.00,,FEW049,1.64,44.00,VWS V14.01,2013-05-28 00:20:00,
2013-05-27 19:21:00,65.7,62.7,28.95,ESE,123,0.0,6.0,90,0.00,,FEW049,1.64,39.00,VWS V14.01,2013-05-28 00:21:00,
2013-05-27 19:22:00,65.7,62.7,28.95,ESE,123,2.0,2.0,90,0.00,,FEW049,1.64,39.00,VWS V14.01,2013-05-28 00:22:00,
2013-05-27 19:24:00,65.6,62.6,28.95,SE,124,0.0,1.0,90,0.00,,FEW049,1.64,37.00,VWS V14.01,2013-05-28 00:24:00,
2013-05-27 19:25:00,65.6,62.6,28.95,ESE,119,1.0,2.0,90,0.00,,FEW049,1.64,39.00,VWS V14.01,2013-05-28 00:25:00,
2013-05-27 19:26:00,65.6,62.6,28.95,ESE,119,0.0,2.0,90,0.00,,FEW049,1.64,40.00,VWS V14.01,2013-05-28 00:26:00,
2013-05-27 19:28:00,65.6,62.3,28.95,SE,129,0.0,1.0,89,0.00,,FEW049,1.64,35.00,VWS V14.01,2013-05-28 00:28:00,
2013-05-27 19:31:00,65.6,62.3,28.95,ESE,121,0.0,0.0,89,0.00,,FEW049,1.64,35.00,VWS V14.01,2013-05-28 00:31:00,
2013-05-27 19:32:00,65.6,62.3,28.95,ESE,121,0.0,0.0,89,0.00,,FEW049,1.64,33.00,VWS V14.01,2013-05-28 00:32:00,
2013-05-27 19:33:00,65.6,62.3,28.95,ESE,121,0.0,0.0,89,0.00,,FEW049,1.64,33.00,VWS V14.01,2013-05-28 00:33:00,
2013-05-27 19:35:00,65.6,62.3,28.95,ESE,121,0.0,0.0,89,0.00,,FEW049,1.64,33.00,VWS V14.01,2013-05-28 00:35:00,
2013-05-27 19:36:00,65.6,62.3,28.95,ESE,121,1.0,2.0,89,0.00,,FEW049,1.64,32.00,VWS V14.01,2013-05-28 00:36:00,
2013-05-27 19:39:00,65.5,62.2,28.95,SE,129,0.0,1.0,89,0.00,,FEW049,1.64,26.00,VWS V14.01,2013-05-28 00:39:00,
2013-05-27 19:40:00,65.5,62.2,28.95,ESE,121,0.0,5.0,89,0.00,,FEW049,1.64,23.00,VWS V14.01,2013-05-28 00:40:00,
2013-05-27 19:41:00,65.5,62.2,28.95,ESE,121,0.0,1.0,89,0.00,,FEW049,1.64,21.00,VWS V14.01,2013-05-28 00:41:00,
2013-05-27 19:42:00,65.5,62.2,28.95,ESE,121,0.0,0.0,89,0.00,,FEW049,1.64,21.00,VWS V14.01,2013-05-28 00:42:00,
2013-05-27 19:46:00,65.4,62.1,28.95,ESE,121,0.0,1.0,89,0.00,,FEW049,1.64,18.00,VWS V14.01,2013-05-28 00:46:00,
2013-05-27 19:47:00,65.4,62.1,28.95,ESE,121,0.0,0.0,89,0.00,,FEW049,1.64,16.00,VWS V14.01,2013-05-28 00:47:00,
2013-05-27 19:48:00,65.4,62.1,28.95,ESE,121,0.0,0.0,89,0.00,,FEW049,1.64,16.00,VWS V14.01,2013-05-28 00:48:00,
2013-05-27 19:51:00,65.3,62.0,28.95,ESE,121,0.0,2.0,89,0.00,,FEW049,1.64,16.00,VWS V14.01,2013-05-28 00:51:00,
2013-05-27 19:52:00,65.3,62.0,28.95,ESE,121,0.0,1.0,89,0.00,,FEW049,1.64,16.00,VWS V14.01,2013-05-28 00:52:00,
2013-05-27 19:54:00,65.3,62.0,28.95,SSW,207,0.0,3.0,89,0.00,,FEW049,1.64,14.00,VWS V14.01,2013-05-28 00:54:00,
2013-05-27 19:56:00,65.2,61.9,28.95,SSW,198,0.0,0.0,89,0.00,,FEW049,1.64,12.00,VWS V14.01,2013-05-28 00:56:00,
2013-05-27 19:57:00,65.2,61.9,28.95,SSW,198,0.0,0.0,89,0.00,,FEW049,1.64,11.00,VWS V14.01,2013-05-28 00:57:00,
2013-05-27 19:58:00,65.2,61.9,28.95,SSW,198,0.0,0.0,89,0.00,,FEW049,1.64,11.00,VWS V14.01,2013-05-28 00:58:00,
2013-05-27 20:00:00,65.2,61.9,28.95,SE,141,2.0,2.0,89,0.00,,FEW049,1.64,9.00,VWS V14.01,2013-05-28 01:00:00,
2013-05-27 20:04:00,65.1,61.8,28.95,SE,128,0.0,0.0,89,0.00,,FEW049,1.64,7.00,VWS V14.01,2013-05-28 01:04:00,
2013-05-27 20:06:00,65.0,61.7,28.95,SE,127,0.0,0.0,89,0.00,,FEW049,1.64,7.00,VWS V14.01,2013-05-28 01:06:00,
2013-05-27 20:07:00,65.0,61.7,28.95,SE,127,0.0,0.0,89,0.00,,FEW049,1.64,5.00,VWS V14.01,2013-05-28 01:07:00,
2013-05-27 20:11:00,65.0,61.7,28.95,SE,126,0.0,0.0,89,0.00,,FEW049,1.64,5.00,VWS V14.01,2013-05-28 01:11:00,
2013-05-27 20:12:00,65.0,61.7,28.95,SE,126,0.0,0.0,89,0.00,,FEW049,1.64,0.00,VWS V14.01,2013-05-28 01:12:00,
2013-05-27 20:15:00,64.9,61.6,28.95,SSE,149,0.0,0.0,89,0.00,,FEW049,1.64,0.00,VWS V14.01,2013-05-28 01:15:00,
2013-05-27 20:16:00,64.9,61.6,28.95,SSE,149,0.0,0.0,89,0.00,,FEW049,1.64,0.00,VWS V14.01,2013-05-28 01:16:00,
2013-05-27 20:19:00,64.8,61.5,28.95,SSE,149,0.0,1.0,89,0.00,,FEW049,1.64,0.00,VWS V14.01,2013-05-28 01:19:00,
2013-05-27 20:20:00,64.8,61.5,28.95,SSE,149,0.0,1.0,89,0.00,,FEW049,1.64,0.00,VWS V14.01,2013-05-28 01:20:00,
2013-05-27 20:21:00,64.8,61.5,28.95,SSE,149,0.0,0.0,89,0.00,,FEW049,1.64,0.00,VWS V14.01,2013-05-28 01:21:00,
2013-05-27 20:25:00,64.7,61.4,28.95,SSE,148,0.0,1.0,89,0.00,,FEW049,1.64,0.00,VWS V14.01,2013-05-28 01:25:00,
2013-05-27 20:26:00,64.7,61.4,28.95,SSE,149,0.0,0.0,89,0.00,,FEW049,1.64,0.00,VWS V14.01,2013-05-28 01:26:00,
2013-05-27 20:27:00,64.6,61.3,28.95,SSE,148,0.0,0.0,89,0.00,,FEW049,1.64,0.00,VWS V14.01,2013-05-28 01:27:00,
2013-05-27 20:31:00,64.5,61.2,28.95,SSE,149,0.0,1.0,89,0.00,,CLR,1.64,0.00,VWS V14.01,2013-05-28 01:31:00,
2013-05-27 20:32:00,64.5,61.2,28.95,SSE,148,0.0,0.0,89,0.00,,CLR,1.64,0.00,VWS V14.01,2013-05-28 01:32:00,
2013-05-27 20:33:00,64.5,61.2,28.95,SSE,149,0.0,1.0,89,0.00,,CLR,1.64,0.00,VWS V14.01,2013-05-28 01:33:00,
2013-05-27 20:35:00,64.5,61.2,28.95,SSE,148,0.0,0.0,89,0.00,,CLR,1.64,0.00,VWS V14.01,2013-05-28 01:35:00,
2013-05-27 20:37:00,64.4,61.1,28.95,SSE,147,0.0,1.0,89,0.00,,CLR,1.64,0.00,VWS V14.01,2013-05-28 01:37:00,
2013-05-27 20:39:00,64.4,61.1,28.95,SSE,147,0.0,0.0,89,0.00,,CLR,1.64,0.00,VWS V14.01,2013-05-28 01:39:00,
2013-05-27 20:40:00,64.3,61.0,28.95,SSE,147,0.0,0.0,89,0.00,,CLR,1.64,0.00,VWS V14.01,2013-05-28 01:40:00,
2013-05-27 20:41:00,64.3,61.0,28.95,SSE,147,0.0,0.0,89,0.00,,CLR,1.64,0.00,VWS V14.01,2013-05-28 01:41:00,
2013-05-27 20:43:00,64.3,61.0,28.95,SE,146,0.0,0.0,89,0.00,,CLR,1.64,0.00,VWS V14.01,2013-05-28 01:43:00,
2013-05-27 20:45:00,64.2,60.9,28.95,SSE,147,0.0,0.0,89,0.00,,CLR,1.64,0.00,VWS V14.01,2013-05-28 01:45:00,
2013-05-27 20:46:00,64.2,60.9,28.95,SSE,147,0.0,0.0,89,0.00,,CLR,1.64,0.00,VWS V14.01,2013-05-28 01:46:00,
2013-05-27 20:47:00,64.1,60.8,28.95,SSE,147,0.0,0.0,89,0.00,,CLR,1.64,0.00,VWS V14.01,2013-05-28 01:47:00,
2013-05-27 20:48:00,64.1,60.8,28.95,SSE,147,0.0,0.0,89,0.00,,CLR,1.64,0.00,VWS V14.01,2013-05-28 01:48:00,
2013-05-27 20:50:00,64.1,61.1,28.95,SSE,147,0.0,0.0,90,0.00,,CLR,1.64,0.00,VWS V14.01,2013-05-28 01:50:00,
2013-05-27 20:51:00,64.0,61.0,28.95,SSE,147,0.0,0.0,90,0.00,,CLR,1.64,0.00,VWS V14.01,2013-05-28 01:51:00,
2013-05-27 20:54:00,64.0,61.0,28.95,SSE,147,0.0,0.0,90,0.00,,CLR,1.64,0.00,VWS V14.01,2013-05-28 01:54:00,
2013-05-27 20:55:00,64.0,61.0,28.95,SSE,147,0.0,1.0,90,0.00,,CLR,1.64,0.00,VWS V14.01,2013-05-28 01:55:00,
2013-05-27 20:56:00,64.0,61.0,28.95,SE,146,0.0,0.0,90,0.00,,CLR,1.64,0.00,VWS V14.01,2013-05-28 01:56:00,
2013-05-27 20:57:00,63.9,60.9,28.95,SE,146,0.0,0.0,90,0.00,,CLR,1.64,0.00,VWS V14.01,2013-05-28 01:57:00,
2013-05-27 20:59:00,63.9,60.9,28.95,SE,146,0.0,0.0,90,0.00,,CLR,1.64,0.00,VWS V14.01,2013-05-28 01:59:00,
2013-05-27 21:01:00,63.9,60.9,28.95,SSE,147,0.0,0.0,90,0.00,,CLR,1.64,0.00,VWS V14.01,2013-05-28 02:01:00,
2013-05-27 21:02:00,63.9,60.9,28.95,SSE,147,0.0,0.0,90,0.00,,CLR,1.64,0.00,VWS V14.01,2013-05-28 02:02:00,
2013-05-27 21:04:00,63.8,60.8,28.95,SE,146,0.0,0.0,90,0.00,,CLR,1.64,0.00,VWS V14.01,2013-05-28 02:04:00,
2013-05-27 21:05:00,63.8,60.8,28.95,SE,146,0.0,0.0,90,0.00,,CLR,1.64,0.00,VWS V14.01,2013-05-28 02:05:00,
2013-05-27 21:06:00,63.8,60.8,28.95,SSE,147,0.0,0.0,90,0.00,,CLR,1.64,0.00,VWS V14.01,2013-05-28 02:06:00,
2013-05-27 21:07:00,63.8,60.8,28.95,SSE,147,0.0,0.0,90,0.00,,CLR,1.64,0.00,VWS V14.01,2013-05-28 02:07:00,
2013-05-27 21:09:00,63.8,60.8,28.95,SSE,147,0.0,0.0,90,0.00,,CLR,1.64,0.00,VWS V14.01,2013-05-28 02:09:00,
2013-05-27 21:12:00,63.8,60.8,28.95,SSE,159,0.0,2.0,90,0.00,,CLR,1.64,0.00,VWS V14.01,2013-05-28 02:12:00,
2013-05-27 21:13:00,63.7,60.7,28.95,SSE,159,0.0,0.0,90,0.00,,CLR,1.64,0.00,VWS V14.01,2013-05-28 02:13:00,
2013-05-27 21:15:00,63.7,60.7,28.95,SE,136,0.0,2.0,90,0.00,,CLR,1.64,0.00,VWS V14.01,2013-05-28 02:15:00,
2013-05-27 21:16:00,63.7,60.7,28.95,SE,136,0.0,0.0,90,0.00,,CLR,1.64,0.00,VWS V14.01,2013-05-28 02:16:00,
2013-05-27 21:17:00,63.7,60.7,28.95,SE,136,0.0,0.0,90,0.00,,CLR,1.64,0.00,VWS V14.01,2013-05-28 02:17:00,
2013-05-27 21:18:00,63.6,60.6,28.95,SE,136,0.0,0.0,90,0.00,,CLR,1.64,0.00,VWS V14.01,2013-05-28 02:18:00,
2013-05-27 21:19:00,63.7,60.7,28.95,SE,136,0.0,0.0,90,0.00,,CLR,1.64,0.00,VWS V14.01,2013-05-28 02:19:00,
2013-05-27 21:23:00,63.6,60.6,28.96,SE,136,0.0,1.0,90,0.00,,CLR,1.64,0.00,VWS V14.01,2013-05-28 02:23:00,
2013-05-27 21:24:00,63.6,60.6,28.96,SE,136,0.0,0.0,90,0.00,,CLR,1.64,0.00,VWS V14.01,2013-05-28 02:24:00,
2013-05-27 21:25:00,63.6,60.6,28.96,SE,136,0.0,1.0,90,0.00,,CLR,1.64,0.00,VWS V14.01,2013-05-28 02:25:00,
2013-05-27 21:26:00,63.6,60.6,28.96,SE,136,1.0,1.0,90,0.00,,CLR,1.64,0.00,VWS V14.01,2013-05-28 02:26:00,
2013-05-27 21:27:00,63.6,60.6,28.96,SE,136,0.0,1.0,90,0.00,,CLR,1.64,0.00,VWS V14.01,2013-05-28 02:27:00,
2013-05-27 21:29:00,63.6,60.6,28.96,SE,136,0.0,0.0,90,0.00,,CLR,1.64,0.00,VWS V14.01,2013-05-28 02:29:00,
2013-05-27 21:33:00,63.6,60.6,28.97,SE,136,0.0,0.0,90,0.00,,CLR,1.64,0.00,VWS V14.01,2013-05-28 02:33:00,
2013-05-27 21:34:00,63.6,60.6,28.97,SE,136,0.0,0.0,90,0.00,,CLR,1.64,0.00,VWS V14.01,2013-05-28 02:34:00,
2013-05-27 21:38:00,63.6,60.6,28.97,SE,136,0.0,1.0,90,0.00,,CLR,1.64,0.00,VWS V14.01,2013-05-28 02:38:00,
2013-05-27 21:39:00,63.6,60.6,28.97,SE,136,0.0,0.0,90,0.00,,CLR,1.64,0.00,VWS V14.01,2013-05-28 02:39:00,
2013-05-27 21:40:00,63.6,60.6,28.97,SE,136,0.0,1.0,90,0.00,,CLR,1.64,0.00,VWS V14.01,2013-05-28 02:40:00,
2013-05-27 21:42:00,63.6,60.6,28.97,SE,136,0.0,1.0,90,0.00,,CLR,1.64,0.00,VWS V14.01,2013-05-28 02:42:00,
2013-05-27 21:45:00,63.6,60.6,28.97,SE,136,0.0,0.0,90,0.00,,CLR,1.64,0.00,VWS V14.01,2013-05-28 02:45:00,
2013-05-27 21:47:00,63.6,60.6,28.97,SE,136,0.0,0.0,90,0.00,,CLR,1.64,0.00,VWS V14.01,2013-05-28 02:47:00,
2013-05-27 21:50:00,63.6,60.6,28.98,SE,136,0.0,1.0,90,0.00,,CLR,1.64,0.00,VWS V14.01,2013-05-28 02:50:00,
2013-05-27 21:53:00,63.6,60.6,28.98,SE,136,0.0,0.0,90,0.00,,CLR,1.64,0.00,VWS V14.01,2013-05-28 02:53:00,
2013-05-27 21:55:00,63.6,60.6,28.98,SE,136,0.0,0.0,90,0.00,,CLR,1.64,0.00,VWS V14.01,2013-05-28 02:55:00,
2013-05-27 21:57:00,63.7,60.7,28.98,SE,142,0.0,0.0,90,0.00,,CLR,1.64,0.00,VWS V14.01,2013-05-28 02:57:00,
2013-05-27 21:59:00,63.7,60.7,28.98,SE,142,0.0,1.0,90,0.00,,CLR,1.64,0.00,VWS V14.01,2013-05-28 02:59:00,
2013-05-27 22:00:00,63.6,60.6,28.98,SE,142,0.0,1.0,90,0.00,,SCT110,1.64,0.00,VWS V14.01,2013-05-28 03:00:00,
2013-05-27 22:05:00,63.7,60.7,28.98,SE,141,0.0,1.0,90,0.00,,SCT110,1.64,0.00,VWS V14.01,2013-05-28 03:05:00,
2013-05-27 22:07:00,63.7,60.7,28.98,SE,142,0.0,0.0,90,0.00,,SCT110,1.64,0.00,VWS V14.01,2013-05-28 03:07:00,
2013-05-27 22:08:00,63.7,60.7,28.98,SE,141,0.0,0.0,90,0.00,,SCT110,1.64,0.00,VWS V14.01,2013-05-28 03:08:00,
2013-05-27 22:09:00,63.7,60.7,28.99,SE,142,0.0,0.0,90,0.00,,SCT110,1.64,0.00,VWS V14.01,2013-05-28 03:09:00,
2013-05-27 22:10:00,63.7,60.7,28.99,SE,142,0.0,1.0,90,0.00,,SCT110,1.64,0.00,VWS V14.01,2013-05-28 03:10:00,
2013-05-27 22:11:00,63.7,60.7,28.99,SE,141,0.0,0.0,90,0.00,,SCT110,1.64,0.00,VWS V14.01,2013-05-28 03:11:00,
2013-05-27 22:14:00,63.7,60.7,28.99,South,173,0.0,1.0,90,0.00,,SCT110,1.64,0.00,VWS V14.01,2013-05-28 03:14:00,
2013-05-27 22:15:00,63.7,60.7,28.99,South,174,1.0,1.0,90,0.00,,SCT110,1.64,0.00,VWS V14.01,2013-05-28 03:15:00,
2013-05-27 22:16:00,63.7,60.7,28.99,South,174,1.0,1.0,90,0.00,,SCT110,1.64,0.00,VWS V14.01,2013-05-28 03:16:00,
2013-05-27 22:17:00,63.7,60.7,28.99,South,174,0.0,1.0,90,0.00,,SCT110,1.64,0.00,VWS V14.01,2013-05-28 03:17:00,
2013-05-27 22:19:00,63.7,60.7,28.99,South,173,0.0,1.0,90,0.00,,SCT110,1.64,0.00,VWS V14.01,2013-05-28 03:19:00,
2013-05-27 22:20:00,63.7,60.7,28.99,South,173,1.0,1.0,90,0.00,,SCT110,1.64,0.00,VWS V14.01,2013-05-28 03:20:00,
2013-05-27 22:23:00,63.7,60.7,28.99,SE,140,0.0,0.0,90,0.00,,SCT110,1.64,0.00,VWS V14.01,2013-05-28 03:23:00,
2013-05-27 22:24:00,63.7,60.7,28.99,SE,140,0.0,1.0,90,0.00,,SCT110,1.64,0.00,VWS V14.01,2013-05-28 03:24:00,
2013-05-27 22:25:00,63.7,60.7,28.99,SE,135,1.0,2.0,90,0.00,,SCT110,1.64,0.00,VWS V14.01,2013-05-28 03:25:00,
2013-05-27 22:28:00,63.7,60.7,28.99,SE,145,0.0,4.0,90,0.00,,SCT110,1.64,0.00,VWS V14.01,2013-05-28 03:28:00,
2013-05-27 22:30:00,63.7,60.7,28.99,SE,132,0.0,0.0,90,0.00,,SCT110,1.64,0.00,VWS V14.01,2013-05-28 03:30:00,
2013-05-27 22:31:00,63.7,60.7,29.00,SE,132,0.0,1.0,90,0.00,,SCT110,1.64,0.00,VWS V14.01,2013-05-28 03:31:00,
2013-05-27 22:33:00,63.7,60.7,29.00,SE,132,0.0,1.0,90,0.00,,SCT110,1.64,0.00,VWS V14.01,2013-05-28 03:33:00,
2013-05-27 22:36:00,63.7,60.7,28.99,SSE,149,0.0,1.0,90,0.00,,SCT110,1.64,0.00,VWS V14.01,2013-05-28 03:36:00,
2013-05-27 22:38:00,63.7,60.7,29.00,SSW,202,0.0,0.0,90,0.00,,SCT110,1.64,0.00,VWS V14.01,2013-05-28 03:38:00,
2013-05-27 22:39:00,63.8,60.8,29.00,SSW,200,0.0,1.0,90,0.00,,SCT110,1.64,0.00,VWS V14.01,2013-05-28 03:39:00,
2013-05-27 22:41:00,63.8,60.8,29.00,SE,127,0.0,2.0,90,0.00,,SCT110,1.64,0.00,VWS V14.01,2013-05-28 03:41:00,
2013-05-27 22:43:00,63.8,60.8,29.00,SE,138,1.0,4.0,90,0.00,,SCT110,1.64,0.00,VWS V14.01,2013-05-28 03:43:00,
2013-05-27 22:45:00,63.8,60.8,28.99,West,277,1.0,1.0,90,0.00,,SCT110,1.64,0.00,VWS V14.01,2013-05-28 03:45:00,
2013-05-27 22:47:00,63.8,60.8,28.99,West,276,0.0,0.0,90,0.00,,SCT110,1.64,0.00,VWS V14.01,2013-05-28 03:47:00,
2013-05-27 22:48:00,63.8,60.8,28.99,West,277,0.0,0.0,90,0.00,,SCT110,1.64,0.00,VWS V14.01,2013-05-28 03:48:00,
2013-05-27 22:49:00,63.8,60.8,28.99,West,277,0.0,0.0,90,0.00,,SCT110,1.64,0.00,VWS V14.01,2013-05-28 03:49:00,
2013-05-27 22:52:00,63.8,60.8,28.99,South,178,0.0,1.0,90,0.00,,SCT110,1.64,0.00,VWS V14.01,2013-05-28 03:52:00,
2013-05-27 22:53:00,63.8,60.8,28.99,South,178,0.0,0.0,90,0.00,,SCT110,1.64,0.00,VWS V14.01,2013-05-28 03:53:00,
2013-05-27 22:54:00,63.8,60.8,28.99,South,178,0.0,0.0,90,0.00,,SCT110,1.64,0.00,VWS V14.01,2013-05-28 03:54:00,
2013-05-27 22:56:00,63.8,60.8,28.99,South,178,0.0,0.0,90,0.00,,SCT110,1.64,0.00,VWS V14.01,2013-05-28 03:56:00,
2013-05-27 22:57:00,63.8,60.8,28.99,South,178,0.0,0.0,90,0.00,,SCT110,1.64,0.00,VWS V14.01,2013-05-28 03:57:00,
2013-05-27 22:58:00,63.8,60.8,28.99,South,178,0.0,1.0,90,0.00,,SCT110,1.64,0.00,VWS V14.01,2013-05-28 03:58:00,
2013-05-27 23:00:00,63.8,60.8,28.99,South,178,0.0,0.0,90,0.00,,BKN,1.64,0.00,VWS V14.01,2013-05-28 04:00:00,
2013-05-27 23:01:00,63.8,60.8,28.99,South,178,0.0,1.0,90,0.00,,BKN,1.64,0.00,VWS V14.01,2013-05-28 04:01:00,
2013-05-27 23:02:00,63.8,60.8,28.99,South,178,0.0,0.0,90,0.00,,BKN,1.64,0.00,VWS V14.01,2013-05-28 04:02:00,
2013-05-27 23:05:00,63.9,60.9,28.99,SE,142,0.0,1.0,90,0.00,,BKN,1.64,0.00,VWS V14.01,2013-05-28 04:05:00,
2013-05-27 23:06:00,63.8,60.8,28.99,SE,142,0.0,1.0,90,0.00,,BKN,1.64,0.00,VWS V14.01,2013-05-28 04:06:00,
2013-05-27 23:10:00,63.9,60.9,28.99,South,186,1.0,1.0,90,0.00,,BKN,1.64,0.00,VWS V14.01,2013-05-28 04:10:00,
2013-05-27 23:11:00,63.9,60.9,28.99,SSE,163,0.0,1.0,90,0.00,,BKN,1.64,0.00,VWS V14.01,2013-05-28 04:11:00,
2013-05-27 23:12:00,63.9,60.9,28.99,SSE,163,0.0,0.0,90,0.00,,BKN,1.64,0.00,VWS V14.01,2013-05-28 04:12:00,
2013-05-27 23:13:00,63.9,60.9,28.99,SSE,163,0.0,0.0,90,0.00,,BKN,1.64,0.00,VWS V14.01,2013-05-28 04:13:00,
2013-05-27 23:14:00,63.9,60.9,28.99,SSE,160,0.0,1.0,90,0.00,,BKN,1.64,0.00,VWS V14.01,2013-05-28 04:14:00,
2013-05-27 23:17:00,63.9,60.9,28.99,SSE,160,0.0,0.0,90,0.00,,BKN,1.64,0.00,VWS V14.01,2013-05-28 04:17:00,
2013-05-27 23:18:00,63.9,60.9,28.99,SSE,160,0.0,0.0,90,0.00,,BKN,1.64,0.00,VWS V14.01,2013-05-28 04:18:00,
2013-05-27 23:20:00,63.9,60.9,28.99,SSE,160,0.0,1.0,90,0.00,,BKN,1.64,0.00,VWS V14.01,2013-05-28 04:20:00,
2013-05-27 23:22:00,63.9,60.9,28.99,SSE,160,0.0,0.0,90,0.00,,BKN,1.64,0.00,VWS V14.01,2013-05-28 04:22:00,
2013-05-27 23:23:00,63.9,60.9,28.99,SSE,158,0.0,1.0,90,0.00,,BKN,1.64,0.00,VWS V14.01,2013-05-28 04:23:00,
2013-05-27 23:26:00,63.9,60.9,28.99,SSE,157,0.0,0.0,90,0.00,,BKN,1.64,0.00,VWS V14.01,2013-05-28 04:26:00,
2013-05-27 23:27:00,63.9,60.9,28.99,SSE,157,0.0,0.0,90,0.00,,BKN,1.64,0.00,VWS V14.01,2013-05-28 04:27:00,
2013-05-27 23:28:00,63.9,60.9,28.99,SSE,157,0.0,0.0,90,0.00,,BKN,1.64,0.00,VWS V14.01,2013-05-28 04:28:00,
2013-05-27 23:30:00,63.9,60.9,28.99,SSE,157,0.0,0.0,90,0.00,,BKN,1.64,0.00,VWS V14.01,2013-05-28 04:30:00,
2013-05-27 23:32:00,63.9,60.6,28.99,SE,128,0.0,1.0,89,0.00,,BKN,1.64,0.00,VWS V14.01,2013-05-28 04:32:00,
2013-05-27 23:33:00,63.9,60.6,28.99,SE,128,0.0,1.0,89,0.00,,BKN,1.64,0.00,VWS V14.01,2013-05-28 04:33:00,
2013-05-27 23:35:00,63.9,60.6,28.98,SE,128,0.0,0.0,89,0.00,,BKN,1.64,0.00,VWS V14.01,2013-05-28 04:35:00,
2013-05-27 23:37:00,63.9,60.6,28.98,SSE,168,0.0,2.0,89,0.00,,BKN,1.64,0.00,VWS V14.01,2013-05-28 04:37:00,
2013-05-27 23:38:00,63.9,60.6,28.98,South,180,3.0,3.0,89,0.00,,BKN,1.64,0.00,VWS V14.01,2013-05-28 04:38:00,
2013-05-27 23:42:00,63.8,60.5,28.98,SE,145,0.0,4.0,89,0.00,,BKN,1.64,0.00,VWS V14.01,2013-05-28 04:42:00,
2013-05-27 23:43:00,63.8,60.5,28.97,SE,146,2.0,4.0,89,0.00,,BKN,1.64,0.00,VWS V14.01,2013-05-28 04:43:00,
2013-05-27 23:44:00,63.8,60.5,28.98,SSW,195,1.0,2.0,89,0.00,,BKN,1.64,0.00,VWS V14.01,2013-05-28 04:44:00,
2013-05-27 23:46:00,63.8,60.5,28.98,SE,138,1.0,2.0,89,0.00,,BKN,1.64,0.00,VWS V14.01,2013-05-28 04:46:00,
2013-05-27 23:47:00,63.8,60.5,28.98,SE,140,0.0,1.0,89,0.00,,BKN,1.64,0.00,VWS V14.01,2013-05-28 04:47:00,
2013-05-27 23:51:00,63.8,60.5,28.98,SE,138,0.0,1.0,89,0.00,,BKN,1.64,0.00,VWS V14.01,2013-05-28 04:51:00,
2013-05-27 23:52:00,63.8,60.5,28.98,SE,138,0.0,0.0,89,0.00,,BKN,1.64,0.00,VWS V14.01,2013-05-28 04:52:00,
2013-05-27 23:53:00,63.8,60.5,28.97,SE,138,0.0,1.0,89,0.00,,BKN,1.64,0.00,VWS V14.01,2013-05-28 04:53:00,
2013-05-27 23:54:00,63.8,60.5,28.97,SE,137,0.0,1.0,89,0.00,,BKN,1.64,0.00,VWS V14.01,2013-05-28 04:54:00,
2013-05-27 23:56:00,63.7,60.4,28.98,SE,138,0.0,1.0,89,0.00,,BKN,1.64,0.00,VWS V14.01,2013-05-28 04:56:00,
2013-05-27 23:59:00,63.7,60.4,28.98,SSW,196,0.0,0.0,89,0.00,,BKN,1.64,0.00,VWS V14.01,2013-05-28 04:59:00,